<?xml version='1.0' encoding='UTF-8'?><gpx version="1.1" creator="JPX - https://github.com/jenetics/jpx" xmlns="http://www.topografix.com/GPX/1/1"><trk><trkseg><trkpt lat="45.9602922" lon="9.0975179"><ele>794.0000000000001</ele><time>2026-03-28T10:06:09.024Z</time></trkpt><trkpt lat="45.9603523" lon="9.0974786"><ele>794.0</ele><time>2026-03-28T10:06:09.997Z</time></trkpt><trkpt lat="45.960427" lon="9.0974266"><ele>794.0</ele><time>2026-03-28T10:06:11.018Z</time></trkpt><trkpt lat="45.9605027" lon="9.0973942"><ele>794.0</ele><time>2026-03-28T10:06:12.004Z</time></trkpt><trkpt lat="45.9606083" lon="9.0973929"><ele>794.0000000000001</ele><time>2026-03-28T10:06:13.013Z</time></trkpt><trkpt lat="45.9607011" lon="9.0973867"><ele>794.0</ele><time>2026-03-28T10:06:14.018Z</time></trkpt><trkpt lat="45.960791" lon="9.0973894"><ele>794.4000000000001</ele><time>2026-03-28T10:06:15.01Z</time></trkpt><trkpt lat="45.9608793" lon="9.0974069"><ele>794.8</ele><time>2026-03-28T10:06:16.002Z</time></trkpt><trkpt lat="45.9609599" lon="9.0974509"><ele>795.2</ele><time>2026-03-28T10:06:17.015Z</time></trkpt><trkpt lat="45.9610397" lon="9.0975083"><ele>795.5999999999999</ele><time>2026-03-28T10:06:18.006Z</time></trkpt><trkpt lat="45.961123" lon="9.09757"><ele>796.0</ele><time>2026-03-28T10:06:18.992Z</time></trkpt><trkpt lat="45.9612132" lon="9.0976424"><ele>796.0</ele><time>2026-03-28T10:06:19.999Z</time></trkpt><trkpt lat="45.9612961" lon="9.0977275"><ele>796.0</ele><time>2026-03-28T10:06:21Z</time></trkpt><trkpt lat="45.9613674" lon="9.0978247"><ele>796.0</ele><time>2026-03-28T10:06:22.033Z</time></trkpt><trkpt lat="45.9614364" lon="9.0979183"><ele>796.0</ele><time>2026-03-28T10:06:23.019Z</time></trkpt><trkpt lat="45.9615137" lon="9.0979843"><ele>796.0</ele><time>2026-03-28T10:06:24.003Z</time></trkpt><trkpt lat="45.9616029" lon="9.0980033"><ele>796.0</ele><time>2026-03-28T10:06:25.024Z</time></trkpt><trkpt lat="45.9616957" lon="9.0980229"><ele>796.0</ele><time>2026-03-28T10:06:26.013Z</time></trkpt><trkpt lat="45.9618017" lon="9.0979956"><ele>796.0</ele><time>2026-03-28T10:06:26.995Z</time></trkpt><trkpt lat="45.9619075" lon="9.097978"><ele>796.0</ele><time>2026-03-28T10:06:27.999Z</time></trkpt><trkpt lat="45.9620138" lon="9.0979663"><ele>796.0</ele><time>2026-03-28T10:06:29.035Z</time></trkpt><trkpt lat="45.9621155" lon="9.0979407"><ele>797.8</ele><time>2026-03-28T10:06:30.038Z</time></trkpt><trkpt lat="45.9622045" lon="9.0978819"><ele>799.5999999999999</ele><time>2026-03-28T10:06:30.996Z</time></trkpt><trkpt lat="45.9622831" lon="9.0977881"><ele>801.4</ele><time>2026-03-28T10:06:32.023Z</time></trkpt><trkpt lat="45.9623487" lon="9.0976751"><ele>803.2</ele><time>2026-03-28T10:06:33.012Z</time></trkpt><trkpt lat="45.9624241" lon="9.0975745"><ele>805.0</ele><time>2026-03-28T10:06:34.017Z</time></trkpt><trkpt lat="45.9625093" lon="9.0975133"><ele>803.4</ele><time>2026-03-28T10:06:35.001Z</time></trkpt><trkpt lat="45.9625941" lon="9.097454"><ele>801.8</ele><time>2026-03-28T10:06:36.035Z</time></trkpt><trkpt lat="45.9626872" lon="9.0974681"><ele>800.2</ele><time>2026-03-28T10:06:37Z</time></trkpt><trkpt lat="45.9627856" lon="9.0975027"><ele>798.6</ele><time>2026-03-28T10:06:38.022Z</time></trkpt><trkpt lat="45.962885" lon="9.0975392"><ele>797.0</ele><time>2026-03-28T10:06:39.014Z</time></trkpt><trkpt lat="45.962984" lon="9.0975962"><ele>797.0</ele><time>2026-03-28T10:06:40.012Z</time></trkpt><trkpt lat="45.9630653" lon="9.0976913"><ele>797.0</ele><time>2026-03-28T10:06:41.017Z</time></trkpt><trkpt lat="45.9631252" lon="9.0978118"><ele>797.0</ele><time>2026-03-28T10:06:41.998Z</time></trkpt><trkpt lat="45.9631893" lon="9.0979236"><ele>797.0</ele><time>2026-03-28T10:06:43.012Z</time></trkpt><trkpt lat="45.9632657" lon="9.0980066"><ele>797.0</ele><time>2026-03-28T10:06:44.01Z</time></trkpt><trkpt lat="45.963364" lon="9.0980311"><ele>799.5</ele><time>2026-03-28T10:06:45.008Z</time></trkpt><trkpt lat="45.9634843" lon="9.0980452"><ele>802.0</ele><time>2026-03-28T10:06:46.019Z</time></trkpt><trkpt lat="45.9636293" lon="9.0980579"><ele>804.5</ele><time>2026-03-28T10:06:47.017Z</time></trkpt><trkpt lat="45.9637647" lon="9.0980454"><ele>807.0</ele><time>2026-03-28T10:06:48.01Z</time></trkpt><trkpt lat="45.9638945" lon="9.0979997"><ele>807.0</ele><time>2026-03-28T10:06:49.01Z</time></trkpt><trkpt lat="45.9640277" lon="9.0979615"><ele>807.0</ele><time>2026-03-28T10:06:50.018Z</time></trkpt><trkpt lat="45.9641426" lon="9.0979531"><ele>807.0</ele><time>2026-03-28T10:06:51.021Z</time></trkpt><trkpt lat="45.9642487" lon="9.0979811"><ele>807.0</ele><time>2026-03-28T10:06:52.028Z</time></trkpt><trkpt lat="45.9643568" lon="9.0980136"><ele>812.6</ele><time>2026-03-28T10:06:53.02Z</time></trkpt><trkpt lat="45.9644614" lon="9.098066"><ele>818.2</ele><time>2026-03-28T10:06:54.007Z</time></trkpt><trkpt lat="45.9645715" lon="9.0980963"><ele>823.8</ele><time>2026-03-28T10:06:55.023Z</time></trkpt><trkpt lat="45.9646764" lon="9.0980976"><ele>829.4</ele><time>2026-03-28T10:06:55.996Z</time></trkpt><trkpt lat="45.9647585" lon="9.0980049"><ele>835.0</ele><time>2026-03-28T10:06:56.999Z</time></trkpt><trkpt lat="45.9648145" lon="9.0979007"><ele>835.0</ele><time>2026-03-28T10:06:58.022Z</time></trkpt><trkpt lat="45.9648426" lon="9.0977766"><ele>835.0</ele><time>2026-03-28T10:06:59.013Z</time></trkpt><trkpt lat="45.9648349" lon="9.0976395"><ele>835.0</ele><time>2026-03-28T10:07:00.013Z</time></trkpt><trkpt lat="45.964788" lon="9.0974998"><ele>835.0</ele><time>2026-03-28T10:07:01.003Z</time></trkpt><trkpt lat="45.9647431" lon="9.0973641"><ele>835.0</ele><time>2026-03-28T10:07:02.01Z</time></trkpt><trkpt lat="45.9646551" lon="9.097221"><ele>840.25</ele><time>2026-03-28T10:07:03.017Z</time></trkpt><trkpt lat="45.9645429" lon="9.0970904"><ele>845.5</ele><time>2026-03-28T10:07:04.015Z</time></trkpt><trkpt lat="45.9644576" lon="9.0969554"><ele>850.75</ele><time>2026-03-28T10:07:05.011Z</time></trkpt><trkpt lat="45.9643941" lon="9.0968024"><ele>856.0</ele><time>2026-03-28T10:07:06.018Z</time></trkpt><trkpt lat="45.9643544" lon="9.096633"><ele>858.5</ele><time>2026-03-28T10:07:07.025Z</time></trkpt><trkpt lat="45.9643152" lon="9.0964659"><ele>861.0</ele><time>2026-03-28T10:07:08.012Z</time></trkpt><trkpt lat="45.9643096" lon="9.0962973"><ele>863.5</ele><time>2026-03-28T10:07:09.002Z</time></trkpt><trkpt lat="45.9642955" lon="9.0961108"><ele>866.0</ele><time>2026-03-28T10:07:10.033Z</time></trkpt><trkpt lat="45.9642472" lon="9.0959291"><ele>856.25</ele><time>2026-03-28T10:07:11.038Z</time></trkpt><trkpt lat="45.9641898" lon="9.0957543"><ele>846.5</ele><time>2026-03-28T10:07:12.017Z</time></trkpt><trkpt lat="45.9641436" lon="9.0955729"><ele>836.75</ele><time>2026-03-28T10:07:13.009Z</time></trkpt><trkpt lat="45.9641075" lon="9.0953922"><ele>827.0</ele><time>2026-03-28T10:07:14.016Z</time></trkpt><trkpt lat="45.9640907" lon="9.0952069"><ele>827.0</ele><time>2026-03-28T10:07:15.028Z</time></trkpt><trkpt lat="45.9640948" lon="9.0950301"><ele>827.0</ele><time>2026-03-28T10:07:15.993Z</time></trkpt><trkpt lat="45.9641056" lon="9.094867"><ele>827.0</ele><time>2026-03-28T10:07:17.034Z</time></trkpt><trkpt lat="45.9641068" lon="9.0947094"><ele>827.0</ele><time>2026-03-28T10:07:18.022Z</time></trkpt><trkpt lat="45.9640967" lon="9.0945489"><ele>827.2</ele><time>2026-03-28T10:07:19.018Z</time></trkpt><trkpt lat="45.9640848" lon="9.0943867"><ele>827.4000000000001</ele><time>2026-03-28T10:07:20.017Z</time></trkpt><trkpt lat="45.9640693" lon="9.0942286"><ele>827.5999999999999</ele><time>2026-03-28T10:07:21.014Z</time></trkpt><trkpt lat="45.9640543" lon="9.094078"><ele>827.8</ele><time>2026-03-28T10:07:21.993Z</time></trkpt><trkpt lat="45.9640464" lon="9.0939534"><ele>828.0</ele><time>2026-03-28T10:07:23.04Z</time></trkpt><trkpt lat="45.964043" lon="9.0938569"><ele>828.0</ele><time>2026-03-28T10:07:24.038Z</time></trkpt><trkpt lat="45.9640541" lon="9.0937372"><ele>828.0</ele><time>2026-03-28T10:07:32.015Z</time></trkpt><trkpt lat="45.964037" lon="9.0935955"><ele>828.0</ele><time>2026-03-28T10:07:34.022Z</time></trkpt><trkpt lat="45.9640155" lon="9.0934952"><ele>828.0</ele><time>2026-03-28T10:07:36.015Z</time></trkpt><trkpt lat="45.9639918" lon="9.0933553"><ele>828.0</ele><time>2026-03-28T10:07:41.021Z</time></trkpt><trkpt lat="45.9640185" lon="9.0932268"><ele>825.8</ele><time>2026-03-28T10:07:43.015Z</time></trkpt><trkpt lat="45.9640355" lon="9.0930455"><ele>823.5999999999999</ele><time>2026-03-28T10:07:45.028Z</time></trkpt><trkpt lat="45.9640582" lon="9.0929428"><ele>821.4000000000001</ele><time>2026-03-28T10:07:46.005Z</time></trkpt><trkpt lat="45.9640983" lon="9.0928416"><ele>819.2</ele><time>2026-03-28T10:07:47.01Z</time></trkpt><trkpt lat="45.9641438" lon="9.092742"><ele>817.0</ele><time>2026-03-28T10:07:48.008Z</time></trkpt><trkpt lat="45.9641849" lon="9.09263"><ele>821.0</ele><time>2026-03-28T10:07:49.022Z</time></trkpt><trkpt lat="45.9642204" lon="9.0925116"><ele>825.0</ele><time>2026-03-28T10:07:50.027Z</time></trkpt><trkpt lat="45.9642531" lon="9.092385"><ele>829.0</ele><time>2026-03-28T10:07:51.01Z</time></trkpt><trkpt lat="45.9642859" lon="9.0922639"><ele>833.0</ele><time>2026-03-28T10:07:51.998Z</time></trkpt><trkpt lat="45.9643225" lon="9.0921413"><ele>837.0</ele><time>2026-03-28T10:07:53.016Z</time></trkpt><trkpt lat="45.9643679" lon="9.0920239"><ele>837.0</ele><time>2026-03-28T10:07:53.998Z</time></trkpt><trkpt lat="45.9644238" lon="9.0919049"><ele>837.0</ele><time>2026-03-28T10:07:55.016Z</time></trkpt><trkpt lat="45.9644873" lon="9.0917747"><ele>837.0</ele><time>2026-03-28T10:07:56.014Z</time></trkpt><trkpt lat="45.9645524" lon="9.0916354"><ele>837.0</ele><time>2026-03-28T10:07:57.007Z</time></trkpt><trkpt lat="45.9646181" lon="9.0914867"><ele>833.25</ele><time>2026-03-28T10:07:57.997Z</time></trkpt><trkpt lat="45.9646762" lon="9.0913221"><ele>829.5</ele><time>2026-03-28T10:07:59.025Z</time></trkpt><trkpt lat="45.9647219" lon="9.0911389"><ele>825.75</ele><time>2026-03-28T10:07:59.993Z</time></trkpt><trkpt lat="45.9647603" lon="9.0909453"><ele>822.0</ele><time>2026-03-28T10:08:00.992Z</time></trkpt><trkpt lat="45.9647991" lon="9.0907481"><ele>818.25</ele><time>2026-03-28T10:08:01.995Z</time></trkpt><trkpt lat="45.9648386" lon="9.0905494"><ele>814.5</ele><time>2026-03-28T10:08:03.016Z</time></trkpt><trkpt lat="45.9648775" lon="9.090346"><ele>810.75</ele><time>2026-03-28T10:08:04.01Z</time></trkpt><trkpt lat="45.9649184" lon="9.0901336"><ele>807.0</ele><time>2026-03-28T10:08:05.017Z</time></trkpt><trkpt lat="45.9649565" lon="9.0899142"><ele>806.0</ele><time>2026-03-28T10:08:06.001Z</time></trkpt><trkpt lat="45.9649815" lon="9.0896879"><ele>805.0</ele><time>2026-03-28T10:08:07.015Z</time></trkpt><trkpt lat="45.96499" lon="9.0894556"><ele>804.0</ele><time>2026-03-28T10:08:08.026Z</time></trkpt><trkpt lat="45.9649983" lon="9.0892198"><ele>803.0</ele><time>2026-03-28T10:08:08.999Z</time></trkpt><trkpt lat="45.9650175" lon="9.0889823"><ele>802.0</ele><time>2026-03-28T10:08:10.013Z</time></trkpt><trkpt lat="45.965047" lon="9.0887455"><ele>801.0</ele><time>2026-03-28T10:08:11.017Z</time></trkpt><trkpt lat="45.9650832" lon="9.0885114"><ele>805.6666666666667</ele><time>2026-03-28T10:08:12.014Z</time></trkpt><trkpt lat="45.9651222" lon="9.0882839"><ele>810.3333333333334</ele><time>2026-03-28T10:08:13.006Z</time></trkpt><trkpt lat="45.965165" lon="9.0880667"><ele>815.0</ele><time>2026-03-28T10:08:13.996Z</time></trkpt><trkpt lat="45.9652128" lon="9.0878584"><ele>815.0</ele><time>2026-03-28T10:08:15.014Z</time></trkpt><trkpt lat="45.9652623" lon="9.0876543"><ele>815.0</ele><time>2026-03-28T10:08:16.021Z</time></trkpt><trkpt lat="45.9653232" lon="9.0874487"><ele>815.0</ele><time>2026-03-28T10:08:17.014Z</time></trkpt><trkpt lat="45.9653982" lon="9.0872613"><ele>809.3333333333334</ele><time>2026-03-28T10:08:18.019Z</time></trkpt><trkpt lat="45.9654895" lon="9.0870701"><ele>803.6666666666667</ele><time>2026-03-28T10:08:19.011Z</time></trkpt><trkpt lat="45.965582" lon="9.0868698"><ele>798.0</ele><time>2026-03-28T10:08:20.014Z</time></trkpt><trkpt lat="45.9656661" lon="9.0866591"><ele>801.3333333333333</ele><time>2026-03-28T10:08:21.027Z</time></trkpt><trkpt lat="45.9657515" lon="9.0864499"><ele>804.6666666666666</ele><time>2026-03-28T10:08:22.022Z</time></trkpt><trkpt lat="45.965834" lon="9.086243"><ele>808.0</ele><time>2026-03-28T10:08:23.042Z</time></trkpt><trkpt lat="45.9659234" lon="9.0860358"><ele>808.0</ele><time>2026-03-28T10:08:24.023Z</time></trkpt><trkpt lat="45.9660202" lon="9.0858349"><ele>808.0</ele><time>2026-03-28T10:08:25.02Z</time></trkpt><trkpt lat="45.9661219" lon="9.0856351"><ele>808.0</ele><time>2026-03-28T10:08:26.02Z</time></trkpt><trkpt lat="45.9662251" lon="9.0854334"><ele>802.0</ele><time>2026-03-28T10:08:27.013Z</time></trkpt><trkpt lat="45.9663223" lon="9.0852246"><ele>796.0</ele><time>2026-03-28T10:08:28.016Z</time></trkpt><trkpt lat="45.9664188" lon="9.0850135"><ele>790.0</ele><time>2026-03-28T10:08:29.027Z</time></trkpt><trkpt lat="45.9665085" lon="9.0847823"><ele>794.6666666666666</ele><time>2026-03-28T10:08:30.019Z</time></trkpt><trkpt lat="45.9665915" lon="9.0845614"><ele>799.3333333333333</ele><time>2026-03-28T10:08:31.017Z</time></trkpt><trkpt lat="45.9666713" lon="9.084349"><ele>804.0</ele><time>2026-03-28T10:08:32.025Z</time></trkpt><trkpt lat="45.9667503" lon="9.0841496"><ele>799.5</ele><time>2026-03-28T10:08:33.028Z</time></trkpt><trkpt lat="45.9668166" lon="9.0839582"><ele>795.0</ele><time>2026-03-28T10:08:34.016Z</time></trkpt><trkpt lat="45.966881" lon="9.0837711"><ele>790.5</ele><time>2026-03-28T10:08:35.011Z</time></trkpt><trkpt lat="45.9669364" lon="9.0835968"><ele>786.0</ele><time>2026-03-28T10:08:36.02Z</time></trkpt><trkpt lat="45.966986" lon="9.0834294"><ele>786.0</ele><time>2026-03-28T10:08:37.025Z</time></trkpt><trkpt lat="45.9670298" lon="9.0832821"><ele>786.0</ele><time>2026-03-28T10:08:38.01Z</time></trkpt><trkpt lat="45.9670688" lon="9.0831435"><ele>786.0</ele><time>2026-03-28T10:08:39.007Z</time></trkpt><trkpt lat="45.9671042" lon="9.0830155"><ele>786.0</ele><time>2026-03-28T10:08:40.004Z</time></trkpt><trkpt lat="45.9671356" lon="9.0828841"><ele>786.0</ele><time>2026-03-28T10:08:41.027Z</time></trkpt><trkpt lat="45.9671729" lon="9.0827384"><ele>783.0</ele><time>2026-03-28T10:08:42.019Z</time></trkpt><trkpt lat="45.9672117" lon="9.0825786"><ele>780.0</ele><time>2026-03-28T10:08:43.003Z</time></trkpt><trkpt lat="45.9672679" lon="9.082417"><ele>777.0</ele><time>2026-03-28T10:08:44.014Z</time></trkpt><trkpt lat="45.9673176" lon="9.0822542"><ele>774.0</ele><time>2026-03-28T10:08:45.035Z</time></trkpt><trkpt lat="45.9673441" lon="9.0820868"><ele>772.0</ele><time>2026-03-28T10:08:46.046Z</time></trkpt><trkpt lat="45.9673583" lon="9.0819075"><ele>770.0</ele><time>2026-03-28T10:08:47.002Z</time></trkpt><trkpt lat="45.9673568" lon="9.0817227"><ele>768.0</ele><time>2026-03-28T10:08:48.015Z</time></trkpt><trkpt lat="45.9673457" lon="9.0815427"><ele>766.0</ele><time>2026-03-28T10:08:49.035Z</time></trkpt><trkpt lat="45.9673395" lon="9.0813752"><ele>765.1999999999999</ele><time>2026-03-28T10:08:50.022Z</time></trkpt><trkpt lat="45.967336" lon="9.0812265"><ele>764.4</ele><time>2026-03-28T10:08:51.015Z</time></trkpt><trkpt lat="45.9673311" lon="9.0810801"><ele>763.6</ele><time>2026-03-28T10:08:52Z</time></trkpt><trkpt lat="45.9673304" lon="9.0809374"><ele>762.8</ele><time>2026-03-28T10:08:53.002Z</time></trkpt><trkpt lat="45.9673281" lon="9.0807922"><ele>762.0</ele><time>2026-03-28T10:08:54Z</time></trkpt><trkpt lat="45.9673258" lon="9.0806536"><ele>761.8333333333334</ele><time>2026-03-28T10:08:55.007Z</time></trkpt><trkpt lat="45.9673318" lon="9.0805146"><ele>761.6666666666666</ele><time>2026-03-28T10:08:56.021Z</time></trkpt><trkpt lat="45.9673268" lon="9.0803845"><ele>761.5</ele><time>2026-03-28T10:08:57.016Z</time></trkpt><trkpt lat="45.9673189" lon="9.0802652"><ele>761.3333333333333</ele><time>2026-03-28T10:08:57.998Z</time></trkpt><trkpt lat="45.9673169" lon="9.0801573"><ele>761.1666666666666</ele><time>2026-03-28T10:08:59.02Z</time></trkpt><trkpt lat="45.9673107" lon="9.0800539"><ele>761.0</ele><time>2026-03-28T10:08:59.996Z</time></trkpt><trkpt lat="45.9673041" lon="9.0799427"><ele>760.2857142857142</ele><time>2026-03-28T10:09:01.012Z</time></trkpt><trkpt lat="45.9673015" lon="9.0798285"><ele>759.5714285714286</ele><time>2026-03-28T10:09:02.01Z</time></trkpt><trkpt lat="45.9673031" lon="9.0797253"><ele>758.8571428571429</ele><time>2026-03-28T10:09:02.999Z</time></trkpt><trkpt lat="45.9673017" lon="9.0796302"><ele>758.1428571428571</ele><time>2026-03-28T10:09:04Z</time></trkpt><trkpt lat="45.9673051" lon="9.0795287"><ele>757.4285714285714</ele><time>2026-03-28T10:09:05.037Z</time></trkpt><trkpt lat="45.9673045" lon="9.079419"><ele>756.7142857142857</ele><time>2026-03-28T10:09:06.069Z</time></trkpt><trkpt lat="45.9673036" lon="9.0793155"><ele>756.0</ele><time>2026-03-28T10:09:07.003Z</time></trkpt><trkpt lat="45.9673062" lon="9.0792159"><ele>756.0</ele><time>2026-03-28T10:09:08.017Z</time></trkpt><trkpt lat="45.9673141" lon="9.0791229"><ele>756.0</ele><time>2026-03-28T10:09:09.003Z</time></trkpt><trkpt lat="45.96733" lon="9.079001"><ele>756.0</ele><time>2026-03-28T10:09:10.997Z</time></trkpt><trkpt lat="45.9673426" lon="9.0787282"><ele>756.0</ele><time>2026-03-28T10:09:17.993Z</time></trkpt><trkpt lat="45.9673357" lon="9.0786351"><ele>756.0</ele><time>2026-03-28T10:09:20.025Z</time></trkpt><trkpt lat="45.9673043" lon="9.0785307"><ele>756.0</ele><time>2026-03-28T10:09:23.027Z</time></trkpt><trkpt lat="45.9673119" lon="9.0784053"><ele>756.0</ele><time>2026-03-28T10:09:26.022Z</time></trkpt><trkpt lat="45.9673915" lon="9.0783224"><ele>756.0</ele><time>2026-03-28T10:09:28.02Z</time></trkpt><trkpt lat="45.9674713" lon="9.0782813"><ele>756.0</ele><time>2026-03-28T10:09:30.016Z</time></trkpt><trkpt lat="45.9675285" lon="9.0782394"><ele>756.0</ele><time>2026-03-28T10:09:32.017Z</time></trkpt><trkpt lat="45.9675935" lon="9.078191"><ele>756.0</ele><time>2026-03-28T10:09:34.021Z</time></trkpt><trkpt lat="45.9676508" lon="9.0781391"><ele>756.0</ele><time>2026-03-28T10:09:36.032Z</time></trkpt><trkpt lat="45.9676897" lon="9.0780544"><ele>756.0</ele><time>2026-03-28T10:09:37.993Z</time></trkpt><trkpt lat="45.9676603" lon="9.0779231"><ele>756.0</ele><time>2026-03-28T10:09:40.991Z</time></trkpt><trkpt lat="45.9676009" lon="9.0778459"><ele>756.0</ele><time>2026-03-28T10:09:43.018Z</time></trkpt><trkpt lat="45.9675258" lon="9.0778024"><ele>756.0</ele><time>2026-03-28T10:09:45.042Z</time></trkpt><trkpt lat="45.9674297" lon="9.0777785"><ele>756.0</ele><time>2026-03-28T10:09:47.007Z</time></trkpt><trkpt lat="45.9673005" lon="9.0777562"><ele>754.4</ele><time>2026-03-28T10:09:49.03Z</time></trkpt><trkpt lat="45.9671913" lon="9.0777055"><ele>752.8</ele><time>2026-03-28T10:09:51.01Z</time></trkpt><trkpt lat="45.9671513" lon="9.0776252"><ele>751.1999999999999</ele><time>2026-03-28T10:09:53.008Z</time></trkpt><trkpt lat="45.9672082" lon="9.0774934"><ele>749.5999999999999</ele><time>2026-03-28T10:09:55.023Z</time></trkpt><trkpt lat="45.9672848" lon="9.0773662"><ele>748.0</ele><time>2026-03-28T10:09:57.019Z</time></trkpt><trkpt lat="45.9673372" lon="9.077277"><ele>748.0</ele><time>2026-03-28T10:09:59.01Z</time></trkpt><trkpt lat="45.9673732" lon="9.0771863"><ele>748.0</ele><time>2026-03-28T10:10:03.016Z</time></trkpt><trkpt lat="45.9674093" lon="9.0770931"><ele>748.0</ele><time>2026-03-28T10:10:10.014Z</time></trkpt><trkpt lat="45.967487" lon="9.0769842"><ele>748.0</ele><time>2026-03-28T10:10:12.027Z</time></trkpt><trkpt lat="45.967533" lon="9.0769176"><ele>748.0</ele><time>2026-03-28T10:10:13.021Z</time></trkpt><trkpt lat="45.967581" lon="9.0768234"><ele>748.0</ele><time>2026-03-28T10:10:14.013Z</time></trkpt><trkpt lat="45.9676384" lon="9.0767258"><ele>748.0</ele><time>2026-03-28T10:10:15.014Z</time></trkpt><trkpt lat="45.9677006" lon="9.0766329"><ele>748.0</ele><time>2026-03-28T10:10:16.03Z</time></trkpt><trkpt lat="45.9677642" lon="9.0765474"><ele>748.0</ele><time>2026-03-28T10:10:17.038Z</time></trkpt><trkpt lat="45.9678279" lon="9.0764669"><ele>748.0</ele><time>2026-03-28T10:10:18.018Z</time></trkpt><trkpt lat="45.9679009" lon="9.0763854"><ele>748.0</ele><time>2026-03-28T10:10:19.012Z</time></trkpt><trkpt lat="45.9679784" lon="9.076313"><ele>748.0</ele><time>2026-03-28T10:10:20.011Z</time></trkpt><trkpt lat="45.9680622" lon="9.0762526"><ele>748.0</ele><time>2026-03-28T10:10:21.028Z</time></trkpt><trkpt lat="45.9681512" lon="9.0761875"><ele>748.0</ele><time>2026-03-28T10:10:22.007Z</time></trkpt><trkpt lat="45.9682426" lon="9.0761188"><ele>748.0</ele><time>2026-03-28T10:10:23.017Z</time></trkpt><trkpt lat="45.9683355" lon="9.0760491"><ele>748.0</ele><time>2026-03-28T10:10:24.004Z</time></trkpt><trkpt lat="45.9684263" lon="9.075968"><ele>748.0</ele><time>2026-03-28T10:10:25.002Z</time></trkpt><trkpt lat="45.9685188" lon="9.0758822"><ele>748.0</ele><time>2026-03-28T10:10:26.027Z</time></trkpt><trkpt lat="45.9686041" lon="9.0757832"><ele>748.0</ele><time>2026-03-28T10:10:27.032Z</time></trkpt><trkpt lat="45.9686788" lon="9.0756589"><ele>748.0</ele><time>2026-03-28T10:10:28.015Z</time></trkpt><trkpt lat="45.9687437" lon="9.0755175"><ele>748.0</ele><time>2026-03-28T10:10:29.041Z</time></trkpt><trkpt lat="45.9688017" lon="9.0753588"><ele>746.5</ele><time>2026-03-28T10:10:30.001Z</time></trkpt><trkpt lat="45.9688608" lon="9.0751922"><ele>745.0</ele><time>2026-03-28T10:10:31.01Z</time></trkpt><trkpt lat="45.968918" lon="9.0750288"><ele>743.5</ele><time>2026-03-28T10:10:32.008Z</time></trkpt><trkpt lat="45.9689742" lon="9.0748691"><ele>742.0</ele><time>2026-03-28T10:10:33.023Z</time></trkpt><trkpt lat="45.969029" lon="9.0747088"><ele>740.5</ele><time>2026-03-28T10:10:34.018Z</time></trkpt><trkpt lat="45.9690838" lon="9.0745519"><ele>739.0</ele><time>2026-03-28T10:10:35.006Z</time></trkpt><trkpt lat="45.9691392" lon="9.0743994"><ele>737.5</ele><time>2026-03-28T10:10:36.018Z</time></trkpt><trkpt lat="45.9691923" lon="9.0742522"><ele>736.0</ele><time>2026-03-28T10:10:37.016Z</time></trkpt><trkpt lat="45.9692409" lon="9.0741052"><ele>739.25</ele><time>2026-03-28T10:10:38.011Z</time></trkpt><trkpt lat="45.9692825" lon="9.0739525"><ele>742.5</ele><time>2026-03-28T10:10:39.019Z</time></trkpt><trkpt lat="45.9693141" lon="9.0737944"><ele>745.75</ele><time>2026-03-28T10:10:40.002Z</time></trkpt><trkpt lat="45.9693333" lon="9.0736304"><ele>749.0</ele><time>2026-03-28T10:10:41.029Z</time></trkpt><trkpt lat="45.9693443" lon="9.0734659"><ele>749.0</ele><time>2026-03-28T10:10:42.003Z</time></trkpt><trkpt lat="45.969354" lon="9.0733027"><ele>749.0</ele><time>2026-03-28T10:10:43.01Z</time></trkpt><trkpt lat="45.9693645" lon="9.0731377"><ele>749.0</ele><time>2026-03-28T10:10:44.027Z</time></trkpt><trkpt lat="45.9693779" lon="9.0729726"><ele>749.0</ele><time>2026-03-28T10:10:45.037Z</time></trkpt><trkpt lat="45.9693922" lon="9.0728084"><ele>748.2</ele><time>2026-03-28T10:10:46.002Z</time></trkpt><trkpt lat="45.9694032" lon="9.0726528"><ele>747.4000000000001</ele><time>2026-03-28T10:10:47.016Z</time></trkpt><trkpt lat="45.9694126" lon="9.0725093"><ele>746.6</ele><time>2026-03-28T10:10:48.008Z</time></trkpt><trkpt lat="45.9694229" lon="9.0723753"><ele>745.8</ele><time>2026-03-28T10:10:49Z</time></trkpt><trkpt lat="45.969435" lon="9.0722377"><ele>745.0</ele><time>2026-03-28T10:10:50.018Z</time></trkpt><trkpt lat="45.9694469" lon="9.0720872"><ele>744.2</ele><time>2026-03-28T10:10:51.004Z</time></trkpt><trkpt lat="45.9694583" lon="9.0719278"><ele>743.4</ele><time>2026-03-28T10:10:52.005Z</time></trkpt><trkpt lat="45.9694679" lon="9.0717623"><ele>742.5999999999999</ele><time>2026-03-28T10:10:53.017Z</time></trkpt><trkpt lat="45.9694787" lon="9.0715989"><ele>741.8</ele><time>2026-03-28T10:10:54.043Z</time></trkpt><trkpt lat="45.9694864" lon="9.0714504"><ele>741.0</ele><time>2026-03-28T10:10:55.008Z</time></trkpt><trkpt lat="45.9694926" lon="9.0713242"><ele>741.0</ele><time>2026-03-28T10:10:56.043Z</time></trkpt><trkpt lat="45.9694997" lon="9.0712273"><ele>741.0</ele><time>2026-03-28T10:10:58.012Z</time></trkpt><trkpt lat="45.9695188" lon="9.0710548"><ele>741.0</ele><time>2026-03-28T10:11:01.027Z</time></trkpt><trkpt lat="45.9695355" lon="9.0709422"><ele>741.0</ele><time>2026-03-28T10:11:02.025Z</time></trkpt><trkpt lat="45.9695541" lon="9.0708154"><ele>741.0</ele><time>2026-03-28T10:11:03.015Z</time></trkpt><trkpt lat="45.9696001" lon="9.0706678"><ele>740.0</ele><time>2026-03-28T10:11:04.016Z</time></trkpt><trkpt lat="45.9696637" lon="9.0705166"><ele>739.0</ele><time>2026-03-28T10:11:05.018Z</time></trkpt><trkpt lat="45.9697395" lon="9.0703716"><ele>738.0</ele><time>2026-03-28T10:11:06.002Z</time></trkpt><trkpt lat="45.9698177" lon="9.0702479"><ele>737.0</ele><time>2026-03-28T10:11:07.009Z</time></trkpt><trkpt lat="45.9699002" lon="9.0701468"><ele>737.0</ele><time>2026-03-28T10:11:08.02Z</time></trkpt><trkpt lat="45.9699894" lon="9.0700596"><ele>737.0</ele><time>2026-03-28T10:11:09.007Z</time></trkpt><trkpt lat="45.9700878" lon="9.069983"><ele>737.0</ele><time>2026-03-28T10:11:10.014Z</time></trkpt><trkpt lat="45.9701864" lon="9.069907"><ele>737.0</ele><time>2026-03-28T10:11:11.019Z</time></trkpt><trkpt lat="45.9702947" lon="9.0698591"><ele>737.0</ele><time>2026-03-28T10:11:12.017Z</time></trkpt><trkpt lat="45.9704122" lon="9.0698232"><ele>737.5</ele><time>2026-03-28T10:11:13.015Z</time></trkpt><trkpt lat="45.9705354" lon="9.0697917"><ele>738.0</ele><time>2026-03-28T10:11:14.017Z</time></trkpt><trkpt lat="45.9706674" lon="9.0697619"><ele>738.5</ele><time>2026-03-28T10:11:15.031Z</time></trkpt><trkpt lat="45.9708037" lon="9.0697336"><ele>739.0</ele><time>2026-03-28T10:11:16.014Z</time></trkpt><trkpt lat="45.9709432" lon="9.0697061"><ele>739.0</ele><time>2026-03-28T10:11:17.027Z</time></trkpt><trkpt lat="45.9710856" lon="9.0696818"><ele>739.0</ele><time>2026-03-28T10:11:18.009Z</time></trkpt><trkpt lat="45.9712202" lon="9.0696573"><ele>739.0</ele><time>2026-03-28T10:11:18.993Z</time></trkpt><trkpt lat="45.9713453" lon="9.0696456"><ele>739.0</ele><time>2026-03-28T10:11:20.027Z</time></trkpt><trkpt lat="45.9714601" lon="9.0696579"><ele>739.0</ele><time>2026-03-28T10:11:21.035Z</time></trkpt><trkpt lat="45.9715643" lon="9.0696938"><ele>739.0</ele><time>2026-03-28T10:11:22.021Z</time></trkpt><trkpt lat="45.9716652" lon="9.0697596"><ele>739.0</ele><time>2026-03-28T10:11:23.032Z</time></trkpt><trkpt lat="45.9717704" lon="9.0698342"><ele>739.0</ele><time>2026-03-28T10:11:24.018Z</time></trkpt><trkpt lat="45.9718813" lon="9.069915"><ele>739.0</ele><time>2026-03-28T10:11:25.004Z</time></trkpt><trkpt lat="45.9720037" lon="9.0699669"><ele>739.0</ele><time>2026-03-28T10:11:26.019Z</time></trkpt><trkpt lat="45.9721369" lon="9.0699538"><ele>739.0</ele><time>2026-03-28T10:11:27.006Z</time></trkpt><trkpt lat="45.9722852" lon="9.069873"><ele>739.0</ele><time>2026-03-28T10:11:28.014Z</time></trkpt><trkpt lat="45.9724362" lon="9.0697191"><ele>740.6666666666667</ele><time>2026-03-28T10:11:28.996Z</time></trkpt><trkpt lat="45.9725756" lon="9.0694954"><ele>742.3333333333334</ele><time>2026-03-28T10:11:30.002Z</time></trkpt><trkpt lat="45.9727143" lon="9.0692421"><ele>744.0</ele><time>2026-03-28T10:11:31.01Z</time></trkpt><trkpt lat="45.972844" lon="9.0689965"><ele>740.6666666666666</ele><time>2026-03-28T10:11:32.017Z</time></trkpt><trkpt lat="45.9729745" lon="9.0687754"><ele>737.3333333333333</ele><time>2026-03-28T10:11:33Z</time></trkpt><trkpt lat="45.9731029" lon="9.0685679"><ele>734.0</ele><time>2026-03-28T10:11:34.015Z</time></trkpt><trkpt lat="45.97323" lon="9.0683616"><ele>731.3333333333333</ele><time>2026-03-28T10:11:35.025Z</time></trkpt><trkpt lat="45.9733585" lon="9.068154"><ele>728.6666666666666</ele><time>2026-03-28T10:11:36.014Z</time></trkpt><trkpt lat="45.9734863" lon="9.0679578"><ele>726.0</ele><time>2026-03-28T10:11:37.025Z</time></trkpt><trkpt lat="45.9736214" lon="9.0677858"><ele>726.0</ele><time>2026-03-28T10:11:38.028Z</time></trkpt><trkpt lat="45.9737479" lon="9.067623"><ele>726.0</ele><time>2026-03-28T10:11:39.007Z</time></trkpt><trkpt lat="45.9738522" lon="9.0675116"><ele>726.0</ele><time>2026-03-28T10:11:40.031Z</time></trkpt><trkpt lat="45.9739595" lon="9.0674152"><ele>726.0</ele><time>2026-03-28T10:11:41.014Z</time></trkpt><trkpt lat="45.9740675" lon="9.0673204"><ele>726.0</ele><time>2026-03-28T10:11:42.028Z</time></trkpt><trkpt lat="45.9741829" lon="9.0672197"><ele>726.0</ele><time>2026-03-28T10:11:43.022Z</time></trkpt><trkpt lat="45.9743005" lon="9.0671163"><ele>726.0</ele><time>2026-03-28T10:11:44.007Z</time></trkpt><trkpt lat="45.974431" lon="9.0669931"><ele>726.0</ele><time>2026-03-28T10:11:45.001Z</time></trkpt><trkpt lat="45.9745669" lon="9.0668616"><ele>725.6666666666666</ele><time>2026-03-28T10:11:46.012Z</time></trkpt><trkpt lat="45.9747011" lon="9.0667311"><ele>725.3333333333333</ele><time>2026-03-28T10:11:47.019Z</time></trkpt><trkpt lat="45.9748405" lon="9.0665965"><ele>725.0</ele><time>2026-03-28T10:11:48.01Z</time></trkpt><trkpt lat="45.9749806" lon="9.0664635"><ele>722.6666666666666</ele><time>2026-03-28T10:11:49.029Z</time></trkpt><trkpt lat="45.9751164" lon="9.0663239"><ele>720.3333333333334</ele><time>2026-03-28T10:11:50.033Z</time></trkpt><trkpt lat="45.97525" lon="9.0661801"><ele>718.0</ele><time>2026-03-28T10:11:51.024Z</time></trkpt><trkpt lat="45.9753837" lon="9.0660492"><ele>718.0</ele><time>2026-03-28T10:11:52.033Z</time></trkpt><trkpt lat="45.9755125" lon="9.0659292"><ele>718.0</ele><time>2026-03-28T10:11:53.039Z</time></trkpt><trkpt lat="45.9756478" lon="9.0658266"><ele>718.0</ele><time>2026-03-28T10:11:54.035Z</time></trkpt><trkpt lat="45.975795" lon="9.0657534"><ele>717.6666666666667</ele><time>2026-03-28T10:11:54.993Z</time></trkpt><trkpt lat="45.9759547" lon="9.0657005"><ele>717.3333333333334</ele><time>2026-03-28T10:11:56.014Z</time></trkpt><trkpt lat="45.9761149" lon="9.0656522"><ele>717.0</ele><time>2026-03-28T10:11:57.024Z</time></trkpt><trkpt lat="45.9762697" lon="9.0656061"><ele>717.0</ele><time>2026-03-28T10:11:58.008Z</time></trkpt><trkpt lat="45.976419" lon="9.0655657"><ele>717.0</ele><time>2026-03-28T10:11:59.012Z</time></trkpt><trkpt lat="45.9765634" lon="9.0655302"><ele>717.0</ele><time>2026-03-28T10:12:00Z</time></trkpt><trkpt lat="45.9767023" lon="9.0654972"><ele>717.0</ele><time>2026-03-28T10:12:01.018Z</time></trkpt><trkpt lat="45.9768348" lon="9.0654737"><ele>717.75</ele><time>2026-03-28T10:12:02.014Z</time></trkpt><trkpt lat="45.9769596" lon="9.0654814"><ele>718.5</ele><time>2026-03-28T10:12:03.026Z</time></trkpt><trkpt lat="45.9770751" lon="9.0655271"><ele>719.25</ele><time>2026-03-28T10:12:04.008Z</time></trkpt><trkpt lat="45.9771787" lon="9.0656111"><ele>720.0</ele><time>2026-03-28T10:12:05.025Z</time></trkpt><trkpt lat="45.9772676" lon="9.0657304"><ele>718.0</ele><time>2026-03-28T10:12:06.024Z</time></trkpt><trkpt lat="45.977331" lon="9.0658818"><ele>716.0</ele><time>2026-03-28T10:12:07.015Z</time></trkpt><trkpt lat="45.9773674" lon="9.0660713"><ele>714.0</ele><time>2026-03-28T10:12:08.017Z</time></trkpt><trkpt lat="45.9773858" lon="9.0662806"><ele>712.0</ele><time>2026-03-28T10:12:09.009Z</time></trkpt><trkpt lat="45.9774091" lon="9.0664966"><ele>712.25</ele><time>2026-03-28T10:12:10.013Z</time></trkpt><trkpt lat="45.9774252" lon="9.0666977"><ele>712.5</ele><time>2026-03-28T10:12:11.01Z</time></trkpt><trkpt lat="45.9774435" lon="9.0668988"><ele>712.75</ele><time>2026-03-28T10:12:12.015Z</time></trkpt><trkpt lat="45.9773799" lon="9.0670564"><ele>713.0</ele><time>2026-03-28T10:12:13.01Z</time></trkpt><trkpt lat="45.9773239" lon="9.0672232"><ele>713.0</ele><time>2026-03-28T10:12:14.011Z</time></trkpt><trkpt lat="45.9772224" lon="9.067352"><ele>713.0</ele><time>2026-03-28T10:12:15.017Z</time></trkpt><trkpt lat="45.9771135" lon="9.0674809"><ele>713.0</ele><time>2026-03-28T10:12:16.017Z</time></trkpt><trkpt lat="45.9770192" lon="9.0676249"><ele>713.0</ele><time>2026-03-28T10:12:17.013Z</time></trkpt><trkpt lat="45.9769549" lon="9.0677796"><ele>711.25</ele><time>2026-03-28T10:12:18.014Z</time></trkpt><trkpt lat="45.9769131" lon="9.0679398"><ele>709.5</ele><time>2026-03-28T10:12:19.012Z</time></trkpt><trkpt lat="45.9769461" lon="9.0680368"><ele>707.75</ele><time>2026-03-28T10:12:20.015Z</time></trkpt><trkpt lat="45.9770047" lon="9.0681656"><ele>706.0</ele><time>2026-03-28T10:12:21.018Z</time></trkpt><trkpt lat="45.9771639" lon="9.0682648"><ele>709.6666666666667</ele><time>2026-03-28T10:12:22.005Z</time></trkpt><trkpt lat="45.9773608" lon="9.0683458"><ele>713.3333333333334</ele><time>2026-03-28T10:12:23.001Z</time></trkpt><trkpt lat="45.977558" lon="9.0684585"><ele>717.0</ele><time>2026-03-28T10:12:23.995Z</time></trkpt><trkpt lat="45.9777489" lon="9.0685621"><ele>709.0</ele><time>2026-03-28T10:12:25.009Z</time></trkpt><trkpt lat="45.9779196" lon="9.0686893"><ele>701.0</ele><time>2026-03-28T10:12:26.031Z</time></trkpt><trkpt lat="45.9781189" lon="9.0688458"><ele>693.0</ele><time>2026-03-28T10:12:27.037Z</time></trkpt><trkpt lat="45.9782808" lon="9.0689869"><ele>686.3333333333334</ele><time>2026-03-28T10:12:28.013Z</time></trkpt><trkpt lat="45.9784275" lon="9.069129"><ele>679.6666666666667</ele><time>2026-03-28T10:12:29.006Z</time></trkpt><trkpt lat="45.9785625" lon="9.0692517"><ele>673.0</ele><time>2026-03-28T10:12:30.024Z</time></trkpt><trkpt lat="45.9786886" lon="9.0693762"><ele>673.0</ele><time>2026-03-28T10:12:31.012Z</time></trkpt><trkpt lat="45.9788033" lon="9.0694897"><ele>673.0</ele><time>2026-03-28T10:12:32.015Z</time></trkpt><trkpt lat="45.978904" lon="9.0696118"><ele>673.0</ele><time>2026-03-28T10:12:33.027Z</time></trkpt><trkpt lat="45.9789472" lon="9.0697303"><ele>673.0</ele><time>2026-03-28T10:12:34.026Z</time></trkpt><trkpt lat="45.9789543" lon="9.0698867"><ele>676.0</ele><time>2026-03-28T10:12:35.029Z</time></trkpt><trkpt lat="45.9789473" lon="9.0700437"><ele>679.0</ele><time>2026-03-28T10:12:36.01Z</time></trkpt><trkpt lat="45.9789428" lon="9.0702056"><ele>682.0</ele><time>2026-03-28T10:12:37.013Z</time></trkpt><trkpt lat="45.9789527" lon="9.0703588"><ele>685.0</ele><time>2026-03-28T10:12:38.019Z</time></trkpt><trkpt lat="45.979008" lon="9.070506"><ele>688.0</ele><time>2026-03-28T10:12:39.006Z</time></trkpt><trkpt lat="45.9790975" lon="9.0706209"><ele>683.0</ele><time>2026-03-28T10:12:40.034Z</time></trkpt><trkpt lat="45.9791995" lon="9.0707391"><ele>678.0</ele><time>2026-03-28T10:12:41.001Z</time></trkpt><trkpt lat="45.9792866" lon="9.0708828"><ele>673.0</ele><time>2026-03-28T10:12:42.009Z</time></trkpt><trkpt lat="45.9793599" lon="9.0710362"><ele>668.0</ele><time>2026-03-28T10:12:43.011Z</time></trkpt><trkpt lat="45.9794049" lon="9.0712042"><ele>668.0</ele><time>2026-03-28T10:12:44.017Z</time></trkpt><trkpt lat="45.9794757" lon="9.0713325"><ele>668.0</ele><time>2026-03-28T10:12:45.003Z</time></trkpt><trkpt lat="45.9795353" lon="9.0714637"><ele>668.0</ele><time>2026-03-28T10:12:46.013Z</time></trkpt><trkpt lat="45.9796158" lon="9.0715407"><ele>668.0</ele><time>2026-03-28T10:12:47.013Z</time></trkpt><trkpt lat="45.9797192" lon="9.0715845"><ele>668.0</ele><time>2026-03-28T10:12:48.012Z</time></trkpt><trkpt lat="45.9798624" lon="9.0716086"><ele>668.25</ele><time>2026-03-28T10:12:49.003Z</time></trkpt><trkpt lat="45.9799785" lon="9.0716932"><ele>668.5</ele><time>2026-03-28T10:12:50.023Z</time></trkpt><trkpt lat="45.9800636" lon="9.0718032"><ele>668.75</ele><time>2026-03-28T10:12:51.029Z</time></trkpt><trkpt lat="45.9801166" lon="9.0719683"><ele>669.0</ele><time>2026-03-28T10:12:52.01Z</time></trkpt><trkpt lat="45.9801333" lon="9.0721601"><ele>669.0</ele><time>2026-03-28T10:12:53.015Z</time></trkpt><trkpt lat="45.9801586" lon="9.0723345"><ele>669.0</ele><time>2026-03-28T10:12:54.006Z</time></trkpt><trkpt lat="45.9801834" lon="9.0724869"><ele>669.0</ele><time>2026-03-28T10:12:55.031Z</time></trkpt><trkpt lat="45.9802307" lon="9.0726007"><ele>669.0</ele><time>2026-03-28T10:12:56.027Z</time></trkpt><trkpt lat="45.9803109" lon="9.0726604"><ele>669.0</ele><time>2026-03-28T10:12:57.016Z</time></trkpt><trkpt lat="45.9804142" lon="9.0726815"><ele>669.0</ele><time>2026-03-28T10:12:58.021Z</time></trkpt><trkpt lat="45.9805144" lon="9.0726046"><ele>669.0</ele><time>2026-03-28T10:12:59.008Z</time></trkpt><trkpt lat="45.980584" lon="9.0724781"><ele>669.0</ele><time>2026-03-28T10:13:00.022Z</time></trkpt><trkpt lat="45.9806696" lon="9.0723963"><ele>669.0</ele><time>2026-03-28T10:13:01.013Z</time></trkpt><trkpt lat="45.9807527" lon="9.0723385"><ele>669.0</ele><time>2026-03-28T10:13:02.019Z</time></trkpt><trkpt lat="45.9808647" lon="9.0722552"><ele>667.4000000000001</ele><time>2026-03-28T10:13:03.031Z</time></trkpt><trkpt lat="45.980963" lon="9.0721839"><ele>665.8</ele><time>2026-03-28T10:13:04.031Z</time></trkpt><trkpt lat="45.9810324" lon="9.0721294"><ele>664.2</ele><time>2026-03-28T10:13:05.013Z</time></trkpt><trkpt lat="45.9811226" lon="9.072095"><ele>662.5999999999999</ele><time>2026-03-28T10:13:06.033Z</time></trkpt><trkpt lat="45.9812187" lon="9.0721007"><ele>661.0</ele><time>2026-03-28T10:13:07.011Z</time></trkpt><trkpt lat="45.9813111" lon="9.0721255"><ele>661.0</ele><time>2026-03-28T10:13:08.017Z</time></trkpt><trkpt lat="45.9813955" lon="9.0721466"><ele>661.0</ele><time>2026-03-28T10:13:09.011Z</time></trkpt><trkpt lat="45.9814837" lon="9.0721742"><ele>661.0</ele><time>2026-03-28T10:13:10.013Z</time></trkpt><trkpt lat="45.9815683" lon="9.0722191"><ele>661.0</ele><time>2026-03-28T10:13:11.014Z</time></trkpt><trkpt lat="45.9816415" lon="9.0722836"><ele>661.0</ele><time>2026-03-28T10:13:12.02Z</time></trkpt><trkpt lat="45.9817206" lon="9.0723598"><ele>661.0</ele><time>2026-03-28T10:13:13.023Z</time></trkpt><trkpt lat="45.981762" lon="9.0724796"><ele>662.1428571428571</ele><time>2026-03-28T10:13:14.018Z</time></trkpt><trkpt lat="45.9818011" lon="9.0725871"><ele>663.2857142857143</ele><time>2026-03-28T10:13:15.025Z</time></trkpt><trkpt lat="45.9818091" lon="9.0726881"><ele>664.4285714285714</ele><time>2026-03-28T10:13:16.009Z</time></trkpt><trkpt lat="45.9818108" lon="9.072785"><ele>665.5714285714286</ele><time>2026-03-28T10:13:17.014Z</time></trkpt><trkpt lat="45.9818244" lon="9.0728847"><ele>666.7142857142857</ele><time>2026-03-28T10:13:18.001Z</time></trkpt><trkpt lat="45.9818351" lon="9.0729842"><ele>667.8571428571429</ele><time>2026-03-28T10:13:19.015Z</time></trkpt><trkpt lat="45.9818439" lon="9.0730807"><ele>669.0</ele><time>2026-03-28T10:13:20.005Z</time></trkpt><trkpt lat="45.9818506" lon="9.0732305"><ele>670.1666666666666</ele><time>2026-03-28T10:13:22.032Z</time></trkpt><trkpt lat="45.9818406" lon="9.073347"><ele>671.3333333333334</ele><time>2026-03-28T10:13:24.005Z</time></trkpt><trkpt lat="45.9817997" lon="9.0734872"><ele>672.5</ele><time>2026-03-28T10:13:26.025Z</time></trkpt><trkpt lat="45.9817707" lon="9.0735731"><ele>673.6666666666667</ele><time>2026-03-28T10:13:27.005Z</time></trkpt><trkpt lat="45.9817629" lon="9.0736865"><ele>674.8333333333334</ele><time>2026-03-28T10:13:28.003Z</time></trkpt><trkpt lat="45.9817723" lon="9.0738266"><ele>676.0</ele><time>2026-03-28T10:13:29.021Z</time></trkpt><trkpt lat="45.9817921" lon="9.0740002"><ele>677.75</ele><time>2026-03-28T10:13:30.009Z</time></trkpt><trkpt lat="45.9818185" lon="9.0741957"><ele>679.5</ele><time>2026-03-28T10:13:31.018Z</time></trkpt><trkpt lat="45.981845" lon="9.0744111"><ele>681.25</ele><time>2026-03-28T10:13:32.024Z</time></trkpt><trkpt lat="45.9818743" lon="9.0746359"><ele>683.0</ele><time>2026-03-28T10:13:33.009Z</time></trkpt><trkpt lat="45.9819008" lon="9.0748501"><ele>684.5</ele><time>2026-03-28T10:13:34.033Z</time></trkpt><trkpt lat="45.9819242" lon="9.0750532"><ele>686.0</ele><time>2026-03-28T10:13:35.017Z</time></trkpt><trkpt lat="45.9819509" lon="9.0752519"><ele>687.5</ele><time>2026-03-28T10:13:36.006Z</time></trkpt><trkpt lat="45.9819657" lon="9.0754372"><ele>689.0</ele><time>2026-03-28T10:13:37.031Z</time></trkpt><trkpt lat="45.9819876" lon="9.0756072"><ele>689.2</ele><time>2026-03-28T10:13:38.017Z</time></trkpt><trkpt lat="45.9820045" lon="9.0757733"><ele>689.4000000000001</ele><time>2026-03-28T10:13:39.034Z</time></trkpt><trkpt lat="45.9820205" lon="9.0759259"><ele>689.6</ele><time>2026-03-28T10:13:40.006Z</time></trkpt><trkpt lat="45.9820342" lon="9.0760716"><ele>689.8</ele><time>2026-03-28T10:13:41.024Z</time></trkpt><trkpt lat="45.9820548" lon="9.0762086"><ele>690.0</ele><time>2026-03-28T10:13:42.012Z</time></trkpt><trkpt lat="45.9820755" lon="9.0763267"><ele>690.0</ele><time>2026-03-28T10:13:43.01Z</time></trkpt><trkpt lat="45.9821063" lon="9.0764372"><ele>690.0</ele><time>2026-03-28T10:13:44.015Z</time></trkpt><trkpt lat="45.9821432" lon="9.0765629"><ele>690.0</ele><time>2026-03-28T10:13:45.01Z</time></trkpt><trkpt lat="45.9822105" lon="9.0767039"><ele>690.0</ele><time>2026-03-28T10:13:46.013Z</time></trkpt><trkpt lat="45.9822985" lon="9.0768842"><ele>691.0</ele><time>2026-03-28T10:13:47.019Z</time></trkpt><trkpt lat="45.9823772" lon="9.077066"><ele>692.0</ele><time>2026-03-28T10:13:48.019Z</time></trkpt><trkpt lat="45.9824443" lon="9.0772142"><ele>693.0</ele><time>2026-03-28T10:13:49.016Z</time></trkpt><trkpt lat="45.9825287" lon="9.0773544"><ele>694.0</ele><time>2026-03-28T10:13:50.018Z</time></trkpt><trkpt lat="45.9826178" lon="9.0774679"><ele>694.5</ele><time>2026-03-28T10:13:51.042Z</time></trkpt><trkpt lat="45.9827145" lon="9.0775629"><ele>695.0</ele><time>2026-03-28T10:13:52.024Z</time></trkpt><trkpt lat="45.9827856" lon="9.0776569"><ele>695.5</ele><time>2026-03-28T10:13:53.023Z</time></trkpt><trkpt lat="45.9828263" lon="9.0777543"><ele>696.0</ele><time>2026-03-28T10:13:54.009Z</time></trkpt><trkpt lat="45.9828373" lon="9.0778456"><ele>696.5</ele><time>2026-03-28T10:13:55.01Z</time></trkpt><trkpt lat="45.9828257" lon="9.0779365"><ele>697.0</ele><time>2026-03-28T10:13:56.029Z</time></trkpt><trkpt lat="45.9827913" lon="9.0780252"><ele>697.0</ele><time>2026-03-28T10:13:57.014Z</time></trkpt><trkpt lat="45.9827478" lon="9.0781226"><ele>697.0</ele><time>2026-03-28T10:13:58.018Z</time></trkpt><trkpt lat="45.9827154" lon="9.0782193"><ele>697.0</ele><time>2026-03-28T10:13:59.026Z</time></trkpt><trkpt lat="45.9827026" lon="9.0783089"><ele>697.0</ele><time>2026-03-28T10:14:00.013Z</time></trkpt><trkpt lat="45.9827066" lon="9.0784854"><ele>697.0</ele><time>2026-03-28T10:14:02.024Z</time></trkpt><trkpt lat="45.9827292" lon="9.0786689"><ele>696.8333333333334</ele><time>2026-03-28T10:14:04.027Z</time></trkpt><trkpt lat="45.9827439" lon="9.0788556"><ele>696.6666666666667</ele><time>2026-03-28T10:14:06.011Z</time></trkpt><trkpt lat="45.9827529" lon="9.0789575"><ele>696.5</ele><time>2026-03-28T10:14:07.026Z</time></trkpt><trkpt lat="45.9827743" lon="9.0790612"><ele>696.3333333333334</ele><time>2026-03-28T10:14:08.008Z</time></trkpt><trkpt lat="45.9828089" lon="9.0791644"><ele>696.1666666666666</ele><time>2026-03-28T10:14:09.011Z</time></trkpt><trkpt lat="45.9828505" lon="9.0792748"><ele>696.0</ele><time>2026-03-28T10:14:10.038Z</time></trkpt><trkpt lat="45.9828948" lon="9.0793922"><ele>695.8</ele><time>2026-03-28T10:14:11.016Z</time></trkpt><trkpt lat="45.9829402" lon="9.0795183"><ele>695.5999999999999</ele><time>2026-03-28T10:14:12.015Z</time></trkpt><trkpt lat="45.9829898" lon="9.0796452"><ele>695.4</ele><time>2026-03-28T10:14:13.041Z</time></trkpt><trkpt lat="45.9830453" lon="9.0797788"><ele>695.2</ele><time>2026-03-28T10:14:14.022Z</time></trkpt><trkpt lat="45.9831183" lon="9.0798765"><ele>695.0</ele><time>2026-03-28T10:14:15.04Z</time></trkpt><trkpt lat="45.983196" lon="9.0799652"><ele>696.4</ele><time>2026-03-28T10:14:16.024Z</time></trkpt><trkpt lat="45.9832615" lon="9.080056"><ele>697.8</ele><time>2026-03-28T10:14:17.028Z</time></trkpt><trkpt lat="45.9833055" lon="9.0801588"><ele>699.2</ele><time>2026-03-28T10:14:18.04Z</time></trkpt><trkpt lat="45.9833239" lon="9.0802729"><ele>700.6</ele><time>2026-03-28T10:14:19.026Z</time></trkpt><trkpt lat="45.9833185" lon="9.0804075"><ele>702.0</ele><time>2026-03-28T10:14:20.013Z</time></trkpt><trkpt lat="45.9833115" lon="9.0805619"><ele>702.0</ele><time>2026-03-28T10:14:21.028Z</time></trkpt><trkpt lat="45.9833099" lon="9.0807373"><ele>702.0</ele><time>2026-03-28T10:14:22.024Z</time></trkpt><trkpt lat="45.9833111" lon="9.0809257"><ele>702.0</ele><time>2026-03-28T10:14:23.016Z</time></trkpt><trkpt lat="45.9833499" lon="9.0811283"><ele>702.0</ele><time>2026-03-28T10:14:24.008Z</time></trkpt><trkpt lat="45.9833937" lon="9.0813322"><ele>700.5</ele><time>2026-03-28T10:14:25.012Z</time></trkpt><trkpt lat="45.983439" lon="9.0815211"><ele>699.0</ele><time>2026-03-28T10:14:26.008Z</time></trkpt><trkpt lat="45.9834796" lon="9.0817124"><ele>697.5</ele><time>2026-03-28T10:14:27.018Z</time></trkpt><trkpt lat="45.9834903" lon="9.081893"><ele>696.0</ele><time>2026-03-28T10:14:28.032Z</time></trkpt><trkpt lat="45.983466" lon="9.0820894"><ele>696.0</ele><time>2026-03-28T10:14:29.017Z</time></trkpt><trkpt lat="45.9834302" lon="9.082297"><ele>696.0</ele><time>2026-03-28T10:14:30.008Z</time></trkpt><trkpt lat="45.9833929" lon="9.0825324"><ele>696.0</ele><time>2026-03-28T10:14:30.999Z</time></trkpt><trkpt lat="45.9833539" lon="9.0827944"><ele>705.3333333333334</ele><time>2026-03-28T10:14:32.01Z</time></trkpt><trkpt lat="45.983317" lon="9.0830664"><ele>714.6666666666667</ele><time>2026-03-28T10:14:33.038Z</time></trkpt><trkpt lat="45.9832738" lon="9.0833335"><ele>724.0</ele><time>2026-03-28T10:14:34.011Z</time></trkpt><trkpt lat="45.983213" lon="9.0835801"><ele>724.3333333333334</ele><time>2026-03-28T10:14:35.027Z</time></trkpt><trkpt lat="45.9831387" lon="9.0838034"><ele>724.6666666666666</ele><time>2026-03-28T10:14:36.042Z</time></trkpt><trkpt lat="45.9830674" lon="9.0840154"><ele>725.0</ele><time>2026-03-28T10:14:37.01Z</time></trkpt><trkpt lat="45.9830258" lon="9.0842336"><ele>725.25</ele><time>2026-03-28T10:14:38.01Z</time></trkpt><trkpt lat="45.9829921" lon="9.084445"><ele>725.5</ele><time>2026-03-28T10:14:39.026Z</time></trkpt><trkpt lat="45.982982" lon="9.0846565"><ele>725.75</ele><time>2026-03-28T10:14:40.018Z</time></trkpt><trkpt lat="45.9829568" lon="9.0848683"><ele>726.0</ele><time>2026-03-28T10:14:41.021Z</time></trkpt><trkpt lat="45.9829158" lon="9.0850513"><ele>725.5</ele><time>2026-03-28T10:14:42.018Z</time></trkpt><trkpt lat="45.9828919" lon="9.0852481"><ele>725.0</ele><time>2026-03-28T10:14:43.019Z</time></trkpt><trkpt lat="45.9828872" lon="9.0854592"><ele>724.5</ele><time>2026-03-28T10:14:44.02Z</time></trkpt><trkpt lat="45.9829006" lon="9.0856665"><ele>724.0</ele><time>2026-03-28T10:14:45.024Z</time></trkpt><trkpt lat="45.9829326" lon="9.0859163"><ele>724.0</ele><time>2026-03-28T10:14:46.013Z</time></trkpt><trkpt lat="45.9829388" lon="9.0861837"><ele>724.0</ele><time>2026-03-28T10:14:47.013Z</time></trkpt><trkpt lat="45.9829175" lon="9.0864258"><ele>724.0</ele><time>2026-03-28T10:14:48.014Z</time></trkpt><trkpt lat="45.9829209" lon="9.0867021"><ele>725.3333333333334</ele><time>2026-03-28T10:14:49.036Z</time></trkpt><trkpt lat="45.9829434" lon="9.0869613"><ele>726.6666666666666</ele><time>2026-03-28T10:14:50.021Z</time></trkpt><trkpt lat="45.9829704" lon="9.0872087"><ele>728.0</ele><time>2026-03-28T10:14:51.028Z</time></trkpt><trkpt lat="45.9829864" lon="9.0874363"><ele>730.75</ele><time>2026-03-28T10:14:52.013Z</time></trkpt><trkpt lat="45.9829899" lon="9.0876376"><ele>733.5</ele><time>2026-03-28T10:14:53.026Z</time></trkpt><trkpt lat="45.98302" lon="9.0878538"><ele>736.25</ele><time>2026-03-28T10:14:54.018Z</time></trkpt><trkpt lat="45.9830684" lon="9.088039"><ele>739.0</ele><time>2026-03-28T10:14:55.018Z</time></trkpt><trkpt lat="45.98312" lon="9.0882286"><ele>741.75</ele><time>2026-03-28T10:14:56.015Z</time></trkpt><trkpt lat="45.9831583" lon="9.0884192"><ele>744.5</ele><time>2026-03-28T10:14:57.011Z</time></trkpt><trkpt lat="45.9831656" lon="9.0886099"><ele>747.25</ele><time>2026-03-28T10:14:58.012Z</time></trkpt><trkpt lat="45.9831562" lon="9.0888083"><ele>750.0</ele><time>2026-03-28T10:14:59.015Z</time></trkpt><trkpt lat="45.9831202" lon="9.0890175"><ele>749.6666666666666</ele><time>2026-03-28T10:15:00.003Z</time></trkpt><trkpt lat="45.9830926" lon="9.0892398"><ele>749.3333333333333</ele><time>2026-03-28T10:15:01.01Z</time></trkpt><trkpt lat="45.9830638" lon="9.0894565"><ele>749.0</ele><time>2026-03-28T10:15:02.012Z</time></trkpt><trkpt lat="45.9830245" lon="9.0896704"><ele>749.0</ele><time>2026-03-28T10:15:03.015Z</time></trkpt><trkpt lat="45.9829655" lon="9.0898796"><ele>749.0</ele><time>2026-03-28T10:15:04.019Z</time></trkpt><trkpt lat="45.9829049" lon="9.0900745"><ele>749.0</ele><time>2026-03-28T10:15:05.009Z</time></trkpt><trkpt lat="45.9828546" lon="9.0902931"><ele>746.25</ele><time>2026-03-28T10:15:06.023Z</time></trkpt><trkpt lat="45.9827846" lon="9.0904849"><ele>743.5</ele><time>2026-03-28T10:15:07.016Z</time></trkpt><trkpt lat="45.9827114" lon="9.0906509"><ele>740.75</ele><time>2026-03-28T10:15:08.012Z</time></trkpt><trkpt lat="45.9826352" lon="9.090791"><ele>738.0</ele><time>2026-03-28T10:15:09.013Z</time></trkpt><trkpt lat="45.98254" lon="9.0909118"><ele>750.3333333333333</ele><time>2026-03-28T10:15:10.047Z</time></trkpt><trkpt lat="45.9824354" lon="9.0910582"><ele>762.6666666666666</ele><time>2026-03-28T10:15:11.018Z</time></trkpt><trkpt lat="45.9823246" lon="9.0912034"><ele>775.0</ele><time>2026-03-28T10:15:12.019Z</time></trkpt><trkpt lat="45.9822173" lon="9.0913738"><ele>775.0</ele><time>2026-03-28T10:15:13.02Z</time></trkpt><trkpt lat="45.9821056" lon="9.0915781"><ele>775.0</ele><time>2026-03-28T10:15:14.01Z</time></trkpt><trkpt lat="45.9820009" lon="9.0917978"><ele>775.0</ele><time>2026-03-28T10:15:15.033Z</time></trkpt><trkpt lat="45.9819334" lon="9.0920577"><ele>780.3333333333333</ele><time>2026-03-28T10:15:16.015Z</time></trkpt><trkpt lat="45.9818525" lon="9.0923067"><ele>785.6666666666667</ele><time>2026-03-28T10:15:17.007Z</time></trkpt><trkpt lat="45.9817618" lon="9.0925294"><ele>791.0</ele><time>2026-03-28T10:15:18.01Z</time></trkpt><trkpt lat="45.9816761" lon="9.0927155"><ele>791.0</ele><time>2026-03-28T10:15:19.013Z</time></trkpt><trkpt lat="45.9815856" lon="9.092873"><ele>791.0</ele><time>2026-03-28T10:15:20.008Z</time></trkpt><trkpt lat="45.9815018" lon="9.093007"><ele>791.0</ele><time>2026-03-28T10:15:21.007Z</time></trkpt><trkpt lat="45.9814205" lon="9.0930955"><ele>791.0</ele><time>2026-03-28T10:15:22.009Z</time></trkpt><trkpt lat="45.981349" lon="9.0931325"><ele>791.0</ele><time>2026-03-28T10:15:23.012Z</time></trkpt><trkpt lat="45.9812803" lon="9.0931707"><ele>791.0000000000001</ele><time>2026-03-28T10:15:24.03Z</time></trkpt><trkpt lat="45.9812049" lon="9.0932119"><ele>791.0</ele><time>2026-03-28T10:15:25.03Z</time></trkpt><trkpt lat="45.981129" lon="9.0932383"><ele>791.0</ele><time>2026-03-28T10:15:26.012Z</time></trkpt><trkpt lat="45.9810351" lon="9.0932244"><ele>791.0</ele><time>2026-03-28T10:15:27.038Z</time></trkpt><trkpt lat="45.9809434" lon="9.0931737"><ele>791.0000000000001</ele><time>2026-03-28T10:15:28.02Z</time></trkpt><trkpt lat="45.9808645" lon="9.0931726"><ele>791.0</ele><time>2026-03-28T10:15:29.001Z</time></trkpt><trkpt lat="45.9807871" lon="9.0931329"><ele>794.5999999999999</ele><time>2026-03-28T10:15:30.005Z</time></trkpt><trkpt lat="45.9806979" lon="9.0930977"><ele>798.2</ele><time>2026-03-28T10:15:31.018Z</time></trkpt><trkpt lat="45.9806892" lon="9.0931982"><ele>801.8</ele><time>2026-03-28T10:15:33.009Z</time></trkpt><trkpt lat="45.9806968" lon="9.0933085"><ele>805.4000000000001</ele><time>2026-03-28T10:15:35.014Z</time></trkpt><trkpt lat="45.9807541" lon="9.0935072"><ele>809.0</ele><time>2026-03-28T10:15:37.028Z</time></trkpt><trkpt lat="45.980793" lon="9.0936121"><ele>799.3333333333334</ele><time>2026-03-28T10:15:38.02Z</time></trkpt><trkpt lat="45.980908" lon="9.0938108"><ele>789.6666666666667</ele><time>2026-03-28T10:15:39Z</time></trkpt><trkpt lat="45.9810133" lon="9.0940395"><ele>780.0</ele><time>2026-03-28T10:15:40.026Z</time></trkpt><trkpt lat="45.981122" lon="9.0942596"><ele>780.0</ele><time>2026-03-28T10:15:41.009Z</time></trkpt><trkpt lat="45.9812102" lon="9.0944952"><ele>780.0</ele><time>2026-03-28T10:15:42.023Z</time></trkpt><trkpt lat="45.9813457" lon="9.0947927"><ele>780.0</ele><time>2026-03-28T10:15:43.015Z</time></trkpt><trkpt lat="45.9814632" lon="9.095042"><ele>768.0</ele><time>2026-03-28T10:15:44.006Z</time></trkpt><trkpt lat="45.9815952" lon="9.0953402"><ele>756.0</ele><time>2026-03-28T10:15:45.032Z</time></trkpt><trkpt lat="45.9816951" lon="9.0956506"><ele>765.0</ele><time>2026-03-28T10:15:46.014Z</time></trkpt><trkpt lat="45.9818537" lon="9.0961372"><ele>774.0</ele><time>2026-03-28T10:15:47.018Z</time></trkpt><trkpt lat="45.9819432" lon="9.0965802"><ele>775.5</ele><time>2026-03-28T10:15:48.003Z</time></trkpt><trkpt lat="45.9819515" lon="9.0968269"><ele>777.0</ele><time>2026-03-28T10:15:49.015Z</time></trkpt><trkpt lat="45.9819577" lon="9.097006"><ele>778.5</ele><time>2026-03-28T10:15:50.008Z</time></trkpt><trkpt lat="45.9819558" lon="9.0972151"><ele>780.0</ele><time>2026-03-28T10:15:51.003Z</time></trkpt><trkpt lat="45.9819311" lon="9.0974054"><ele>778.5</ele><time>2026-03-28T10:15:51.993Z</time></trkpt><trkpt lat="45.9818667" lon="9.0975909"><ele>777.0</ele><time>2026-03-28T10:15:53.017Z</time></trkpt><trkpt lat="45.9818086" lon="9.0977644"><ele>775.5</ele><time>2026-03-28T10:15:54.024Z</time></trkpt><trkpt lat="45.9817704" lon="9.097948"><ele>774.0</ele><time>2026-03-28T10:15:55.013Z</time></trkpt><trkpt lat="45.9816893" lon="9.0981118"><ele>783.75</ele><time>2026-03-28T10:15:56.007Z</time></trkpt><trkpt lat="45.9816142" lon="9.0982549"><ele>793.5</ele><time>2026-03-28T10:15:57.005Z</time></trkpt><trkpt lat="45.981527" lon="9.0983923"><ele>803.25</ele><time>2026-03-28T10:15:57.994Z</time></trkpt><trkpt lat="45.9814242" lon="9.0985065"><ele>813.0</ele><time>2026-03-28T10:15:59.006Z</time></trkpt><trkpt lat="45.9813165" lon="9.098626"><ele>813.0</ele><time>2026-03-28T10:16:00.008Z</time></trkpt><trkpt lat="45.9812029" lon="9.0987266"><ele>813.0</ele><time>2026-03-28T10:16:00.997Z</time></trkpt><trkpt lat="45.981094" lon="9.0988451"><ele>813.0</ele><time>2026-03-28T10:16:02.014Z</time></trkpt><trkpt lat="45.9809932" lon="9.0989941"><ele>813.0</ele><time>2026-03-28T10:16:03.016Z</time></trkpt><trkpt lat="45.9809124" lon="9.0991511"><ele>818.0</ele><time>2026-03-28T10:16:04.034Z</time></trkpt><trkpt lat="45.9808319" lon="9.0993288"><ele>823.0</ele><time>2026-03-28T10:16:05.019Z</time></trkpt><trkpt lat="45.9807468" lon="9.0994888"><ele>828.0</ele><time>2026-03-28T10:16:06.011Z</time></trkpt><trkpt lat="45.9806461" lon="9.0996034"><ele>833.0</ele><time>2026-03-28T10:16:07.006Z</time></trkpt><trkpt lat="45.9805705" lon="9.099705"><ele>833.0000000000001</ele><time>2026-03-28T10:16:08.007Z</time></trkpt><trkpt lat="45.9805058" lon="9.0998018"><ele>833.0</ele><time>2026-03-28T10:16:09.01Z</time></trkpt><trkpt lat="45.980487" lon="9.0999294"><ele>833.0</ele><time>2026-03-28T10:16:10.007Z</time></trkpt><trkpt lat="45.9805106" lon="9.1000263"><ele>833.0</ele><time>2026-03-28T10:16:11.014Z</time></trkpt><trkpt lat="45.9805659" lon="9.1000818"><ele>833.0000000000001</ele><time>2026-03-28T10:16:12.005Z</time></trkpt><trkpt lat="45.9806533" lon="9.1000893"><ele>833.0</ele><time>2026-03-28T10:16:13.012Z</time></trkpt><trkpt lat="45.9808017" lon="9.1000265"><ele>831.0</ele><time>2026-03-28T10:16:14.007Z</time></trkpt><trkpt lat="45.9809445" lon="9.0999692"><ele>829.0</ele><time>2026-03-28T10:16:15.008Z</time></trkpt><trkpt lat="45.9810846" lon="9.0998628"><ele>827.0</ele><time>2026-03-28T10:16:16.021Z</time></trkpt><trkpt lat="45.9812076" lon="9.0997884"><ele>825.0</ele><time>2026-03-28T10:16:17.008Z</time></trkpt><trkpt lat="45.981333" lon="9.0997532"><ele>818.5</ele><time>2026-03-28T10:16:17.992Z</time></trkpt><trkpt lat="45.981454" lon="9.0997877"><ele>812.0</ele><time>2026-03-28T10:16:19.003Z</time></trkpt><trkpt lat="45.9815883" lon="9.0998798"><ele>805.5</ele><time>2026-03-28T10:16:20.023Z</time></trkpt><trkpt lat="45.9817303" lon="9.0999877"><ele>799.0</ele><time>2026-03-28T10:16:21.023Z</time></trkpt><trkpt lat="45.9818921" lon="9.1001467"><ele>799.0</ele><time>2026-03-28T10:16:22.006Z</time></trkpt><trkpt lat="45.9820598" lon="9.1002702"><ele>799.0</ele><time>2026-03-28T10:16:22.999Z</time></trkpt><trkpt lat="45.9822356" lon="9.1003584"><ele>799.0</ele><time>2026-03-28T10:16:24.017Z</time></trkpt><trkpt lat="45.9823898" lon="9.1004422"><ele>791.3333333333333</ele><time>2026-03-28T10:16:25.039Z</time></trkpt><trkpt lat="45.9825533" lon="9.1005104"><ele>783.6666666666667</ele><time>2026-03-28T10:16:26.009Z</time></trkpt><trkpt lat="45.982702" lon="9.1006111"><ele>776.0</ele><time>2026-03-28T10:16:27.013Z</time></trkpt><trkpt lat="45.9828312" lon="9.1007131"><ele>783.75</ele><time>2026-03-28T10:16:28.009Z</time></trkpt><trkpt lat="45.9829338" lon="9.1008236"><ele>791.5</ele><time>2026-03-28T10:16:29.006Z</time></trkpt><trkpt lat="45.9830133" lon="9.1009447"><ele>799.25</ele><time>2026-03-28T10:16:30.019Z</time></trkpt><trkpt lat="45.9830727" lon="9.1010826"><ele>807.0</ele><time>2026-03-28T10:16:31.018Z</time></trkpt><trkpt lat="45.9831186" lon="9.1012391"><ele>807.0</ele><time>2026-03-28T10:16:32.013Z</time></trkpt><trkpt lat="45.9831592" lon="9.1014033"><ele>807.0</ele><time>2026-03-28T10:16:32.997Z</time></trkpt><trkpt lat="45.9832138" lon="9.1015189"><ele>807.0</ele><time>2026-03-28T10:16:34.023Z</time></trkpt><trkpt lat="45.9832638" lon="9.1016143"><ele>807.0</ele><time>2026-03-28T10:16:35.018Z</time></trkpt><trkpt lat="45.9833104" lon="9.1016792"><ele>807.0</ele><time>2026-03-28T10:16:36.009Z</time></trkpt><trkpt lat="45.9833737" lon="9.1016988"><ele>807.0</ele><time>2026-03-28T10:16:37Z</time></trkpt><trkpt lat="45.9834406" lon="9.1016495"><ele>807.6</ele><time>2026-03-28T10:16:38.01Z</time></trkpt><trkpt lat="45.9834856" lon="9.1015385"><ele>808.2</ele><time>2026-03-28T10:16:39.034Z</time></trkpt><trkpt lat="45.9835051" lon="9.1014152"><ele>808.8</ele><time>2026-03-28T10:16:40.015Z</time></trkpt><trkpt lat="45.9835326" lon="9.1012994"><ele>809.4</ele><time>2026-03-28T10:16:41Z</time></trkpt><trkpt lat="45.9835872" lon="9.1011794"><ele>810.0</ele><time>2026-03-28T10:16:42.048Z</time></trkpt><trkpt lat="45.9836639" lon="9.101085"><ele>810.0</ele><time>2026-03-28T10:16:43.037Z</time></trkpt><trkpt lat="45.983756" lon="9.1009906"><ele>810.0</ele><time>2026-03-28T10:16:44.006Z</time></trkpt><trkpt lat="45.9838944" lon="9.1009179"><ele>810.0</ele><time>2026-03-28T10:16:44.998Z</time></trkpt><trkpt lat="45.9840672" lon="9.1009303"><ele>810.0</ele><time>2026-03-28T10:16:46.013Z</time></trkpt><trkpt lat="45.9842248" lon="9.1008623"><ele>812.0</ele><time>2026-03-28T10:16:47.001Z</time></trkpt><trkpt lat="45.984366" lon="9.1007548"><ele>814.0</ele><time>2026-03-28T10:16:48.031Z</time></trkpt><trkpt lat="45.9844974" lon="9.1006718"><ele>816.0</ele><time>2026-03-28T10:16:49.036Z</time></trkpt><trkpt lat="45.9846087" lon="9.100623"><ele>818.0</ele><time>2026-03-28T10:16:50.013Z</time></trkpt><trkpt lat="45.9847337" lon="9.1006365"><ele>819.6666666666667</ele><time>2026-03-28T10:16:51.026Z</time></trkpt><trkpt lat="45.9848563" lon="9.100719"><ele>821.3333333333333</ele><time>2026-03-28T10:16:51.997Z</time></trkpt><trkpt lat="45.9850376" lon="9.1008633"><ele>823.0</ele><time>2026-03-28T10:16:52.998Z</time></trkpt><trkpt lat="45.9852085" lon="9.1009572"><ele>823.0</ele><time>2026-03-28T10:16:54.052Z</time></trkpt><trkpt lat="45.9853645" lon="9.1009946"><ele>823.0</ele><time>2026-03-28T10:16:55.011Z</time></trkpt><trkpt lat="45.9855304" lon="9.1010215"><ele>823.0</ele><time>2026-03-28T10:16:56.005Z</time></trkpt><trkpt lat="45.9856561" lon="9.1010496"><ele>823.0</ele><time>2026-03-28T10:16:57.009Z</time></trkpt><trkpt lat="45.9857539" lon="9.1010903"><ele>823.0</ele><time>2026-03-28T10:16:58.021Z</time></trkpt><trkpt lat="45.985838" lon="9.1011321"><ele>823.0</ele><time>2026-03-28T10:16:59.012Z</time></trkpt><trkpt lat="45.9859012" lon="9.1012131"><ele>823.0</ele><time>2026-03-28T10:17:00.021Z</time></trkpt><trkpt lat="45.9859404" lon="9.1013274"><ele>823.0</ele><time>2026-03-28T10:17:00.999Z</time></trkpt><trkpt lat="45.9859293" lon="9.1014965"><ele>823.25</ele><time>2026-03-28T10:17:02.005Z</time></trkpt><trkpt lat="45.9858683" lon="9.1017075"><ele>823.5</ele><time>2026-03-28T10:17:03.015Z</time></trkpt><trkpt lat="45.9858263" lon="9.101903"><ele>823.75</ele><time>2026-03-28T10:17:04.015Z</time></trkpt><trkpt lat="45.9857548" lon="9.1020608"><ele>824.0</ele><time>2026-03-28T10:17:05.011Z</time></trkpt><trkpt lat="45.9857054" lon="9.1022013"><ele>824.0</ele><time>2026-03-28T10:17:06.006Z</time></trkpt><trkpt lat="45.9856903" lon="9.1023444"><ele>824.0</ele><time>2026-03-28T10:17:07.025Z</time></trkpt><trkpt lat="45.9857017" lon="9.1025087"><ele>824.0</ele><time>2026-03-28T10:17:08.007Z</time></trkpt><trkpt lat="45.9857503" lon="9.1026849"><ele>824.0</ele><time>2026-03-28T10:17:09.004Z</time></trkpt><trkpt lat="45.9858607" lon="9.1028274"><ele>818.75</ele><time>2026-03-28T10:17:10.013Z</time></trkpt><trkpt lat="45.9859372" lon="9.102997"><ele>813.5</ele><time>2026-03-28T10:17:11.002Z</time></trkpt><trkpt lat="45.9860321" lon="9.1031297"><ele>808.25</ele><time>2026-03-28T10:17:12.029Z</time></trkpt><trkpt lat="45.9861431" lon="9.1032854"><ele>803.0</ele><time>2026-03-28T10:17:13.001Z</time></trkpt><trkpt lat="45.986204" lon="9.1034567"><ele>803.0</ele><time>2026-03-28T10:17:13.996Z</time></trkpt><trkpt lat="45.9862502" lon="9.103623"><ele>803.0</ele><time>2026-03-28T10:17:15.009Z</time></trkpt><trkpt lat="45.9862786" lon="9.1037957"><ele>803.0</ele><time>2026-03-28T10:17:15.999Z</time></trkpt><trkpt lat="45.9863043" lon="9.1039518"><ele>803.0</ele><time>2026-03-28T10:17:16.991Z</time></trkpt><trkpt lat="45.9863519" lon="9.1041003"><ele>809.75</ele><time>2026-03-28T10:17:18.007Z</time></trkpt><trkpt lat="45.986393" lon="9.1042113"><ele>816.5</ele><time>2026-03-28T10:17:19.003Z</time></trkpt><trkpt lat="45.9864925" lon="9.1043072"><ele>823.25</ele><time>2026-03-28T10:17:20.009Z</time></trkpt><trkpt lat="45.986572" lon="9.1044606"><ele>830.0</ele><time>2026-03-28T10:17:20.991Z</time></trkpt><trkpt lat="45.9866381" lon="9.104609"><ele>828.25</ele><time>2026-03-28T10:17:22.008Z</time></trkpt><trkpt lat="45.9867105" lon="9.1047664"><ele>826.5</ele><time>2026-03-28T10:17:23.021Z</time></trkpt><trkpt lat="45.9868127" lon="9.1049098"><ele>824.75</ele><time>2026-03-28T10:17:23.999Z</time></trkpt><trkpt lat="45.9869601" lon="9.1049752"><ele>823.0</ele><time>2026-03-28T10:17:24.998Z</time></trkpt><trkpt lat="45.9871247" lon="9.1050299"><ele>823.0</ele><time>2026-03-28T10:17:26.006Z</time></trkpt><trkpt lat="45.987277" lon="9.1051132"><ele>823.0</ele><time>2026-03-28T10:17:27.017Z</time></trkpt><trkpt lat="45.9874016" lon="9.1052489"><ele>823.0</ele><time>2026-03-28T10:17:28.012Z</time></trkpt><trkpt lat="45.9875401" lon="9.1054558"><ele>823.0</ele><time>2026-03-28T10:17:29.011Z</time></trkpt><trkpt lat="45.987685" lon="9.1057329"><ele>823.0</ele><time>2026-03-28T10:17:30.012Z</time></trkpt><trkpt lat="45.987809" lon="9.1059771"><ele>823.0</ele><time>2026-03-28T10:17:31.009Z</time></trkpt><trkpt lat="45.9878678" lon="9.1062159"><ele>823.0</ele><time>2026-03-28T10:17:32.02Z</time></trkpt><trkpt lat="45.9879296" lon="9.1064591"><ele>823.0</ele><time>2026-03-28T10:17:33.021Z</time></trkpt><trkpt lat="45.9879746" lon="9.1066954"><ele>825.0</ele><time>2026-03-28T10:17:34.012Z</time></trkpt><trkpt lat="45.9879946" lon="9.1069489"><ele>827.0</ele><time>2026-03-28T10:17:35.014Z</time></trkpt><trkpt lat="45.9880005" lon="9.1072078"><ele>829.0</ele><time>2026-03-28T10:17:36.004Z</time></trkpt><trkpt lat="45.9880089" lon="9.1074646"><ele>829.6666666666666</ele><time>2026-03-28T10:17:37.01Z</time></trkpt><trkpt lat="45.9879693" lon="9.1077205"><ele>830.3333333333333</ele><time>2026-03-28T10:17:38.009Z</time></trkpt><trkpt lat="45.987971" lon="9.1079363"><ele>831.0</ele><time>2026-03-28T10:17:39.008Z</time></trkpt><trkpt lat="45.9880252" lon="9.1081008"><ele>832.6666666666667</ele><time>2026-03-28T10:17:40.006Z</time></trkpt><trkpt lat="45.9881396" lon="9.1082482"><ele>834.3333333333334</ele><time>2026-03-28T10:17:41.017Z</time></trkpt><trkpt lat="45.9882613" lon="9.108407"><ele>836.0</ele><time>2026-03-28T10:17:42.011Z</time></trkpt><trkpt lat="45.9883788" lon="9.1085785"><ele>841.75</ele><time>2026-03-28T10:17:43.01Z</time></trkpt><trkpt lat="45.9885095" lon="9.1087204"><ele>847.5</ele><time>2026-03-28T10:17:44.011Z</time></trkpt><trkpt lat="45.9886324" lon="9.1088422"><ele>853.25</ele><time>2026-03-28T10:17:45.016Z</time></trkpt><trkpt lat="45.988744" lon="9.1089397"><ele>859.0</ele><time>2026-03-28T10:17:46.008Z</time></trkpt><trkpt lat="45.9888415" lon="9.1090261"><ele>859.0</ele><time>2026-03-28T10:17:47.006Z</time></trkpt><trkpt lat="45.9889252" lon="9.1090955"><ele>859.0000000000001</ele><time>2026-03-28T10:17:48.005Z</time></trkpt><trkpt lat="45.9890072" lon="9.1090818"><ele>859.0000000000001</ele><time>2026-03-28T10:17:49.009Z</time></trkpt><trkpt lat="45.9890807" lon="9.1089719"><ele>859.0</ele><time>2026-03-28T10:17:50.012Z</time></trkpt><trkpt lat="45.9891185" lon="9.1088387"><ele>859.0</ele><time>2026-03-28T10:17:51.002Z</time></trkpt><trkpt lat="45.9891364" lon="9.1087216"><ele>859.0</ele><time>2026-03-28T10:17:52.015Z</time></trkpt><trkpt lat="45.9891263" lon="9.1086064"><ele>859.0</ele><time>2026-03-28T10:17:53.018Z</time></trkpt><trkpt lat="45.9890768" lon="9.1084492"><ele>859.0</ele><time>2026-03-28T10:17:54.008Z</time></trkpt><trkpt lat="45.9889703" lon="9.1082545"><ele>859.0</ele><time>2026-03-28T10:17:55.013Z</time></trkpt><trkpt lat="45.9888758" lon="9.1081128"><ele>863.0</ele><time>2026-03-28T10:17:55.999Z</time></trkpt><trkpt lat="45.9888025" lon="9.1079719"><ele>867.0</ele><time>2026-03-28T10:17:56.993Z</time></trkpt><trkpt lat="45.9887306" lon="9.1078108"><ele>871.0</ele><time>2026-03-28T10:17:58.028Z</time></trkpt><trkpt lat="45.9886673" lon="9.1076547"><ele>875.0</ele><time>2026-03-28T10:17:58.994Z</time></trkpt><trkpt lat="45.9886606" lon="9.1074908"><ele>875.75</ele><time>2026-03-28T10:17:59.993Z</time></trkpt><trkpt lat="45.988683" lon="9.1073079"><ele>876.5</ele><time>2026-03-28T10:18:01.021Z</time></trkpt><trkpt lat="45.9887116" lon="9.1070984"><ele>877.25</ele><time>2026-03-28T10:18:02.017Z</time></trkpt><trkpt lat="45.9887284" lon="9.1068703"><ele>878.0</ele><time>2026-03-28T10:18:03.011Z</time></trkpt><trkpt lat="45.9887486" lon="9.1066131"><ele>878.0</ele><time>2026-03-28T10:18:04.001Z</time></trkpt><trkpt lat="45.9887995" lon="9.1063534"><ele>878.0</ele><time>2026-03-28T10:18:04.99Z</time></trkpt><trkpt lat="45.9888568" lon="9.1060827"><ele>878.0</ele><time>2026-03-28T10:18:06.023Z</time></trkpt><trkpt lat="45.9888815" lon="9.1058166"><ele>880.25</ele><time>2026-03-28T10:18:07.008Z</time></trkpt><trkpt lat="45.9889047" lon="9.105594"><ele>882.5</ele><time>2026-03-28T10:18:08.014Z</time></trkpt><trkpt lat="45.9888985" lon="9.1053837"><ele>884.75</ele><time>2026-03-28T10:18:09.02Z</time></trkpt><trkpt lat="45.9888418" lon="9.1052002"><ele>887.0</ele><time>2026-03-28T10:18:10.012Z</time></trkpt><trkpt lat="45.9887398" lon="9.1050511"><ele>888.75</ele><time>2026-03-28T10:18:11.008Z</time></trkpt><trkpt lat="45.9886808" lon="9.1048776"><ele>890.5</ele><time>2026-03-28T10:18:11.999Z</time></trkpt><trkpt lat="45.9886411" lon="9.1046687"><ele>892.25</ele><time>2026-03-28T10:18:13.007Z</time></trkpt><trkpt lat="45.9886323" lon="9.1044455"><ele>894.0</ele><time>2026-03-28T10:18:14.003Z</time></trkpt><trkpt lat="45.9886479" lon="9.1041876"><ele>891.5</ele><time>2026-03-28T10:18:15.012Z</time></trkpt><trkpt lat="45.9886321" lon="9.103978"><ele>889.0</ele><time>2026-03-28T10:18:16.008Z</time></trkpt><trkpt lat="45.9886522" lon="9.1037606"><ele>886.5</ele><time>2026-03-28T10:18:17.009Z</time></trkpt><trkpt lat="45.9886779" lon="9.1035673"><ele>884.0</ele><time>2026-03-28T10:18:18.011Z</time></trkpt><trkpt lat="45.9887169" lon="9.1033888"><ele>882.6</ele><time>2026-03-28T10:18:19.016Z</time></trkpt><trkpt lat="45.9887587" lon="9.1032213"><ele>881.2</ele><time>2026-03-28T10:18:20.021Z</time></trkpt><trkpt lat="45.9888204" lon="9.1030664"><ele>879.8000000000001</ele><time>2026-03-28T10:18:21.007Z</time></trkpt><trkpt lat="45.9888921" lon="9.1029989"><ele>878.4000000000001</ele><time>2026-03-28T10:18:22.014Z</time></trkpt><trkpt lat="45.9889685" lon="9.1029315"><ele>877.0</ele><time>2026-03-28T10:18:23.026Z</time></trkpt><trkpt lat="45.9890276" lon="9.1028563"><ele>877.0</ele><time>2026-03-28T10:18:24.009Z</time></trkpt><trkpt lat="45.9890748" lon="9.102737"><ele>877.0</ele><time>2026-03-28T10:18:24.999Z</time></trkpt><trkpt lat="45.9890837" lon="9.1025752"><ele>877.0</ele><time>2026-03-28T10:18:25.992Z</time></trkpt><trkpt lat="45.9890753" lon="9.102385"><ele>877.0</ele><time>2026-03-28T10:18:27.02Z</time></trkpt><trkpt lat="45.9890834" lon="9.1022297"><ele>877.0</ele><time>2026-03-28T10:18:28.029Z</time></trkpt><trkpt lat="45.9891176" lon="9.1020679"><ele>886.5</ele><time>2026-03-28T10:18:29.025Z</time></trkpt><trkpt lat="45.9891789" lon="9.1019189"><ele>896.0</ele><time>2026-03-28T10:18:30.039Z</time></trkpt><trkpt lat="45.9892451" lon="9.1017757"><ele>905.5</ele><time>2026-03-28T10:18:31.025Z</time></trkpt><trkpt lat="45.989323" lon="9.1016185"><ele>915.0</ele><time>2026-03-28T10:18:31.999Z</time></trkpt><trkpt lat="45.9893878" lon="9.1014638"><ele>915.0</ele><time>2026-03-28T10:18:33.006Z</time></trkpt><trkpt lat="45.9894553" lon="9.1013204"><ele>915.0</ele><time>2026-03-28T10:18:34.008Z</time></trkpt><trkpt lat="45.9894947" lon="9.1011624"><ele>915.0</ele><time>2026-03-28T10:18:35.031Z</time></trkpt><trkpt lat="45.989501" lon="9.1010262"><ele>915.0</ele><time>2026-03-28T10:18:36.006Z</time></trkpt><trkpt lat="45.9894946" lon="9.1009085"><ele>915.0</ele><time>2026-03-28T10:18:37.011Z</time></trkpt><trkpt lat="45.9895291" lon="9.10082"><ele>915.0</ele><time>2026-03-28T10:18:38.009Z</time></trkpt><trkpt lat="45.9895722" lon="9.1007322"><ele>915.0</ele><time>2026-03-28T10:18:39.026Z</time></trkpt><trkpt lat="45.9896635" lon="9.1006331"><ele>915.0</ele><time>2026-03-28T10:18:40.997Z</time></trkpt><trkpt lat="45.9897429" lon="9.1007399"><ele>915.0</ele><time>2026-03-28T10:18:44.004Z</time></trkpt><trkpt lat="45.9897289" lon="9.1008306"><ele>915.0</ele><time>2026-03-28T10:18:45.013Z</time></trkpt><trkpt lat="45.9896773" lon="9.1009149"><ele>915.0</ele><time>2026-03-28T10:18:46.029Z</time></trkpt><trkpt lat="45.9896449" lon="9.1010185"><ele>915.0</ele><time>2026-03-28T10:18:47.024Z</time></trkpt><trkpt lat="45.9896098" lon="9.1011192"><ele>915.0</ele><time>2026-03-28T10:18:48.02Z</time></trkpt><trkpt lat="45.9895985" lon="9.1012593"><ele>915.0</ele><time>2026-03-28T10:18:49.004Z</time></trkpt><trkpt lat="45.9895903" lon="9.1014158"><ele>915.0</ele><time>2026-03-28T10:18:50.029Z</time></trkpt><trkpt lat="45.9895794" lon="9.1015612"><ele>915.0</ele><time>2026-03-28T10:18:51.006Z</time></trkpt><trkpt lat="45.9895614" lon="9.1016965"><ele>917.2</ele><time>2026-03-28T10:18:52.019Z</time></trkpt><trkpt lat="45.9895418" lon="9.1018451"><ele>919.4</ele><time>2026-03-28T10:18:53.005Z</time></trkpt><trkpt lat="45.9895214" lon="9.1019817"><ele>921.5999999999999</ele><time>2026-03-28T10:18:54.009Z</time></trkpt><trkpt lat="45.9895056" lon="9.1021051"><ele>923.8</ele><time>2026-03-28T10:18:55.005Z</time></trkpt><trkpt lat="45.9894889" lon="9.1022216"><ele>926.0</ele><time>2026-03-28T10:18:56Z</time></trkpt><trkpt lat="45.9894753" lon="9.102335"><ele>927.3333333333334</ele><time>2026-03-28T10:18:57.019Z</time></trkpt><trkpt lat="45.9894544" lon="9.1024439"><ele>928.6666666666667</ele><time>2026-03-28T10:18:58.01Z</time></trkpt><trkpt lat="45.9894642" lon="9.102565"><ele>930.0</ele><time>2026-03-28T10:18:59.008Z</time></trkpt><trkpt lat="45.9894884" lon="9.10269"><ele>931.3333333333333</ele><time>2026-03-28T10:19:00.027Z</time></trkpt><trkpt lat="45.9895137" lon="9.1028211"><ele>932.6666666666666</ele><time>2026-03-28T10:19:01.01Z</time></trkpt><trkpt lat="45.9895265" lon="9.1029579"><ele>934.0</ele><time>2026-03-28T10:19:02.013Z</time></trkpt><trkpt lat="45.9895241" lon="9.1030988"><ele>934.0</ele><time>2026-03-28T10:19:03.009Z</time></trkpt><trkpt lat="45.989501" lon="9.1032367"><ele>934.0000000000001</ele><time>2026-03-28T10:19:04.013Z</time></trkpt><trkpt lat="45.9894681" lon="9.1033735"><ele>934.0000000000001</ele><time>2026-03-28T10:19:05.016Z</time></trkpt><trkpt lat="45.9894301" lon="9.1035126"><ele>934.0</ele><time>2026-03-28T10:19:06.022Z</time></trkpt><trkpt lat="45.9894065" lon="9.1036475"><ele>934.0</ele><time>2026-03-28T10:19:07.006Z</time></trkpt><trkpt lat="45.9893847" lon="9.1037635"><ele>935.6</ele><time>2026-03-28T10:19:08.026Z</time></trkpt><trkpt lat="45.9893725" lon="9.1038643"><ele>937.2</ele><time>2026-03-28T10:19:08.996Z</time></trkpt><trkpt lat="45.9893716" lon="9.1039998"><ele>938.8000000000001</ele><time>2026-03-28T10:19:10.009Z</time></trkpt><trkpt lat="45.9894083" lon="9.1041231"><ele>940.4000000000001</ele><time>2026-03-28T10:19:11.022Z</time></trkpt><trkpt lat="45.9894338" lon="9.1042649"><ele>942.0</ele><time>2026-03-28T10:19:12.006Z</time></trkpt><trkpt lat="45.9894223" lon="9.104419"><ele>941.8</ele><time>2026-03-28T10:19:13.002Z</time></trkpt><trkpt lat="45.9894079" lon="9.1045585"><ele>941.6</ele><time>2026-03-28T10:19:14.025Z</time></trkpt><trkpt lat="45.9894018" lon="9.104684"><ele>941.3999999999999</ele><time>2026-03-28T10:19:15.014Z</time></trkpt><trkpt lat="45.9894319" lon="9.1048015"><ele>941.1999999999999</ele><time>2026-03-28T10:19:16.013Z</time></trkpt><trkpt lat="45.9894711" lon="9.1049243"><ele>941.0</ele><time>2026-03-28T10:19:17.013Z</time></trkpt><trkpt lat="45.9895467" lon="9.1050093"><ele>941.0</ele><time>2026-03-28T10:19:18.032Z</time></trkpt><trkpt lat="45.9896253" lon="9.1051007"><ele>940.9999999999999</ele><time>2026-03-28T10:19:19.033Z</time></trkpt><trkpt lat="45.9897107" lon="9.1051992"><ele>940.9999999999999</ele><time>2026-03-28T10:19:20.005Z</time></trkpt><trkpt lat="45.9897846" lon="9.1052919"><ele>941.0</ele><time>2026-03-28T10:19:21.005Z</time></trkpt><trkpt lat="45.9898511" lon="9.1053755"><ele>941.0</ele><time>2026-03-28T10:19:22.002Z</time></trkpt><trkpt lat="45.9899121" lon="9.1054505"><ele>941.0000000000001</ele><time>2026-03-28T10:19:23.01Z</time></trkpt><trkpt lat="45.9899306" lon="9.1055656"><ele>941.0</ele><time>2026-03-28T10:19:24.019Z</time></trkpt><trkpt lat="45.9899022" lon="9.1056875"><ele>941.0</ele><time>2026-03-28T10:19:25.009Z</time></trkpt><trkpt lat="45.9898517" lon="9.105795"><ele>941.0</ele><time>2026-03-28T10:19:26.007Z</time></trkpt><trkpt lat="45.9897857" lon="9.1058671"><ele>941.0000000000001</ele><time>2026-03-28T10:19:27.021Z</time></trkpt><trkpt lat="45.9897598" lon="9.1059644"><ele>941.0</ele><time>2026-03-28T10:19:27.996Z</time></trkpt><trkpt lat="45.989777" lon="9.1061031"><ele>939.8333333333334</ele><time>2026-03-28T10:19:29.01Z</time></trkpt><trkpt lat="45.9897925" lon="9.106227"><ele>938.6666666666667</ele><time>2026-03-28T10:19:30.032Z</time></trkpt><trkpt lat="45.9898224" lon="9.1063354"><ele>937.5</ele><time>2026-03-28T10:19:31.026Z</time></trkpt><trkpt lat="45.9898444" lon="9.1064402"><ele>936.3333333333333</ele><time>2026-03-28T10:19:32.016Z</time></trkpt><trkpt lat="45.9898718" lon="9.1065517"><ele>935.1666666666666</ele><time>2026-03-28T10:19:33.006Z</time></trkpt><trkpt lat="45.9898823" lon="9.1066741"><ele>934.0</ele><time>2026-03-28T10:19:34.014Z</time></trkpt><trkpt lat="45.9898715" lon="9.1068166"><ele>933.8000000000001</ele><time>2026-03-28T10:19:35.018Z</time></trkpt><trkpt lat="45.9898551" lon="9.1069729"><ele>933.6000000000001</ele><time>2026-03-28T10:19:36.021Z</time></trkpt><trkpt lat="45.9898353" lon="9.1071209"><ele>933.4</ele><time>2026-03-28T10:19:37.015Z</time></trkpt><trkpt lat="45.9898243" lon="9.1072434"><ele>933.2</ele><time>2026-03-28T10:19:38.01Z</time></trkpt><trkpt lat="45.9898432" lon="9.1073784"><ele>933.0</ele><time>2026-03-28T10:19:39.015Z</time></trkpt><trkpt lat="45.9898965" lon="9.1074954"><ele>933.0</ele><time>2026-03-28T10:19:40.016Z</time></trkpt><trkpt lat="45.989953" lon="9.1076097"><ele>933.0</ele><time>2026-03-28T10:19:41.01Z</time></trkpt><trkpt lat="45.9900043" lon="9.1077031"><ele>933.0</ele><time>2026-03-28T10:19:42.01Z</time></trkpt><trkpt lat="45.9900468" lon="9.1078272"><ele>933.0</ele><time>2026-03-28T10:19:43.01Z</time></trkpt><trkpt lat="45.9900751" lon="9.1079735"><ele>933.0</ele><time>2026-03-28T10:19:44.002Z</time></trkpt><trkpt lat="45.9901047" lon="9.1081396"><ele>944.5</ele><time>2026-03-28T10:19:45.003Z</time></trkpt><trkpt lat="45.9901408" lon="9.1082897"><ele>956.0</ele><time>2026-03-28T10:19:46.025Z</time></trkpt><trkpt lat="45.9902064" lon="9.108411"><ele>967.5</ele><time>2026-03-28T10:19:47.015Z</time></trkpt><trkpt lat="45.9902721" lon="9.1085435"><ele>979.0</ele><time>2026-03-28T10:19:48.005Z</time></trkpt><trkpt lat="45.9903424" lon="9.1086993"><ele>979.0</ele><time>2026-03-28T10:19:49.016Z</time></trkpt><trkpt lat="45.9904011" lon="9.1088603"><ele>979.0</ele><time>2026-03-28T10:19:50.007Z</time></trkpt><trkpt lat="45.9904741" lon="9.1090253"><ele>979.0</ele><time>2026-03-28T10:19:51.008Z</time></trkpt><trkpt lat="45.9905443" lon="9.1091615"><ele>979.0</ele><time>2026-03-28T10:19:52.007Z</time></trkpt><trkpt lat="45.9906113" lon="9.1092993"><ele>975.75</ele><time>2026-03-28T10:19:53.017Z</time></trkpt><trkpt lat="45.9906306" lon="9.1094758"><ele>972.5</ele><time>2026-03-28T10:19:54.005Z</time></trkpt><trkpt lat="45.9906412" lon="9.1096647"><ele>969.25</ele><time>2026-03-28T10:19:55.027Z</time></trkpt><trkpt lat="45.9906419" lon="9.1098413"><ele>966.0</ele><time>2026-03-28T10:19:56.01Z</time></trkpt><trkpt lat="45.9906477" lon="9.110001"><ele>964.8</ele><time>2026-03-28T10:19:57.014Z</time></trkpt><trkpt lat="45.9906606" lon="9.1101511"><ele>963.5999999999999</ele><time>2026-03-28T10:19:58.012Z</time></trkpt><trkpt lat="45.990697" lon="9.1102929"><ele>962.4</ele><time>2026-03-28T10:19:59.021Z</time></trkpt><trkpt lat="45.9907599" lon="9.1104202"><ele>961.2</ele><time>2026-03-28T10:20:00.036Z</time></trkpt><trkpt lat="45.9908394" lon="9.1105468"><ele>960.0</ele><time>2026-03-28T10:20:01.019Z</time></trkpt><trkpt lat="45.9909155" lon="9.1106695"><ele>965.4</ele><time>2026-03-28T10:20:02.006Z</time></trkpt><trkpt lat="45.9909996" lon="9.1107795"><ele>970.8</ele><time>2026-03-28T10:20:03.006Z</time></trkpt><trkpt lat="45.991083" lon="9.1108913"><ele>976.2</ele><time>2026-03-28T10:20:04.012Z</time></trkpt><trkpt lat="45.9911586" lon="9.1109667"><ele>981.6</ele><time>2026-03-28T10:20:05.006Z</time></trkpt><trkpt lat="45.9912422" lon="9.1110102"><ele>987.0</ele><time>2026-03-28T10:20:06.001Z</time></trkpt><trkpt lat="45.9913346" lon="9.1110424"><ele>987.0</ele><time>2026-03-28T10:20:06.987Z</time></trkpt><trkpt lat="45.9914247" lon="9.1110438"><ele>987.0</ele><time>2026-03-28T10:20:08.015Z</time></trkpt><trkpt lat="45.9915018" lon="9.111057"><ele>987.0</ele><time>2026-03-28T10:20:09.008Z</time></trkpt><trkpt lat="45.991571" lon="9.1110883"><ele>987.0</ele><time>2026-03-28T10:20:10.997Z</time></trkpt><trkpt lat="45.9914739" lon="9.1113878"><ele>985.0</ele><time>2026-03-28T10:20:15.005Z</time></trkpt><trkpt lat="45.9913926" lon="9.1117136"><ele>983.0</ele><time>2026-03-28T10:20:17.007Z</time></trkpt><trkpt lat="45.991353" lon="9.1118285"><ele>981.0</ele><time>2026-03-28T10:20:18.024Z</time></trkpt><trkpt lat="45.9913124" lon="9.112017"><ele>981.0</ele><time>2026-03-28T10:20:19.001Z</time></trkpt><trkpt lat="45.9912713" lon="9.1121932"><ele>980.9999999999999</ele><time>2026-03-28T10:20:20.004Z</time></trkpt><trkpt lat="45.9912627" lon="9.1123551"><ele>980.9999999999999</ele><time>2026-03-28T10:20:21.016Z</time></trkpt><trkpt lat="45.9912557" lon="9.1125029"><ele>981.0</ele><time>2026-03-28T10:20:22.015Z</time></trkpt><trkpt lat="45.9912382" lon="9.1126406"><ele>981.0</ele><time>2026-03-28T10:20:23.007Z</time></trkpt><trkpt lat="45.9912247" lon="9.1127548"><ele>982.6666666666666</ele><time>2026-03-28T10:20:24.004Z</time></trkpt><trkpt lat="45.9911939" lon="9.1128499"><ele>984.3333333333333</ele><time>2026-03-28T10:20:25.024Z</time></trkpt><trkpt lat="45.9911797" lon="9.1129857"><ele>986.0</ele><time>2026-03-28T10:20:27.005Z</time></trkpt><trkpt lat="45.9912458" lon="9.1129705"><ele>987.6666666666666</ele><time>2026-03-28T10:20:30.006Z</time></trkpt><trkpt lat="45.9912671" lon="9.1128509"><ele>989.3333333333333</ele><time>2026-03-28T10:20:31.018Z</time></trkpt><trkpt lat="45.9912876" lon="9.1127337"><ele>991.0</ele><time>2026-03-28T10:20:32.018Z</time></trkpt><trkpt lat="45.9913055" lon="9.1126268"><ele>991.0000000000001</ele><time>2026-03-28T10:20:32.995Z</time></trkpt><trkpt lat="45.9913271" lon="9.1125233"><ele>991.0</ele><time>2026-03-28T10:20:34.011Z</time></trkpt><trkpt lat="45.9913505" lon="9.1124187"><ele>991.0000000000001</ele><time>2026-03-28T10:20:35.014Z</time></trkpt><trkpt lat="45.9913767" lon="9.1123254"><ele>991.0000000000001</ele><time>2026-03-28T10:20:36.016Z</time></trkpt><trkpt lat="45.991402" lon="9.1122395"><ele>991.0</ele><time>2026-03-28T10:20:37.007Z</time></trkpt><trkpt lat="45.991427" lon="9.1121511"><ele>991.0000000000001</ele><time>2026-03-28T10:20:37.997Z</time></trkpt><trkpt lat="45.9914583" lon="9.1120676"><ele>991.0000000000001</ele><time>2026-03-28T10:20:39.011Z</time></trkpt><trkpt lat="45.9914881" lon="9.1119845"><ele>989.5714285714287</ele><time>2026-03-28T10:20:40.009Z</time></trkpt><trkpt lat="45.9915224" lon="9.1119057"><ele>988.1428571428571</ele><time>2026-03-28T10:20:40.996Z</time></trkpt><trkpt lat="45.991558" lon="9.1118287"><ele>986.7142857142858</ele><time>2026-03-28T10:20:42.015Z</time></trkpt><trkpt lat="45.9915936" lon="9.1117538"><ele>985.2857142857143</ele><time>2026-03-28T10:20:43.016Z</time></trkpt><trkpt lat="45.9916318" lon="9.1116793"><ele>983.8571428571429</ele><time>2026-03-28T10:20:44.014Z</time></trkpt><trkpt lat="45.9916701" lon="9.1116021"><ele>982.4285714285714</ele><time>2026-03-28T10:20:45.001Z</time></trkpt><trkpt lat="45.9917421" lon="9.1114583"><ele>981.0</ele><time>2026-03-28T10:20:47.008Z</time></trkpt><trkpt lat="45.9918204" lon="9.1113412"><ele>989.0</ele><time>2026-03-28T10:20:49.02Z</time></trkpt><trkpt lat="45.9919159" lon="9.1112524"><ele>997.0</ele><time>2026-03-28T10:20:51Z</time></trkpt><trkpt lat="45.9919747" lon="9.1112111"><ele>1005.0</ele><time>2026-03-28T10:20:52.006Z</time></trkpt><trkpt lat="45.9920282" lon="9.1111568"><ele>1013.0</ele><time>2026-03-28T10:20:53.03Z</time></trkpt><trkpt lat="45.9920754" lon="9.1110965"><ele>1021.0</ele><time>2026-03-28T10:20:53.998Z</time></trkpt><trkpt lat="45.9921113" lon="9.1110209"><ele>1029.0</ele><time>2026-03-28T10:20:55.006Z</time></trkpt><trkpt lat="45.992064" lon="9.1108619"><ele>1029.0</ele><time>2026-03-28T10:20:57.039Z</time></trkpt><trkpt lat="45.9919922" lon="9.11083"><ele>1029.0</ele><time>2026-03-28T10:20:58Z</time></trkpt><trkpt lat="45.9919044" lon="9.1107748"><ele>1029.0</ele><time>2026-03-28T10:20:58.991Z</time></trkpt><trkpt lat="45.9918152" lon="9.1106916"><ele>1029.0</ele><time>2026-03-28T10:21:00.009Z</time></trkpt><trkpt lat="45.991727" lon="9.1105665"><ele>1029.0</ele><time>2026-03-28T10:21:01.01Z</time></trkpt><trkpt lat="45.9916467" lon="9.1104437"><ele>1028.2</ele><time>2026-03-28T10:21:02.005Z</time></trkpt><trkpt lat="45.9915594" lon="9.110333"><ele>1027.4</ele><time>2026-03-28T10:21:03.015Z</time></trkpt><trkpt lat="45.9914986" lon="9.1102256"><ele>1026.6</ele><time>2026-03-28T10:21:04.007Z</time></trkpt><trkpt lat="45.9914368" lon="9.1101166"><ele>1025.8</ele><time>2026-03-28T10:21:05.026Z</time></trkpt><trkpt lat="45.9913947" lon="9.1100018"><ele>1025.0</ele><time>2026-03-28T10:21:06.004Z</time></trkpt><trkpt lat="45.9913627" lon="9.1098632"><ele>1025.0</ele><time>2026-03-28T10:21:07.002Z</time></trkpt><trkpt lat="45.9913529" lon="9.1097036"><ele>1025.0</ele><time>2026-03-28T10:21:08.021Z</time></trkpt><trkpt lat="45.9913511" lon="9.1095341"><ele>1025.0</ele><time>2026-03-28T10:21:09.005Z</time></trkpt><trkpt lat="45.991345" lon="9.1093556"><ele>1025.0</ele><time>2026-03-28T10:21:10Z</time></trkpt><trkpt lat="45.9913388" lon="9.1091568"><ele>1027.25</ele><time>2026-03-28T10:21:11.012Z</time></trkpt><trkpt lat="45.9913291" lon="9.1089548"><ele>1029.5</ele><time>2026-03-28T10:21:12.043Z</time></trkpt><trkpt lat="45.9913208" lon="9.108762"><ele>1031.75</ele><time>2026-03-28T10:21:12.997Z</time></trkpt><trkpt lat="45.9913114" lon="9.1085772"><ele>1034.0</ele><time>2026-03-28T10:21:13.998Z</time></trkpt><trkpt lat="45.9913007" lon="9.1083922"><ele>1037.25</ele><time>2026-03-28T10:21:15.015Z</time></trkpt><trkpt lat="45.9912914" lon="9.1082119"><ele>1040.5</ele><time>2026-03-28T10:21:16.014Z</time></trkpt><trkpt lat="45.991284" lon="9.1080421"><ele>1043.75</ele><time>2026-03-28T10:21:17.02Z</time></trkpt><trkpt lat="45.9912789" lon="9.1078768"><ele>1047.0</ele><time>2026-03-28T10:21:18.023Z</time></trkpt><trkpt lat="45.991279" lon="9.1077069"><ele>1047.0</ele><time>2026-03-28T10:21:19.038Z</time></trkpt><trkpt lat="45.9912823" lon="9.1075297"><ele>1047.0</ele><time>2026-03-28T10:21:20.029Z</time></trkpt><trkpt lat="45.9912807" lon="9.1073408"><ele>1047.0</ele><time>2026-03-28T10:21:21.007Z</time></trkpt><trkpt lat="45.9912782" lon="9.1071529"><ele>1047.0</ele><time>2026-03-28T10:21:22.001Z</time></trkpt><trkpt lat="45.9912811" lon="9.1069708"><ele>1046.3333333333333</ele><time>2026-03-28T10:21:23.008Z</time></trkpt><trkpt lat="45.991285" lon="9.1067957"><ele>1045.6666666666667</ele><time>2026-03-28T10:21:24.01Z</time></trkpt><trkpt lat="45.9913024" lon="9.1066742"><ele>1045.0</ele><time>2026-03-28T10:21:25.015Z</time></trkpt><trkpt lat="45.9913231" lon="9.1065775"><ele>1044.3333333333335</ele><time>2026-03-28T10:21:26.002Z</time></trkpt><trkpt lat="45.9913548" lon="9.1064969"><ele>1043.6666666666667</ele><time>2026-03-28T10:21:27.018Z</time></trkpt><trkpt lat="45.9913873" lon="9.1064147"><ele>1043.0</ele><time>2026-03-28T10:21:28.008Z</time></trkpt><trkpt lat="45.9914427" lon="9.1063474"><ele>1041.6666666666667</ele><time>2026-03-28T10:21:29.007Z</time></trkpt><trkpt lat="45.9915142" lon="9.1062791"><ele>1040.3333333333335</ele><time>2026-03-28T10:21:30.007Z</time></trkpt><trkpt lat="45.9915941" lon="9.1062104"><ele>1039.0</ele><time>2026-03-28T10:21:31.001Z</time></trkpt><trkpt lat="45.9916736" lon="9.1061397"><ele>1037.6666666666667</ele><time>2026-03-28T10:21:32.01Z</time></trkpt><trkpt lat="45.9917454" lon="9.106062"><ele>1036.3333333333333</ele><time>2026-03-28T10:21:33.018Z</time></trkpt><trkpt lat="45.9917598" lon="9.1059488"><ele>1035.0</ele><time>2026-03-28T10:21:34.027Z</time></trkpt><trkpt lat="45.9917347" lon="9.1058401"><ele>1036.3333333333333</ele><time>2026-03-28T10:21:35.021Z</time></trkpt><trkpt lat="45.9917104" lon="9.1057309"><ele>1037.6666666666667</ele><time>2026-03-28T10:21:36.027Z</time></trkpt><trkpt lat="45.9916519" lon="9.105663"><ele>1039.0</ele><time>2026-03-28T10:21:37Z</time></trkpt><trkpt lat="45.9916087" lon="9.1055842"><ele>1040.3333333333335</ele><time>2026-03-28T10:21:38.011Z</time></trkpt><trkpt lat="45.9915753" lon="9.1054854"><ele>1041.6666666666667</ele><time>2026-03-28T10:21:39.015Z</time></trkpt><trkpt lat="45.9915739" lon="9.1053571"><ele>1043.0</ele><time>2026-03-28T10:21:40.003Z</time></trkpt><trkpt lat="45.9915656" lon="9.1052096"><ele>1043.0</ele><time>2026-03-28T10:21:41.006Z</time></trkpt><trkpt lat="45.9915583" lon="9.105088"><ele>1043.0</ele><time>2026-03-28T10:21:42.014Z</time></trkpt><trkpt lat="45.9915472" lon="9.1049544"><ele>1043.0</ele><time>2026-03-28T10:21:43.016Z</time></trkpt><trkpt lat="45.9915478" lon="9.1048258"><ele>1043.0</ele><time>2026-03-28T10:21:44.01Z</time></trkpt><trkpt lat="45.9915825" lon="9.1046821"><ele>1043.0</ele><time>2026-03-28T10:21:45.018Z</time></trkpt><trkpt lat="45.9916181" lon="9.1045281"><ele>1043.2</ele><time>2026-03-28T10:21:46.012Z</time></trkpt><trkpt lat="45.9916555" lon="9.1043805"><ele>1043.4</ele><time>2026-03-28T10:21:47.008Z</time></trkpt><trkpt lat="45.99166" lon="9.1042346"><ele>1043.6000000000001</ele><time>2026-03-28T10:21:48.014Z</time></trkpt><trkpt lat="45.9916643" lon="9.1040918"><ele>1043.8</ele><time>2026-03-28T10:21:48.993Z</time></trkpt><trkpt lat="45.9916892" lon="9.1039334"><ele>1044.0</ele><time>2026-03-28T10:21:50.024Z</time></trkpt><trkpt lat="45.9917084" lon="9.1037733"><ele>1052.8</ele><time>2026-03-28T10:21:51.029Z</time></trkpt><trkpt lat="45.9917098" lon="9.1036115"><ele>1061.6000000000001</ele><time>2026-03-28T10:21:52.023Z</time></trkpt><trkpt lat="45.9917061" lon="9.1034512"><ele>1070.4</ele><time>2026-03-28T10:21:53.007Z</time></trkpt><trkpt lat="45.9917168" lon="9.1032913"><ele>1079.2</ele><time>2026-03-28T10:21:53.997Z</time></trkpt><trkpt lat="45.9917392" lon="9.1031337"><ele>1088.0</ele><time>2026-03-28T10:21:55.003Z</time></trkpt><trkpt lat="45.991769" lon="9.1029806"><ele>1088.0</ele><time>2026-03-28T10:21:56.011Z</time></trkpt><trkpt lat="45.9918132" lon="9.1028317"><ele>1088.0</ele><time>2026-03-28T10:21:57.007Z</time></trkpt><trkpt lat="45.9918688" lon="9.1026893"><ele>1088.0</ele><time>2026-03-28T10:21:58.012Z</time></trkpt><trkpt lat="45.9919354" lon="9.1025366"><ele>1088.0</ele><time>2026-03-28T10:21:59.023Z</time></trkpt><trkpt lat="45.9920049" lon="9.10238"><ele>1084.75</ele><time>2026-03-28T10:22:00.022Z</time></trkpt><trkpt lat="45.9920818" lon="9.1022062"><ele>1081.5</ele><time>2026-03-28T10:22:01.032Z</time></trkpt><trkpt lat="45.9921528" lon="9.1020425"><ele>1078.25</ele><time>2026-03-28T10:22:02.021Z</time></trkpt><trkpt lat="45.9922194" lon="9.1018913"><ele>1075.0</ele><time>2026-03-28T10:22:03.001Z</time></trkpt><trkpt lat="45.9922747" lon="9.1017657"><ele>1075.0</ele><time>2026-03-28T10:22:04.007Z</time></trkpt><trkpt lat="45.9923295" lon="9.1016765"><ele>1075.0</ele><time>2026-03-28T10:22:05.017Z</time></trkpt><trkpt lat="45.9923876" lon="9.1015872"><ele>1075.0</ele><time>2026-03-28T10:22:06.001Z</time></trkpt><trkpt lat="45.9924552" lon="9.101504"><ele>1075.0</ele><time>2026-03-28T10:22:06.998Z</time></trkpt><trkpt lat="45.9925287" lon="9.1014327"><ele>1075.0</ele><time>2026-03-28T10:22:08.017Z</time></trkpt><trkpt lat="45.9925954" lon="9.1014001"><ele>1075.0</ele><time>2026-03-28T10:22:09.013Z</time></trkpt><trkpt lat="45.9926786" lon="9.1013824"><ele>1076.6</ele><time>2026-03-28T10:22:10.014Z</time></trkpt><trkpt lat="45.9927702" lon="9.101389"><ele>1078.2</ele><time>2026-03-28T10:22:10.999Z</time></trkpt><trkpt lat="45.9928631" lon="9.1013883"><ele>1079.8</ele><time>2026-03-28T10:22:12.023Z</time></trkpt><trkpt lat="45.99296" lon="9.1014069"><ele>1081.4</ele><time>2026-03-28T10:22:13.011Z</time></trkpt><trkpt lat="45.9930415" lon="9.1014466"><ele>1083.0</ele><time>2026-03-28T10:22:14.011Z</time></trkpt><trkpt lat="45.9931186" lon="9.1014935"><ele>1083.0</ele><time>2026-03-28T10:22:15.004Z</time></trkpt><trkpt lat="45.9931967" lon="9.1015451"><ele>1083.0</ele><time>2026-03-28T10:22:16.01Z</time></trkpt><trkpt lat="45.9932557" lon="9.1015974"><ele>1083.0</ele><time>2026-03-28T10:22:17.01Z</time></trkpt><trkpt lat="45.9933457" lon="9.1016804"><ele>1083.0</ele><time>2026-03-28T10:22:19.022Z</time></trkpt><trkpt lat="45.9934263" lon="9.1017549"><ele>1083.0</ele><time>2026-03-28T10:22:21.015Z</time></trkpt><trkpt lat="45.9934926" lon="9.1018454"><ele>1083.0</ele><time>2026-03-28T10:22:23.015Z</time></trkpt><trkpt lat="45.9934907" lon="9.1019487"><ele>1083.2</ele><time>2026-03-28T10:22:25.021Z</time></trkpt><trkpt lat="45.9934638" lon="9.1020397"><ele>1083.4</ele><time>2026-03-28T10:22:28.013Z</time></trkpt><trkpt lat="45.9933909" lon="9.1020249"><ele>1083.6000000000001</ele><time>2026-03-28T10:22:48.007Z</time></trkpt><trkpt lat="45.993317" lon="9.1019329"><ele>1083.8</ele><time>2026-03-28T10:22:50.025Z</time></trkpt><trkpt lat="45.9932327" lon="9.1018394"><ele>1084.0</ele><time>2026-03-28T10:22:52.01Z</time></trkpt><trkpt lat="45.9931286" lon="9.1018151"><ele>1084.0</ele><time>2026-03-28T10:22:54.022Z</time></trkpt><trkpt lat="45.9930185" lon="9.1017999"><ele>1084.0</ele><time>2026-03-28T10:22:56.036Z</time></trkpt><trkpt lat="45.99291" lon="9.1017923"><ele>1084.0</ele><time>2026-03-28T10:22:58.029Z</time></trkpt><trkpt lat="45.9927903" lon="9.1018395"><ele>1084.0</ele><time>2026-03-28T10:23:00.02Z</time></trkpt><trkpt lat="45.9927296" lon="9.1018902"><ele>1084.0</ele><time>2026-03-28T10:23:01.034Z</time></trkpt><trkpt lat="45.9926729" lon="9.1019536"><ele>1084.0</ele><time>2026-03-28T10:23:02.018Z</time></trkpt><trkpt lat="45.992618" lon="9.1020252"><ele>1084.0</ele><time>2026-03-28T10:23:03.017Z</time></trkpt><trkpt lat="45.9925718" lon="9.1021111"><ele>1084.0</ele><time>2026-03-28T10:23:04.013Z</time></trkpt><trkpt lat="45.9925262" lon="9.1021969"><ele>1084.0</ele><time>2026-03-28T10:23:05.014Z</time></trkpt><trkpt lat="45.9924956" lon="9.1022975"><ele>1084.0</ele><time>2026-03-28T10:23:06.013Z</time></trkpt><trkpt lat="45.9924626" lon="9.1024125"><ele>1084.0</ele><time>2026-03-28T10:23:07.003Z</time></trkpt><trkpt lat="45.992437" lon="9.1025477"><ele>1084.8</ele><time>2026-03-28T10:23:08.02Z</time></trkpt><trkpt lat="45.9924151" lon="9.1026872"><ele>1085.6000000000001</ele><time>2026-03-28T10:23:09.01Z</time></trkpt><trkpt lat="45.9924025" lon="9.1028214"><ele>1086.4</ele><time>2026-03-28T10:23:10.009Z</time></trkpt><trkpt lat="45.9923982" lon="9.1029561"><ele>1087.2</ele><time>2026-03-28T10:23:11Z</time></trkpt><trkpt lat="45.9923993" lon="9.1030979"><ele>1088.0</ele><time>2026-03-28T10:23:12.024Z</time></trkpt><trkpt lat="45.9924075" lon="9.1032367"><ele>1089.2</ele><time>2026-03-28T10:23:13.009Z</time></trkpt><trkpt lat="45.9924145" lon="9.103376"><ele>1090.4</ele><time>2026-03-28T10:23:14.008Z</time></trkpt><trkpt lat="45.9924354" lon="9.1035127"><ele>1091.6000000000001</ele><time>2026-03-28T10:23:15.008Z</time></trkpt><trkpt lat="45.9924641" lon="9.1036577"><ele>1092.8</ele><time>2026-03-28T10:23:16.028Z</time></trkpt><trkpt lat="45.9924834" lon="9.1038028"><ele>1094.0</ele><time>2026-03-28T10:23:17.008Z</time></trkpt><trkpt lat="45.9924983" lon="9.1039521"><ele>1097.0</ele><time>2026-03-28T10:23:18.015Z</time></trkpt><trkpt lat="45.9925167" lon="9.1041058"><ele>1100.0</ele><time>2026-03-28T10:23:19.026Z</time></trkpt><trkpt lat="45.9925389" lon="9.1042608"><ele>1103.0</ele><time>2026-03-28T10:23:20.035Z</time></trkpt><trkpt lat="45.9925581" lon="9.1044036"><ele>1106.0</ele><time>2026-03-28T10:23:21.028Z</time></trkpt><trkpt lat="45.9925782" lon="9.1045439"><ele>1109.0</ele><time>2026-03-28T10:23:22.036Z</time></trkpt><trkpt lat="45.9925917" lon="9.1046699"><ele>1109.0</ele><time>2026-03-28T10:23:23.016Z</time></trkpt><trkpt lat="45.9925901" lon="9.1047801"><ele>1109.0</ele><time>2026-03-28T10:23:24.013Z</time></trkpt><trkpt lat="45.9926161" lon="9.1049327"><ele>1109.0</ele><time>2026-03-28T10:23:26.011Z</time></trkpt><trkpt lat="45.9926877" lon="9.1049662"><ele>1109.0</ele><time>2026-03-28T10:23:27Z</time></trkpt><trkpt lat="45.9927599" lon="9.1049929"><ele>1109.0</ele><time>2026-03-28T10:23:28.015Z</time></trkpt><trkpt lat="45.9928461" lon="9.1049933"><ele>1109.0</ele><time>2026-03-28T10:23:29.003Z</time></trkpt><trkpt lat="45.9929403" lon="9.1049595"><ele>1109.0</ele><time>2026-03-28T10:23:30.003Z</time></trkpt><trkpt lat="45.9930283" lon="9.1049139"><ele>1109.0</ele><time>2026-03-28T10:23:31.031Z</time></trkpt><trkpt lat="45.9931138" lon="9.1048749"><ele>1109.0</ele><time>2026-03-28T10:23:32.009Z</time></trkpt><trkpt lat="45.9931966" lon="9.1048387"><ele>1109.0</ele><time>2026-03-28T10:23:33.034Z</time></trkpt><trkpt lat="45.9932725" lon="9.1048052"><ele>1109.0</ele><time>2026-03-28T10:23:34.011Z</time></trkpt><trkpt lat="45.9933494" lon="9.1048193"><ele>1109.0</ele><time>2026-03-28T10:23:35.003Z</time></trkpt><trkpt lat="45.9934268" lon="9.104839"><ele>1109.6666666666667</ele><time>2026-03-28T10:23:36.007Z</time></trkpt><trkpt lat="45.9935006" lon="9.1048568"><ele>1110.3333333333335</ele><time>2026-03-28T10:23:37.008Z</time></trkpt><trkpt lat="45.9935656" lon="9.1048739"><ele>1111.0</ele><time>2026-03-28T10:23:38Z</time></trkpt><trkpt lat="45.9936448" lon="9.1049784"><ele>1111.6666666666667</ele><time>2026-03-28T10:23:40.006Z</time></trkpt><trkpt lat="45.993668" lon="9.1051049"><ele>1112.3333333333333</ele><time>2026-03-28T10:23:42.015Z</time></trkpt><trkpt lat="45.9936059" lon="9.1052164"><ele>1113.0</ele><time>2026-03-28T10:23:44.024Z</time></trkpt><trkpt lat="45.9935587" lon="9.1052805"><ele>1112.5714285714287</ele><time>2026-03-28T10:23:44.992Z</time></trkpt><trkpt lat="45.9935088" lon="9.1053478"><ele>1112.142857142857</ele><time>2026-03-28T10:23:46.003Z</time></trkpt><trkpt lat="45.9934532" lon="9.1054286"><ele>1111.7142857142858</ele><time>2026-03-28T10:23:47.012Z</time></trkpt><trkpt lat="45.9934031" lon="9.1054964"><ele>1111.2857142857142</ele><time>2026-03-28T10:23:48.026Z</time></trkpt><trkpt lat="45.9933552" lon="9.10557"><ele>1110.857142857143</ele><time>2026-03-28T10:23:49.011Z</time></trkpt><trkpt lat="45.9933045" lon="9.1056424"><ele>1110.4285714285716</ele><time>2026-03-28T10:23:50.01Z</time></trkpt><trkpt lat="45.9932573" lon="9.1057139"><ele>1110.0</ele><time>2026-03-28T10:23:51.006Z</time></trkpt><trkpt lat="45.9932037" lon="9.1057906"><ele>1111.1666666666667</ele><time>2026-03-28T10:23:52.01Z</time></trkpt><trkpt lat="45.9931506" lon="9.1058645"><ele>1112.3333333333333</ele><time>2026-03-28T10:23:53.014Z</time></trkpt><trkpt lat="45.9930713" lon="9.1059831"><ele>1113.5</ele><time>2026-03-28T10:23:55.009Z</time></trkpt><trkpt lat="45.993008" lon="9.1060471"><ele>1114.6666666666665</ele><time>2026-03-28T10:24:15.006Z</time></trkpt><trkpt lat="45.9929746" lon="9.1061324"><ele>1115.8333333333333</ele><time>2026-03-28T10:24:18.02Z</time></trkpt><trkpt lat="45.9929482" lon="9.1062371"><ele>1117.0</ele><time>2026-03-28T10:24:21Z</time></trkpt><trkpt lat="45.9929297" lon="9.1063252"><ele>1117.0</ele><time>2026-03-28T10:24:23.003Z</time></trkpt><trkpt lat="45.9928987" lon="9.1064609"><ele>1117.0</ele><time>2026-03-28T10:24:25.004Z</time></trkpt><trkpt lat="45.9928818" lon="9.1066384"><ele>1117.0</ele><time>2026-03-28T10:24:27.02Z</time></trkpt><trkpt lat="45.9928974" lon="9.1067542"><ele>1117.0</ele><time>2026-03-28T10:24:28.014Z</time></trkpt><trkpt lat="45.9929291" lon="9.1068662"><ele>1117.0</ele><time>2026-03-28T10:24:28.988Z</time></trkpt><trkpt lat="45.9929659" lon="9.1069755"><ele>1116.6666666666665</ele><time>2026-03-28T10:24:30.009Z</time></trkpt><trkpt lat="45.9930032" lon="9.1070884"><ele>1116.3333333333333</ele><time>2026-03-28T10:24:31.011Z</time></trkpt><trkpt lat="45.9930405" lon="9.1071924"><ele>1116.0</ele><time>2026-03-28T10:24:32.009Z</time></trkpt><trkpt lat="45.9930706" lon="9.1072892"><ele>1115.6666666666667</ele><time>2026-03-28T10:24:33.016Z</time></trkpt><trkpt lat="45.9930993" lon="9.1073822"><ele>1115.3333333333335</ele><time>2026-03-28T10:24:34.007Z</time></trkpt><trkpt lat="45.9931152" lon="9.1074841"><ele>1115.0</ele><time>2026-03-28T10:24:35.006Z</time></trkpt><trkpt lat="45.9931317" lon="9.1075874"><ele>1115.0</ele><time>2026-03-28T10:24:36.006Z</time></trkpt><trkpt lat="45.9931434" lon="9.1076845"><ele>1115.0</ele><time>2026-03-28T10:24:37.005Z</time></trkpt><trkpt lat="45.9931526" lon="9.1077828"><ele>1115.0</ele><time>2026-03-28T10:24:37.997Z</time></trkpt><trkpt lat="45.9931571" lon="9.1078917"><ele>1115.0</ele><time>2026-03-28T10:24:39.007Z</time></trkpt><trkpt lat="45.9931589" lon="9.1079917"><ele>1115.0</ele><time>2026-03-28T10:24:40.012Z</time></trkpt><trkpt lat="45.9931589" lon="9.1080993"><ele>1115.0</ele><time>2026-03-28T10:24:41.011Z</time></trkpt><trkpt lat="45.9931563" lon="9.1082017"><ele>1115.0</ele><time>2026-03-28T10:24:41.992Z</time></trkpt><trkpt lat="45.9931531" lon="9.1082929"><ele>1114.3333333333335</ele><time>2026-03-28T10:24:43.01Z</time></trkpt><trkpt lat="45.993152" lon="9.1084382"><ele>1113.6666666666667</ele><time>2026-03-28T10:24:45.016Z</time></trkpt><trkpt lat="45.9932242" lon="9.1084498"><ele>1113.0</ele><time>2026-03-28T10:25:03.023Z</time></trkpt><trkpt lat="45.9932996" lon="9.1083943"><ele>1112.3333333333333</ele><time>2026-03-28T10:25:05.014Z</time></trkpt><trkpt lat="45.9934095" lon="9.1083671"><ele>1111.6666666666665</ele><time>2026-03-28T10:25:07.021Z</time></trkpt><trkpt lat="45.9934805" lon="9.1083918"><ele>1111.0</ele><time>2026-03-28T10:25:09.009Z</time></trkpt><trkpt lat="45.9935251" lon="9.1084761"><ele>1115.0</ele><time>2026-03-28T10:25:11.006Z</time></trkpt><trkpt lat="45.993588" lon="9.1085632"><ele>1119.0</ele><time>2026-03-28T10:25:13.009Z</time></trkpt><trkpt lat="45.9936599" lon="9.1086415"><ele>1123.0</ele><time>2026-03-28T10:25:15.02Z</time></trkpt><trkpt lat="45.9937327" lon="9.1087109"><ele>1127.0</ele><time>2026-03-28T10:25:16.997Z</time></trkpt><trkpt lat="45.9938093" lon="9.1087624"><ele>1131.0</ele><time>2026-03-28T10:25:19.022Z</time></trkpt><trkpt lat="45.9938914" lon="9.1088135"><ele>1135.0</ele><time>2026-03-28T10:25:21.009Z</time></trkpt><trkpt lat="45.9939661" lon="9.1088719"><ele>1135.0</ele><time>2026-03-28T10:25:22.999Z</time></trkpt><trkpt lat="45.994035" lon="9.1089143"><ele>1135.0</ele><time>2026-03-28T10:25:25.017Z</time></trkpt><trkpt lat="45.9941185" lon="9.1089642"><ele>1135.0</ele><time>2026-03-28T10:25:26.995Z</time></trkpt><trkpt lat="45.9942193" lon="9.1090529"><ele>1135.0</ele><time>2026-03-28T10:25:29.023Z</time></trkpt><trkpt lat="45.9942957" lon="9.109169"><ele>1135.0</ele><time>2026-03-28T10:25:30.998Z</time></trkpt><trkpt lat="45.9932242" lon="9.1084498"><ele>1135.0</ele><time>2026-03-28T10:25:03.023Z</time></trkpt><trkpt lat="45.9932996" lon="9.1083943"><ele>1135.0</ele><time>2026-03-28T10:25:05.014Z</time></trkpt><trkpt lat="45.9934095" lon="9.1083671"><ele>1135.0</ele><time>2026-03-28T10:25:07.021Z</time></trkpt><trkpt lat="45.9934805" lon="9.1083918"><ele>1135.0</ele><time>2026-03-28T10:25:09.009Z</time></trkpt><trkpt lat="45.9935251" lon="9.1084761"><ele>1135.0</ele><time>2026-03-28T10:25:11.006Z</time></trkpt><trkpt lat="45.993588" lon="9.1085632"><ele>1135.0</ele><time>2026-03-28T10:25:13.009Z</time></trkpt><trkpt lat="45.9936599" lon="9.1086415"><ele>1135.0</ele><time>2026-03-28T10:25:15.02Z</time></trkpt><trkpt lat="45.9937327" lon="9.1087109"><ele>1135.0</ele><time>2026-03-28T10:25:16.997Z</time></trkpt><trkpt lat="45.9938093" lon="9.1087624"><ele>1135.0</ele><time>2026-03-28T10:25:19.022Z</time></trkpt><trkpt lat="45.9938914" lon="9.1088135"><ele>1135.0</ele><time>2026-03-28T10:25:21.009Z</time></trkpt><trkpt lat="45.9939661" lon="9.1088719"><ele>1135.0</ele><time>2026-03-28T10:25:22.999Z</time></trkpt><trkpt lat="45.994035" lon="9.1089143"><ele>1135.0</ele><time>2026-03-28T10:25:25.017Z</time></trkpt><trkpt lat="45.9941185" lon="9.1089642"><ele>1137.0</ele><time>2026-03-28T10:25:26.995Z</time></trkpt><trkpt lat="45.9942193" lon="9.1090529"><ele>1139.0</ele><time>2026-03-28T10:25:29.023Z</time></trkpt><trkpt lat="45.9942957" lon="9.109169"><ele>1141.0</ele><time>2026-03-28T10:25:30.998Z</time></trkpt><trkpt lat="45.9943292" lon="9.1093061"><ele>1143.0</ele><time>2026-03-28T10:25:33.027Z</time></trkpt><trkpt lat="45.9943495" lon="9.1094093"><ele>1145.0</ele><time>2026-03-28T10:25:35.017Z</time></trkpt><trkpt lat="45.9944076" lon="9.1095205"><ele>1145.0</ele><time>2026-03-28T10:25:37.016Z</time></trkpt><trkpt lat="45.994446" lon="9.1096379"><ele>1145.0</ele><time>2026-03-28T10:25:39.01Z</time></trkpt><trkpt lat="45.994483" lon="9.1097641"><ele>1145.0</ele><time>2026-03-28T10:25:41.013Z</time></trkpt><trkpt lat="45.9945422" lon="9.1099033"><ele>1145.0</ele><time>2026-03-28T10:25:43.013Z</time></trkpt><trkpt lat="45.994586" lon="9.1099748"><ele>1145.0</ele><time>2026-03-28T10:25:44.04Z</time></trkpt><trkpt lat="45.9946377" lon="9.1100775"><ele>1144.1666666666667</ele><time>2026-03-28T10:25:45.023Z</time></trkpt><trkpt lat="45.9946849" lon="9.1101862"><ele>1143.3333333333335</ele><time>2026-03-28T10:25:46.009Z</time></trkpt><trkpt lat="45.994733" lon="9.1103073"><ele>1142.5</ele><time>2026-03-28T10:25:47.013Z</time></trkpt><trkpt lat="45.9947703" lon="9.1104132"><ele>1141.6666666666667</ele><time>2026-03-28T10:25:48.023Z</time></trkpt><trkpt lat="45.9947969" lon="9.1105236"><ele>1140.8333333333333</ele><time>2026-03-28T10:25:49.007Z</time></trkpt><trkpt lat="45.9948191" lon="9.1106342"><ele>1140.0</ele><time>2026-03-28T10:25:50.005Z</time></trkpt><trkpt lat="45.9948307" lon="9.1107449"><ele>1139.3333333333333</ele><time>2026-03-28T10:25:51.016Z</time></trkpt><trkpt lat="45.9948169" lon="9.1108662"><ele>1138.6666666666667</ele><time>2026-03-28T10:25:52.034Z</time></trkpt><trkpt lat="45.9947936" lon="9.1109884"><ele>1138.0</ele><time>2026-03-28T10:25:53.006Z</time></trkpt><trkpt lat="45.9947619" lon="9.1111062"><ele>1137.3333333333335</ele><time>2026-03-28T10:25:53.997Z</time></trkpt><trkpt lat="45.9947277" lon="9.1112271"><ele>1136.6666666666667</ele><time>2026-03-28T10:25:55.004Z</time></trkpt><trkpt lat="45.9946959" lon="9.111346"><ele>1136.0</ele><time>2026-03-28T10:25:56.012Z</time></trkpt><trkpt lat="45.9946691" lon="9.1114628"><ele>1137.8</ele><time>2026-03-28T10:25:57.01Z</time></trkpt><trkpt lat="45.9946526" lon="9.1115941"><ele>1139.6</ele><time>2026-03-28T10:25:58.006Z</time></trkpt><trkpt lat="45.9946403" lon="9.1117299"><ele>1141.4</ele><time>2026-03-28T10:25:59.014Z</time></trkpt><trkpt lat="45.9946227" lon="9.1118662"><ele>1143.2</ele><time>2026-03-28T10:26:00.021Z</time></trkpt><trkpt lat="45.994582" lon="9.1120111"><ele>1145.0</ele><time>2026-03-28T10:26:01.005Z</time></trkpt><trkpt lat="45.9945301" lon="9.1121574"><ele>1145.0</ele><time>2026-03-28T10:26:02.001Z</time></trkpt><trkpt lat="45.9944608" lon="9.1122903"><ele>1145.0</ele><time>2026-03-28T10:26:03.026Z</time></trkpt><trkpt lat="45.9943954" lon="9.1124107"><ele>1145.0</ele><time>2026-03-28T10:26:04.005Z</time></trkpt><trkpt lat="45.9943339" lon="9.1125202"><ele>1145.0</ele><time>2026-03-28T10:26:05.019Z</time></trkpt><trkpt lat="45.9942843" lon="9.1126181"><ele>1145.0</ele><time>2026-03-28T10:26:06.008Z</time></trkpt><trkpt lat="45.9942535" lon="9.1127171"><ele>1145.6666666666667</ele><time>2026-03-28T10:26:07.014Z</time></trkpt><trkpt lat="45.994228" lon="9.1128088"><ele>1146.3333333333335</ele><time>2026-03-28T10:26:08.022Z</time></trkpt><trkpt lat="45.9942264" lon="9.1129064"><ele>1147.0</ele><time>2026-03-28T10:26:09.01Z</time></trkpt><trkpt lat="45.9942511" lon="9.1130256"><ele>1147.6666666666667</ele><time>2026-03-28T10:26:09.995Z</time></trkpt><trkpt lat="45.9942906" lon="9.1131626"><ele>1148.3333333333333</ele><time>2026-03-28T10:26:11.025Z</time></trkpt><trkpt lat="45.994327" lon="9.1132904"><ele>1149.0</ele><time>2026-03-28T10:26:12.005Z</time></trkpt><trkpt lat="45.9943613" lon="9.1134225"><ele>1149.0</ele><time>2026-03-28T10:26:13.006Z</time></trkpt><trkpt lat="45.9944045" lon="9.1135595"><ele>1149.0</ele><time>2026-03-28T10:26:14.02Z</time></trkpt><trkpt lat="45.9944515" lon="9.1137019"><ele>1149.0</ele><time>2026-03-28T10:26:15.019Z</time></trkpt><trkpt lat="45.9945003" lon="9.1138286"><ele>1149.0</ele><time>2026-03-28T10:26:16.018Z</time></trkpt><trkpt lat="45.9945621" lon="9.1139387"><ele>1149.0</ele><time>2026-03-28T10:26:17.022Z</time></trkpt><trkpt lat="45.9946342" lon="9.1140413"><ele>1146.75</ele><time>2026-03-28T10:26:18.017Z</time></trkpt><trkpt lat="45.9947157" lon="9.1141545"><ele>1144.5</ele><time>2026-03-28T10:26:18.997Z</time></trkpt><trkpt lat="45.9947999" lon="9.1142676"><ele>1142.25</ele><time>2026-03-28T10:26:20.017Z</time></trkpt><trkpt lat="45.9948892" lon="9.1143853"><ele>1140.0</ele><time>2026-03-28T10:26:21.017Z</time></trkpt><trkpt lat="45.9949805" lon="9.1145199"><ele>1144.0</ele><time>2026-03-28T10:26:22.011Z</time></trkpt><trkpt lat="45.9950792" lon="9.1146603"><ele>1148.0</ele><time>2026-03-28T10:26:23.014Z</time></trkpt><trkpt lat="45.9951698" lon="9.1148325"><ele>1152.0</ele><time>2026-03-28T10:26:24.006Z</time></trkpt><trkpt lat="45.995258" lon="9.1150082"><ele>1156.0</ele><time>2026-03-28T10:26:25.011Z</time></trkpt><trkpt lat="45.9953382" lon="9.1151794"><ele>1156.0</ele><time>2026-03-28T10:26:26.012Z</time></trkpt><trkpt lat="45.9954081" lon="9.1153611"><ele>1156.0</ele><time>2026-03-28T10:26:27.017Z</time></trkpt><trkpt lat="45.9954727" lon="9.115526"><ele>1156.0</ele><time>2026-03-28T10:26:28.009Z</time></trkpt><trkpt lat="45.9955314" lon="9.1156997"><ele>1156.0</ele><time>2026-03-28T10:26:28.995Z</time></trkpt><trkpt lat="45.9955984" lon="9.1158754"><ele>1157.0</ele><time>2026-03-28T10:26:30.017Z</time></trkpt><trkpt lat="45.9956642" lon="9.1160565"><ele>1158.0</ele><time>2026-03-28T10:26:31.01Z</time></trkpt><trkpt lat="45.9957325" lon="9.1162463"><ele>1159.0</ele><time>2026-03-28T10:26:32.001Z</time></trkpt><trkpt lat="45.9957944" lon="9.116421"><ele>1160.0</ele><time>2026-03-28T10:26:33.016Z</time></trkpt><trkpt lat="45.9958525" lon="9.1165996"><ele>1160.0</ele><time>2026-03-28T10:26:34.013Z</time></trkpt><trkpt lat="45.9959013" lon="9.1167686"><ele>1160.0</ele><time>2026-03-28T10:26:35.017Z</time></trkpt><trkpt lat="45.9959468" lon="9.1169287"><ele>1160.0</ele><time>2026-03-28T10:26:36.011Z</time></trkpt><trkpt lat="45.9959861" lon="9.1170715"><ele>1160.0</ele><time>2026-03-28T10:26:36.997Z</time></trkpt><trkpt lat="45.9960256" lon="9.1171932"><ele>1160.0</ele><time>2026-03-28T10:26:38.015Z</time></trkpt><trkpt lat="45.9960566" lon="9.1173011"><ele>1159.8333333333335</ele><time>2026-03-28T10:26:39.011Z</time></trkpt><trkpt lat="45.9960869" lon="9.1174076"><ele>1159.6666666666667</ele><time>2026-03-28T10:26:40.01Z</time></trkpt><trkpt lat="45.9961004" lon="9.1174987"><ele>1159.5</ele><time>2026-03-28T10:26:41.009Z</time></trkpt><trkpt lat="45.9960473" lon="9.1176223"><ele>1159.3333333333333</ele><time>2026-03-28T10:26:43.004Z</time></trkpt><trkpt lat="45.9959807" lon="9.1176371"><ele>1159.1666666666665</ele><time>2026-03-28T10:26:44.011Z</time></trkpt><trkpt lat="45.9958996" lon="9.117614"><ele>1159.0</ele><time>2026-03-28T10:26:45.008Z</time></trkpt><trkpt lat="45.9958114" lon="9.1176038"><ele>1156.2</ele><time>2026-03-28T10:26:46.009Z</time></trkpt><trkpt lat="45.9957154" lon="9.1176068"><ele>1153.4</ele><time>2026-03-28T10:26:47.016Z</time></trkpt><trkpt lat="45.9956164" lon="9.1176118"><ele>1150.6</ele><time>2026-03-28T10:26:48.007Z</time></trkpt><trkpt lat="45.9955055" lon="9.1176014"><ele>1147.8</ele><time>2026-03-28T10:26:48.999Z</time></trkpt><trkpt lat="45.9954034" lon="9.1175755"><ele>1145.0</ele><time>2026-03-28T10:26:50.014Z</time></trkpt><trkpt lat="45.9952994" lon="9.1175492"><ele>1145.0</ele><time>2026-03-28T10:26:51.039Z</time></trkpt><trkpt lat="45.9952136" lon="9.1175552"><ele>1145.0</ele><time>2026-03-28T10:26:52.002Z</time></trkpt><trkpt lat="45.9951131" lon="9.1176157"><ele>1145.0</ele><time>2026-03-28T10:26:53.014Z</time></trkpt><trkpt lat="45.995031" lon="9.1176771"><ele>1145.0</ele><time>2026-03-28T10:26:54.011Z</time></trkpt><trkpt lat="45.9949502" lon="9.1177458"><ele>1145.0</ele><time>2026-03-28T10:26:55.005Z</time></trkpt><trkpt lat="45.9948681" lon="9.1178251"><ele>1144.1666666666667</ele><time>2026-03-28T10:26:56.021Z</time></trkpt><trkpt lat="45.9947874" lon="9.1179029"><ele>1143.3333333333335</ele><time>2026-03-28T10:26:57.013Z</time></trkpt><trkpt lat="45.9947084" lon="9.1179827"><ele>1142.5</ele><time>2026-03-28T10:26:58.013Z</time></trkpt><trkpt lat="45.9946402" lon="9.1180693"><ele>1141.6666666666667</ele><time>2026-03-28T10:26:59.004Z</time></trkpt><trkpt lat="45.9945808" lon="9.1181537"><ele>1140.8333333333333</ele><time>2026-03-28T10:27:00.006Z</time></trkpt><trkpt lat="45.9945316" lon="9.1182426"><ele>1140.0</ele><time>2026-03-28T10:27:01.016Z</time></trkpt><trkpt lat="45.9944926" lon="9.1183384"><ele>1142.5</ele><time>2026-03-28T10:27:02.016Z</time></trkpt><trkpt lat="45.99447" lon="9.1184487"><ele>1145.0</ele><time>2026-03-28T10:27:03.001Z</time></trkpt><trkpt lat="45.9944577" lon="9.118573"><ele>1147.5</ele><time>2026-03-28T10:27:04.009Z</time></trkpt><trkpt lat="45.9944457" lon="9.1187039"><ele>1150.0</ele><time>2026-03-28T10:27:05.013Z</time></trkpt><trkpt lat="45.9944329" lon="9.1188373"><ele>1152.5</ele><time>2026-03-28T10:27:06.013Z</time></trkpt><trkpt lat="45.9944228" lon="9.1189719"><ele>1155.0</ele><time>2026-03-28T10:27:07.021Z</time></trkpt><trkpt lat="45.9944086" lon="9.1191101"><ele>1158.2</ele><time>2026-03-28T10:27:08.022Z</time></trkpt><trkpt lat="45.9943918" lon="9.1192469"><ele>1161.4</ele><time>2026-03-28T10:27:09.033Z</time></trkpt><trkpt lat="45.9943797" lon="9.1193731"><ele>1164.6</ele><time>2026-03-28T10:27:10.041Z</time></trkpt><trkpt lat="45.9943631" lon="9.1195034"><ele>1167.8</ele><time>2026-03-28T10:27:11.007Z</time></trkpt><trkpt lat="45.9943419" lon="9.1196378"><ele>1171.0</ele><time>2026-03-28T10:27:12.013Z</time></trkpt><trkpt lat="45.9943266" lon="9.1197929"><ele>1172.2</ele><time>2026-03-28T10:27:13.009Z</time></trkpt><trkpt lat="45.9943112" lon="9.1199527"><ele>1173.3999999999999</ele><time>2026-03-28T10:27:14.005Z</time></trkpt><trkpt lat="45.9942932" lon="9.1201147"><ele>1174.6</ele><time>2026-03-28T10:27:15.018Z</time></trkpt><trkpt lat="45.9942816" lon="9.1202642"><ele>1175.8</ele><time>2026-03-28T10:27:16.047Z</time></trkpt><trkpt lat="45.9942779" lon="9.1204031"><ele>1177.0</ele><time>2026-03-28T10:27:17.002Z</time></trkpt><trkpt lat="45.9942845" lon="9.1205189"><ele>1177.0</ele><time>2026-03-28T10:27:18.011Z</time></trkpt><trkpt lat="45.9943022" lon="9.1206201"><ele>1177.0</ele><time>2026-03-28T10:27:19.033Z</time></trkpt><trkpt lat="45.9943334" lon="9.1207123"><ele>1177.0</ele><time>2026-03-28T10:27:20.017Z</time></trkpt><trkpt lat="45.9943773" lon="9.1208029"><ele>1177.0</ele><time>2026-03-28T10:27:21.009Z</time></trkpt><trkpt lat="45.9944388" lon="9.1208865"><ele>1177.0</ele><time>2026-03-28T10:27:22.005Z</time></trkpt><trkpt lat="45.994513" lon="9.1209674"><ele>1177.0</ele><time>2026-03-28T10:27:23.005Z</time></trkpt><trkpt lat="45.9945928" lon="9.1210505"><ele>1177.6</ele><time>2026-03-28T10:27:24.003Z</time></trkpt><trkpt lat="45.9946752" lon="9.121136"><ele>1178.2</ele><time>2026-03-28T10:27:25.029Z</time></trkpt><trkpt lat="45.9947589" lon="9.1212218"><ele>1178.8</ele><time>2026-03-28T10:27:26.018Z</time></trkpt><trkpt lat="45.9948442" lon="9.1213045"><ele>1179.4</ele><time>2026-03-28T10:27:27.05Z</time></trkpt><trkpt lat="45.9949333" lon="9.1213724"><ele>1180.0</ele><time>2026-03-28T10:27:28.007Z</time></trkpt><trkpt lat="45.9950246" lon="9.1214197"><ele>1180.0</ele><time>2026-03-28T10:27:29.009Z</time></trkpt><trkpt lat="45.9951214" lon="9.1214465"><ele>1180.0</ele><time>2026-03-28T10:27:30.008Z</time></trkpt><trkpt lat="45.9952181" lon="9.1214725"><ele>1180.0</ele><time>2026-03-28T10:27:30.997Z</time></trkpt><trkpt lat="45.9953069" lon="9.1215126"><ele>1180.0</ele><time>2026-03-28T10:27:32.016Z</time></trkpt><trkpt lat="45.9953817" lon="9.1215751"><ele>1180.0</ele><time>2026-03-28T10:27:33.008Z</time></trkpt><trkpt lat="45.9954475" lon="9.121652"><ele>1178.4</ele><time>2026-03-28T10:27:34.022Z</time></trkpt><trkpt lat="45.9955041" lon="9.1217254"><ele>1176.8</ele><time>2026-03-28T10:27:35.016Z</time></trkpt><trkpt lat="45.9955508" lon="9.1217901"><ele>1175.2</ele><time>2026-03-28T10:27:36.007Z</time></trkpt><trkpt lat="45.9955939" lon="9.1219354"><ele>1173.6</ele><time>2026-03-28T10:27:38.023Z</time></trkpt><trkpt lat="45.9955346" lon="9.1220962"><ele>1172.0</ele><time>2026-03-28T10:27:40.019Z</time></trkpt><trkpt lat="45.9954781" lon="9.1221843"><ele>1172.0</ele><time>2026-03-28T10:27:41.006Z</time></trkpt><trkpt lat="45.9954178" lon="9.1222878"><ele>1172.0</ele><time>2026-03-28T10:27:42.004Z</time></trkpt><trkpt lat="45.9953527" lon="9.1224"><ele>1172.0</ele><time>2026-03-28T10:27:43.007Z</time></trkpt><trkpt lat="45.9952805" lon="9.1225172"><ele>1172.0</ele><time>2026-03-28T10:27:44.019Z</time></trkpt><trkpt lat="45.9951965" lon="9.1226241"><ele>1172.0</ele><time>2026-03-28T10:27:45.009Z</time></trkpt><trkpt lat="45.9951076" lon="9.1227229"><ele>1172.6</ele><time>2026-03-28T10:27:46.003Z</time></trkpt><trkpt lat="45.9950226" lon="9.1228264"><ele>1173.2</ele><time>2026-03-28T10:27:47.016Z</time></trkpt><trkpt lat="45.9949481" lon="9.122924"><ele>1173.8</ele><time>2026-03-28T10:27:48.038Z</time></trkpt><trkpt lat="45.994887" lon="9.1230303"><ele>1174.4</ele><time>2026-03-28T10:27:49.031Z</time></trkpt><trkpt lat="45.9948429" lon="9.1231584"><ele>1175.0</ele><time>2026-03-28T10:27:50.006Z</time></trkpt><trkpt lat="45.994809" lon="9.1233016"><ele>1175.0</ele><time>2026-03-28T10:27:51.044Z</time></trkpt><trkpt lat="45.9947821" lon="9.1234535"><ele>1175.0</ele><time>2026-03-28T10:27:52.002Z</time></trkpt><trkpt lat="45.9947616" lon="9.1236018"><ele>1175.0</ele><time>2026-03-28T10:27:53.016Z</time></trkpt><trkpt lat="45.9947406" lon="9.123748"><ele>1175.0</ele><time>2026-03-28T10:27:53.997Z</time></trkpt><trkpt lat="45.9947419" lon="9.1239016"><ele>1175.0</ele><time>2026-03-28T10:27:55.014Z</time></trkpt><trkpt lat="45.9947427" lon="9.1240514"><ele>1177.0</ele><time>2026-03-28T10:27:56.035Z</time></trkpt><trkpt lat="45.9947518" lon="9.1242043"><ele>1179.0</ele><time>2026-03-28T10:27:57.01Z</time></trkpt><trkpt lat="45.9947648" lon="9.1243597"><ele>1181.0</ele><time>2026-03-28T10:27:58.019Z</time></trkpt><trkpt lat="45.994786" lon="9.1245276"><ele>1183.0</ele><time>2026-03-28T10:27:59.031Z</time></trkpt><trkpt lat="45.9948091" lon="9.1246883"><ele>1185.0</ele><time>2026-03-28T10:28:00.028Z</time></trkpt><trkpt lat="45.9948298" lon="9.1248491"><ele>1184.8</ele><time>2026-03-28T10:28:01.023Z</time></trkpt><trkpt lat="45.9948499" lon="9.1250154"><ele>1184.6</ele><time>2026-03-28T10:28:02.026Z</time></trkpt><trkpt lat="45.9948664" lon="9.1251762"><ele>1184.4</ele><time>2026-03-28T10:28:03.015Z</time></trkpt><trkpt lat="45.9948802" lon="9.1253263"><ele>1184.2</ele><time>2026-03-28T10:28:04.012Z</time></trkpt><trkpt lat="45.9948894" lon="9.1254537"><ele>1184.0</ele><time>2026-03-28T10:28:05.017Z</time></trkpt><trkpt lat="45.9949131" lon="9.1255652"><ele>1184.0</ele><time>2026-03-28T10:28:06.008Z</time></trkpt><trkpt lat="45.994944" lon="9.1256597"><ele>1184.0</ele><time>2026-03-28T10:28:07.012Z</time></trkpt><trkpt lat="45.9949745" lon="9.125743"><ele>1184.0</ele><time>2026-03-28T10:28:08.018Z</time></trkpt><trkpt lat="45.9950009" lon="9.1258266"><ele>1184.0</ele><time>2026-03-28T10:28:09.018Z</time></trkpt><trkpt lat="45.9950637" lon="9.1259884"><ele>1184.0</ele><time>2026-03-28T10:28:11.018Z</time></trkpt><trkpt lat="45.9950936" lon="9.126083"><ele>1184.0</ele><time>2026-03-28T10:28:12.027Z</time></trkpt><trkpt lat="45.9951244" lon="9.1261858"><ele>1187.5</ele><time>2026-03-28T10:28:13.029Z</time></trkpt><trkpt lat="45.995145" lon="9.1263"><ele>1191.0</ele><time>2026-03-28T10:28:14.009Z</time></trkpt><trkpt lat="45.9951633" lon="9.1264209"><ele>1194.5</ele><time>2026-03-28T10:28:15.012Z</time></trkpt><trkpt lat="45.9951878" lon="9.1265224"><ele>1198.0</ele><time>2026-03-28T10:28:16.009Z</time></trkpt><trkpt lat="45.9952083" lon="9.126633"><ele>1201.5</ele><time>2026-03-28T10:28:17.004Z</time></trkpt><trkpt lat="45.9952449" lon="9.1267273"><ele>1205.0</ele><time>2026-03-28T10:28:18.021Z</time></trkpt><trkpt lat="45.9952765" lon="9.1268264"><ele>1205.0</ele><time>2026-03-28T10:28:19Z</time></trkpt><trkpt lat="45.9953087" lon="9.1269132"><ele>1205.0</ele><time>2026-03-28T10:28:20.018Z</time></trkpt><trkpt lat="45.9953435" lon="9.1270223"><ele>1205.0</ele><time>2026-03-28T10:28:21.008Z</time></trkpt><trkpt lat="45.9953731" lon="9.1271286"><ele>1205.0</ele><time>2026-03-28T10:28:22.015Z</time></trkpt><trkpt lat="45.9954038" lon="9.1272389"><ele>1205.0</ele><time>2026-03-28T10:28:23.002Z</time></trkpt><trkpt lat="45.9954332" lon="9.1273453"><ele>1205.0</ele><time>2026-03-28T10:28:24.004Z</time></trkpt><trkpt lat="45.9954628" lon="9.1274406"><ele>1205.1666666666667</ele><time>2026-03-28T10:28:25.019Z</time></trkpt><trkpt lat="45.9954858" lon="9.1275373"><ele>1205.3333333333335</ele><time>2026-03-28T10:28:26.007Z</time></trkpt><trkpt lat="45.9955037" lon="9.1276373"><ele>1205.5</ele><time>2026-03-28T10:28:27.015Z</time></trkpt><trkpt lat="45.9955322" lon="9.1277372"><ele>1205.6666666666667</ele><time>2026-03-28T10:28:28.027Z</time></trkpt><trkpt lat="45.9955499" lon="9.1278273"><ele>1205.8333333333333</ele><time>2026-03-28T10:28:29.042Z</time></trkpt><trkpt lat="45.9955231" lon="9.1279651"><ele>1206.0</ele><time>2026-03-28T10:28:31.012Z</time></trkpt><trkpt lat="45.9954571" lon="9.1280176"><ele>1206.0</ele><time>2026-03-28T10:28:32.014Z</time></trkpt><trkpt lat="45.9953865" lon="9.1280666"><ele>1206.0</ele><time>2026-03-28T10:28:33.002Z</time></trkpt><trkpt lat="45.9953198" lon="9.1281583"><ele>1206.0</ele><time>2026-03-28T10:28:34.015Z</time></trkpt><trkpt lat="45.9952587" lon="9.1282563"><ele>1206.0</ele><time>2026-03-28T10:28:34.998Z</time></trkpt><trkpt lat="45.9952068" lon="9.1283608"><ele>1206.0</ele><time>2026-03-28T10:28:36.019Z</time></trkpt><trkpt lat="45.9951739" lon="9.1284679"><ele>1206.0</ele><time>2026-03-28T10:28:37.008Z</time></trkpt><trkpt lat="45.9951663" lon="9.1285823"><ele>1208.0</ele><time>2026-03-28T10:28:38.006Z</time></trkpt><trkpt lat="45.9951724" lon="9.1287103"><ele>1210.0</ele><time>2026-03-28T10:28:39.006Z</time></trkpt><trkpt lat="45.99518" lon="9.128844"><ele>1212.0</ele><time>2026-03-28T10:28:40.015Z</time></trkpt><trkpt lat="45.9951891" lon="9.1289742"><ele>1214.0</ele><time>2026-03-28T10:28:41.01Z</time></trkpt><trkpt lat="45.9951977" lon="9.1290977"><ele>1216.0</ele><time>2026-03-28T10:28:42.023Z</time></trkpt><trkpt lat="45.9952062" lon="9.1292169"><ele>1218.0</ele><time>2026-03-28T10:28:43.018Z</time></trkpt><trkpt lat="45.9952181" lon="9.1293385"><ele>1220.6</ele><time>2026-03-28T10:28:44.005Z</time></trkpt><trkpt lat="45.9952303" lon="9.1294753"><ele>1223.1999999999998</ele><time>2026-03-28T10:28:45.005Z</time></trkpt><trkpt lat="45.9952422" lon="9.1296077"><ele>1225.8</ele><time>2026-03-28T10:28:46.013Z</time></trkpt><trkpt lat="45.9952591" lon="9.1297312"><ele>1228.3999999999999</ele><time>2026-03-28T10:28:47.012Z</time></trkpt><trkpt lat="45.9952907" lon="9.1298605"><ele>1231.0</ele><time>2026-03-28T10:28:48.001Z</time></trkpt><trkpt lat="45.9953151" lon="9.1299861"><ele>1231.8</ele><time>2026-03-28T10:28:49.004Z</time></trkpt><trkpt lat="45.9953479" lon="9.1301292"><ele>1232.6</ele><time>2026-03-28T10:28:50.008Z</time></trkpt><trkpt lat="45.9953816" lon="9.1302719"><ele>1233.4</ele><time>2026-03-28T10:28:51.015Z</time></trkpt><trkpt lat="45.995408" lon="9.1303864"><ele>1234.2</ele><time>2026-03-28T10:28:52.003Z</time></trkpt><trkpt lat="45.9954265" lon="9.1304902"><ele>1235.0</ele><time>2026-03-28T10:28:53.01Z</time></trkpt><trkpt lat="45.9954523" lon="9.1306399"><ele>1235.0</ele><time>2026-03-28T10:28:55.005Z</time></trkpt><trkpt lat="45.99538" lon="9.1307256"><ele>1235.0</ele><time>2026-03-28T10:28:57.008Z</time></trkpt><trkpt lat="45.9952693" lon="9.1306773"><ele>1235.0</ele><time>2026-03-28T10:28:59.01Z</time></trkpt><trkpt lat="45.9952013" lon="9.1306372"><ele>1235.0</ele><time>2026-03-28T10:29:00.006Z</time></trkpt><trkpt lat="45.9951307" lon="9.1305954"><ele>1235.0</ele><time>2026-03-28T10:29:01.015Z</time></trkpt><trkpt lat="45.9950667" lon="9.1305587"><ele>1235.0</ele><time>2026-03-28T10:29:02.019Z</time></trkpt><trkpt lat="45.9949926" lon="9.1305228"><ele>1231.8</ele><time>2026-03-28T10:29:03.031Z</time></trkpt><trkpt lat="45.9949137" lon="9.1304842"><ele>1228.6</ele><time>2026-03-28T10:29:04.02Z</time></trkpt><trkpt lat="45.9948264" lon="9.1304391"><ele>1225.4</ele><time>2026-03-28T10:29:04.998Z</time></trkpt><trkpt lat="45.9947315" lon="9.1303898"><ele>1222.2</ele><time>2026-03-28T10:29:06.025Z</time></trkpt><trkpt lat="45.9946272" lon="9.1303406"><ele>1219.0</ele><time>2026-03-28T10:29:07.03Z</time></trkpt><trkpt lat="45.9945215" lon="9.1302915"><ele>1219.0</ele><time>2026-03-28T10:29:08.009Z</time></trkpt><trkpt lat="45.9944166" lon="9.1302404"><ele>1219.0</ele><time>2026-03-28T10:29:09.008Z</time></trkpt><trkpt lat="45.9943141" lon="9.1301915"><ele>1219.0</ele><time>2026-03-28T10:29:10.04Z</time></trkpt><trkpt lat="45.994203" lon="9.1301427"><ele>1219.0</ele><time>2026-03-28T10:29:11.02Z</time></trkpt><trkpt lat="45.9940935" lon="9.1300887"><ele>1221.5</ele><time>2026-03-28T10:29:12.018Z</time></trkpt><trkpt lat="45.9939807" lon="9.1300276"><ele>1224.0</ele><time>2026-03-28T10:29:13.009Z</time></trkpt><trkpt lat="45.9938648" lon="9.1299701"><ele>1226.5</ele><time>2026-03-28T10:29:14.017Z</time></trkpt><trkpt lat="45.9937552" lon="9.1299163"><ele>1229.0</ele><time>2026-03-28T10:29:15.003Z</time></trkpt><trkpt lat="45.9936399" lon="9.1298659"><ele>1224.6000000000001</ele><time>2026-03-28T10:29:16.036Z</time></trkpt><trkpt lat="45.9935409" lon="9.1298168"><ele>1220.2</ele><time>2026-03-28T10:29:17.028Z</time></trkpt><trkpt lat="45.993446" lon="9.1297701"><ele>1215.8000000000002</ele><time>2026-03-28T10:29:18.011Z</time></trkpt><trkpt lat="45.9933526" lon="9.129735"><ele>1211.4</ele><time>2026-03-28T10:29:19.016Z</time></trkpt><trkpt lat="45.993269" lon="9.1297078"><ele>1207.0</ele><time>2026-03-28T10:29:20.01Z</time></trkpt><trkpt lat="45.9931875" lon="9.1296972"><ele>1207.0</ele><time>2026-03-28T10:29:21.014Z</time></trkpt><trkpt lat="45.9931168" lon="9.129702"><ele>1207.0</ele><time>2026-03-28T10:29:22.014Z</time></trkpt><trkpt lat="45.993041" lon="9.129728"><ele>1207.0</ele><time>2026-03-28T10:29:23.011Z</time></trkpt><trkpt lat="45.9929838" lon="9.1298216"><ele>1207.0</ele><time>2026-03-28T10:29:24.026Z</time></trkpt><trkpt lat="45.9929229" lon="9.1299171"><ele>1207.0</ele><time>2026-03-28T10:29:25.005Z</time></trkpt><trkpt lat="45.9928728" lon="9.1300217"><ele>1207.0</ele><time>2026-03-28T10:29:26.038Z</time></trkpt><trkpt lat="45.992854" lon="9.1301446"><ele>1212.2</ele><time>2026-03-28T10:29:27.034Z</time></trkpt><trkpt lat="45.9928414" lon="9.1302722"><ele>1217.4</ele><time>2026-03-28T10:29:28.005Z</time></trkpt><trkpt lat="45.9928356" lon="9.1304082"><ele>1222.6</ele><time>2026-03-28T10:29:29.007Z</time></trkpt><trkpt lat="45.9928277" lon="9.1305507"><ele>1227.8</ele><time>2026-03-28T10:29:30.03Z</time></trkpt><trkpt lat="45.9928133" lon="9.1306889"><ele>1233.0</ele><time>2026-03-28T10:29:31.005Z</time></trkpt><trkpt lat="45.9927899" lon="9.1308367"><ele>1236.1666666666667</ele><time>2026-03-28T10:29:32.009Z</time></trkpt><trkpt lat="45.9927596" lon="9.130972"><ele>1239.3333333333333</ele><time>2026-03-28T10:29:33.022Z</time></trkpt><trkpt lat="45.9927332" lon="9.1311064"><ele>1242.5</ele><time>2026-03-28T10:29:34.006Z</time></trkpt><trkpt lat="45.9927025" lon="9.1312239"><ele>1245.6666666666665</ele><time>2026-03-28T10:29:35.015Z</time></trkpt><trkpt lat="45.9926659" lon="9.1313326"><ele>1248.8333333333333</ele><time>2026-03-28T10:29:36.003Z</time></trkpt><trkpt lat="45.9926228" lon="9.1314305"><ele>1252.0</ele><time>2026-03-28T10:29:37.009Z</time></trkpt><trkpt lat="45.9925659" lon="9.1315014"><ele>1249.6</ele><time>2026-03-28T10:29:38Z</time></trkpt><trkpt lat="45.992484" lon="9.1315491"><ele>1247.2</ele><time>2026-03-28T10:29:39.006Z</time></trkpt><trkpt lat="45.9923879" lon="9.1315751"><ele>1244.8</ele><time>2026-03-28T10:29:40.005Z</time></trkpt><trkpt lat="45.9922908" lon="9.1315991"><ele>1242.4</ele><time>2026-03-28T10:29:41.019Z</time></trkpt><trkpt lat="45.9921972" lon="9.1316272"><ele>1240.0</ele><time>2026-03-28T10:29:42.021Z</time></trkpt><trkpt lat="45.992106" lon="9.1316636"><ele>1240.0</ele><time>2026-03-28T10:29:43.013Z</time></trkpt><trkpt lat="45.9920078" lon="9.1317249"><ele>1240.0</ele><time>2026-03-28T10:29:44.006Z</time></trkpt><trkpt lat="45.9919261" lon="9.1317914"><ele>1240.0</ele><time>2026-03-28T10:29:45.019Z</time></trkpt><trkpt lat="45.9918586" lon="9.1318653"><ele>1240.0</ele><time>2026-03-28T10:29:46.029Z</time></trkpt><trkpt lat="45.9918005" lon="9.1319467"><ele>1240.0</ele><time>2026-03-28T10:29:47.032Z</time></trkpt><trkpt lat="45.991753" lon="9.1320353"><ele>1240.0</ele><time>2026-03-28T10:29:48.036Z</time></trkpt><trkpt lat="45.9917284" lon="9.1321515"><ele>1240.0</ele><time>2026-03-28T10:29:49.009Z</time></trkpt><trkpt lat="45.9917067" lon="9.1322702"><ele>1240.0</ele><time>2026-03-28T10:29:50.016Z</time></trkpt><trkpt lat="45.9916945" lon="9.1324106"><ele>1240.0</ele><time>2026-03-28T10:29:50.997Z</time></trkpt><trkpt lat="45.9916792" lon="9.1325606"><ele>1240.0</ele><time>2026-03-28T10:29:52.003Z</time></trkpt><trkpt lat="45.9916779" lon="9.1327046"><ele>1240.0</ele><time>2026-03-28T10:29:53.016Z</time></trkpt><trkpt lat="45.991683" lon="9.132845"><ele>1239.8333333333333</ele><time>2026-03-28T10:29:54.028Z</time></trkpt><trkpt lat="45.9916869" lon="9.1329643"><ele>1239.6666666666665</ele><time>2026-03-28T10:29:55.013Z</time></trkpt><trkpt lat="45.9916445" lon="9.1330347"><ele>1239.5</ele><time>2026-03-28T10:29:56.009Z</time></trkpt><trkpt lat="45.9916058" lon="9.1331163"><ele>1239.3333333333333</ele><time>2026-03-28T10:29:57.016Z</time></trkpt><trkpt lat="45.9915523" lon="9.1331925"><ele>1239.1666666666667</ele><time>2026-03-28T10:29:58.021Z</time></trkpt><trkpt lat="45.9914889" lon="9.1332703"><ele>1239.0</ele><time>2026-03-28T10:29:59.009Z</time></trkpt><trkpt lat="45.9914089" lon="9.1333326"><ele>1239.0</ele><time>2026-03-28T10:30:00.011Z</time></trkpt><trkpt lat="45.9913318" lon="9.1334024"><ele>1239.0</ele><time>2026-03-28T10:30:01.006Z</time></trkpt><trkpt lat="45.9912576" lon="9.1334631"><ele>1239.0</ele><time>2026-03-28T10:30:02.008Z</time></trkpt><trkpt lat="45.9911835" lon="9.1335246"><ele>1239.0</ele><time>2026-03-28T10:30:03.002Z</time></trkpt><trkpt lat="45.9911216" lon="9.1335897"><ele>1239.0</ele><time>2026-03-28T10:30:04.002Z</time></trkpt><trkpt lat="45.9910701" lon="9.1336566"><ele>1239.0</ele><time>2026-03-28T10:30:05.029Z</time></trkpt><trkpt lat="45.9910252" lon="9.1337392"><ele>1239.0</ele><time>2026-03-28T10:30:05.995Z</time></trkpt><trkpt lat="45.9910008" lon="9.1338299"><ele>1239.0</ele><time>2026-03-28T10:30:07.008Z</time></trkpt><trkpt lat="45.990993" lon="9.1339446"><ele>1239.0</ele><time>2026-03-28T10:30:08.003Z</time></trkpt><trkpt lat="45.9909941" lon="9.1340635"><ele>1239.0</ele><time>2026-03-28T10:30:09.003Z</time></trkpt><trkpt lat="45.9910072" lon="9.1341901"><ele>1239.0</ele><time>2026-03-28T10:30:10.02Z</time></trkpt><trkpt lat="45.9910264" lon="9.1343188"><ele>1239.0</ele><time>2026-03-28T10:30:10.999Z</time></trkpt><trkpt lat="45.9910539" lon="9.1344557"><ele>1242.2</ele><time>2026-03-28T10:30:12.017Z</time></trkpt><trkpt lat="45.9910875" lon="9.1346086"><ele>1245.4</ele><time>2026-03-28T10:30:13.019Z</time></trkpt><trkpt lat="45.9911175" lon="9.1347516"><ele>1248.6</ele><time>2026-03-28T10:30:14.011Z</time></trkpt><trkpt lat="45.9911416" lon="9.1349006"><ele>1251.8</ele><time>2026-03-28T10:30:15.012Z</time></trkpt><trkpt lat="45.991146" lon="9.135063"><ele>1255.0</ele><time>2026-03-28T10:30:16.008Z</time></trkpt><trkpt lat="45.9911512" lon="9.1352131"><ele>1254.6</ele><time>2026-03-28T10:30:17.006Z</time></trkpt><trkpt lat="45.991158" lon="9.1353647"><ele>1254.2</ele><time>2026-03-28T10:30:18.011Z</time></trkpt><trkpt lat="45.9911811" lon="9.1355132"><ele>1253.8</ele><time>2026-03-28T10:30:19.011Z</time></trkpt><trkpt lat="45.9912097" lon="9.1356529"><ele>1253.4</ele><time>2026-03-28T10:30:20.015Z</time></trkpt><trkpt lat="45.9912414" lon="9.1358048"><ele>1253.0</ele><time>2026-03-28T10:30:21.012Z</time></trkpt><trkpt lat="45.9912884" lon="9.1359413"><ele>1253.0</ele><time>2026-03-28T10:30:22.012Z</time></trkpt><trkpt lat="45.9913382" lon="9.1360581"><ele>1253.0</ele><time>2026-03-28T10:30:23.009Z</time></trkpt><trkpt lat="45.9913771" lon="9.1361799"><ele>1253.0</ele><time>2026-03-28T10:30:24.022Z</time></trkpt><trkpt lat="45.9914149" lon="9.1362991"><ele>1253.0</ele><time>2026-03-28T10:30:25.06Z</time></trkpt><trkpt lat="45.9914484" lon="9.1364078"><ele>1253.0</ele><time>2026-03-28T10:30:26.024Z</time></trkpt><trkpt lat="45.9914788" lon="9.1365057"><ele>1253.0</ele><time>2026-03-28T10:30:27.015Z</time></trkpt><trkpt lat="45.9915082" lon="9.1365863"><ele>1255.2</ele><time>2026-03-28T10:30:28.014Z</time></trkpt><trkpt lat="45.9916069" lon="9.1366965"><ele>1257.4</ele><time>2026-03-28T10:30:30.012Z</time></trkpt><trkpt lat="45.9916958" lon="9.1367664"><ele>1259.6000000000001</ele><time>2026-03-28T10:30:30.998Z</time></trkpt><trkpt lat="45.9917976" lon="9.1368123"><ele>1261.8</ele><time>2026-03-28T10:30:32.03Z</time></trkpt><trkpt lat="45.9918809" lon="9.136857"><ele>1264.0</ele><time>2026-03-28T10:30:33.017Z</time></trkpt><trkpt lat="45.9919532" lon="9.1369289"><ele>1264.0000000000002</ele><time>2026-03-28T10:30:34.007Z</time></trkpt><trkpt lat="45.9920262" lon="9.136991"><ele>1264.0</ele><time>2026-03-28T10:30:34.997Z</time></trkpt><trkpt lat="45.9920837" lon="9.1370449"><ele>1264.0</ele><time>2026-03-28T10:30:36.007Z</time></trkpt><trkpt lat="45.9921357" lon="9.1371012"><ele>1264.0</ele><time>2026-03-28T10:30:37.005Z</time></trkpt><trkpt lat="45.9921822" lon="9.1371676"><ele>1264.0</ele><time>2026-03-28T10:30:38.005Z</time></trkpt><trkpt lat="45.9922118" lon="9.1372514"><ele>1264.0000000000002</ele><time>2026-03-28T10:30:38.999Z</time></trkpt><trkpt lat="45.9922068" lon="9.1373557"><ele>1264.0</ele><time>2026-03-28T10:30:40.015Z</time></trkpt><trkpt lat="45.992206" lon="9.1374638"><ele>1261.0</ele><time>2026-03-28T10:30:41.006Z</time></trkpt><trkpt lat="45.9921907" lon="9.1375879"><ele>1258.0</ele><time>2026-03-28T10:30:42.005Z</time></trkpt><trkpt lat="45.9921776" lon="9.1377339"><ele>1255.0</ele><time>2026-03-28T10:30:43.005Z</time></trkpt><trkpt lat="45.9921695" lon="9.1378681"><ele>1252.0</ele><time>2026-03-28T10:30:44.016Z</time></trkpt><trkpt lat="45.9921677" lon="9.1379916"><ele>1249.0</ele><time>2026-03-28T10:30:45.008Z</time></trkpt><trkpt lat="45.9921743" lon="9.1381157"><ele>1246.6000000000001</ele><time>2026-03-28T10:30:46.018Z</time></trkpt><trkpt lat="45.9922259" lon="9.1382336"><ele>1244.2</ele><time>2026-03-28T10:30:46.983Z</time></trkpt><trkpt lat="45.9922819" lon="9.1383562"><ele>1241.8000000000002</ele><time>2026-03-28T10:30:48.004Z</time></trkpt><trkpt lat="45.9923367" lon="9.138459"><ele>1239.4</ele><time>2026-03-28T10:30:49.012Z</time></trkpt><trkpt lat="45.992398" lon="9.1385592"><ele>1237.0</ele><time>2026-03-28T10:30:50.014Z</time></trkpt><trkpt lat="45.9924603" lon="9.1386589"><ele>1240.3333333333333</ele><time>2026-03-28T10:30:51.029Z</time></trkpt><trkpt lat="45.9925225" lon="9.138744"><ele>1243.6666666666665</ele><time>2026-03-28T10:30:52.013Z</time></trkpt><trkpt lat="45.9925876" lon="9.1388149"><ele>1247.0</ele><time>2026-03-28T10:30:53.015Z</time></trkpt><trkpt lat="45.9926597" lon="9.13886"><ele>1250.3333333333333</ele><time>2026-03-28T10:30:54.001Z</time></trkpt><trkpt lat="45.9927361" lon="9.138912"><ele>1253.6666666666667</ele><time>2026-03-28T10:30:55.018Z</time></trkpt><trkpt lat="45.9928116" lon="9.1389554"><ele>1257.0</ele><time>2026-03-28T10:30:56.007Z</time></trkpt><trkpt lat="45.9928907" lon="9.1389948"><ele>1257.0</ele><time>2026-03-28T10:30:57.003Z</time></trkpt><trkpt lat="45.9929776" lon="9.1390254"><ele>1257.0</ele><time>2026-03-28T10:30:58.008Z</time></trkpt><trkpt lat="45.9930515" lon="9.139041"><ele>1257.0</ele><time>2026-03-28T10:30:59.001Z</time></trkpt><trkpt lat="45.9931366" lon="9.1390479"><ele>1257.0</ele><time>2026-03-28T10:31:00.025Z</time></trkpt><trkpt lat="45.9932046" lon="9.1390234"><ele>1257.0</ele><time>2026-03-28T10:31:01.039Z</time></trkpt><trkpt lat="45.9932733" lon="9.1389906"><ele>1257.0</ele><time>2026-03-28T10:31:01.998Z</time></trkpt><trkpt lat="45.9933422" lon="9.1389548"><ele>1260.0</ele><time>2026-03-28T10:31:03.007Z</time></trkpt><trkpt lat="45.9934111" lon="9.1389169"><ele>1263.0</ele><time>2026-03-28T10:31:04.02Z</time></trkpt><trkpt lat="45.9934729" lon="9.1388831"><ele>1266.0</ele><time>2026-03-28T10:31:05.013Z</time></trkpt><trkpt lat="45.9935945" lon="9.1388234"><ele>1269.0</ele><time>2026-03-28T10:31:07.005Z</time></trkpt><trkpt lat="45.9936589" lon="9.1388231"><ele>1272.0</ele><time>2026-03-28T10:31:08.036Z</time></trkpt><trkpt lat="45.9937198" lon="9.1388776"><ele>1275.0</ele><time>2026-03-28T10:31:09.015Z</time></trkpt><trkpt lat="45.9937535" lon="9.138973"><ele>1271.4</ele><time>2026-03-28T10:31:10Z</time></trkpt><trkpt lat="45.9937617" lon="9.1390941"><ele>1267.8</ele><time>2026-03-28T10:31:11.014Z</time></trkpt><trkpt lat="45.993766" lon="9.1392298"><ele>1264.2</ele><time>2026-03-28T10:31:12.025Z</time></trkpt><trkpt lat="45.9937682" lon="9.1393621"><ele>1260.6</ele><time>2026-03-28T10:31:12.999Z</time></trkpt><trkpt lat="45.9937758" lon="9.1395005"><ele>1257.0</ele><time>2026-03-28T10:31:14.004Z</time></trkpt><trkpt lat="45.9937805" lon="9.1396232"><ele>1257.0</ele><time>2026-03-28T10:31:15.027Z</time></trkpt><trkpt lat="45.9937892" lon="9.1397533"><ele>1257.0</ele><time>2026-03-28T10:31:15.995Z</time></trkpt><trkpt lat="45.9937993" lon="9.1398848"><ele>1257.0</ele><time>2026-03-28T10:31:16.995Z</time></trkpt><trkpt lat="45.9938154" lon="9.1400162"><ele>1257.0</ele><time>2026-03-28T10:31:18.014Z</time></trkpt><trkpt lat="45.9938382" lon="9.1401425"><ele>1257.0</ele><time>2026-03-28T10:31:19.009Z</time></trkpt><trkpt lat="45.9938575" lon="9.1402443"><ele>1257.0</ele><time>2026-03-28T10:31:20.012Z</time></trkpt><trkpt lat="45.993891" lon="9.1403483"><ele>1257.5</ele><time>2026-03-28T10:31:21.019Z</time></trkpt><trkpt lat="45.9939331" lon="9.14044"><ele>1258.0</ele><time>2026-03-28T10:31:21.997Z</time></trkpt><trkpt lat="45.9939923" lon="9.1405298"><ele>1258.5</ele><time>2026-03-28T10:31:23.005Z</time></trkpt><trkpt lat="45.994059" lon="9.1406145"><ele>1259.0</ele><time>2026-03-28T10:31:24.008Z</time></trkpt><trkpt lat="45.9941253" lon="9.1406891"><ele>1259.5</ele><time>2026-03-28T10:31:25.008Z</time></trkpt><trkpt lat="45.9941951" lon="9.1407531"><ele>1260.0</ele><time>2026-03-28T10:31:26.006Z</time></trkpt><trkpt lat="45.9942582" lon="9.1408184"><ele>1260.0</ele><time>2026-03-28T10:31:27.011Z</time></trkpt><trkpt lat="45.9943141" lon="9.1408792"><ele>1260.0</ele><time>2026-03-28T10:31:27.999Z</time></trkpt><trkpt lat="45.9944102" lon="9.140983"><ele>1260.0</ele><time>2026-03-28T10:31:30.011Z</time></trkpt><trkpt lat="45.9944686" lon="9.1411012"><ele>1260.0</ele><time>2026-03-28T10:31:31.997Z</time></trkpt><trkpt lat="45.9945369" lon="9.141221"><ele>1260.0</ele><time>2026-03-28T10:31:33.997Z</time></trkpt><trkpt lat="45.9946213" lon="9.1413306"><ele>1260.0</ele><time>2026-03-28T10:31:36.004Z</time></trkpt><trkpt lat="45.9946697" lon="9.1414489"><ele>1260.0</ele><time>2026-03-28T10:31:38.023Z</time></trkpt><trkpt lat="45.9946282" lon="9.1415555"><ele>1260.0</ele><time>2026-03-28T10:31:40.016Z</time></trkpt><trkpt lat="45.9945253" lon="9.1415973"><ele>1260.0</ele><time>2026-03-28T10:31:42.015Z</time></trkpt><trkpt lat="45.9944378" lon="9.1415952"><ele>1260.0</ele><time>2026-03-28T10:31:43Z</time></trkpt><trkpt lat="45.9943307" lon="9.1415598"><ele>1260.0</ele><time>2026-03-28T10:31:44.019Z</time></trkpt><trkpt lat="45.9942252" lon="9.1415299"><ele>1260.0</ele><time>2026-03-28T10:31:45.009Z</time></trkpt><trkpt lat="45.9941168" lon="9.1415028"><ele>1260.0</ele><time>2026-03-28T10:31:46Z</time></trkpt><trkpt lat="45.9940063" lon="9.1414928"><ele>1260.0</ele><time>2026-03-28T10:31:47.029Z</time></trkpt><trkpt lat="45.9938913" lon="9.1415077"><ele>1260.0</ele><time>2026-03-28T10:31:48.007Z</time></trkpt><trkpt lat="45.9937772" lon="9.141529"><ele>1255.0</ele><time>2026-03-28T10:31:48.996Z</time></trkpt><trkpt lat="45.9936762" lon="9.1415589"><ele>1250.0</ele><time>2026-03-28T10:31:50.012Z</time></trkpt><trkpt lat="45.9935746" lon="9.1415865"><ele>1245.0</ele><time>2026-03-28T10:31:50.994Z</time></trkpt><trkpt lat="45.9934799" lon="9.1416075"><ele>1240.0</ele><time>2026-03-28T10:31:52.006Z</time></trkpt><trkpt lat="45.9933884" lon="9.1416342"><ele>1235.0</ele><time>2026-03-28T10:31:53.003Z</time></trkpt><trkpt lat="45.9933044" lon="9.1416715"><ele>1232.6</ele><time>2026-03-28T10:31:54.009Z</time></trkpt><trkpt lat="45.993233" lon="9.1417163"><ele>1230.2</ele><time>2026-03-28T10:31:55.015Z</time></trkpt><trkpt lat="45.9931893" lon="9.1417826"><ele>1227.8</ele><time>2026-03-28T10:31:56.018Z</time></trkpt><trkpt lat="45.9931289" lon="9.1419601"><ele>1225.4</ele><time>2026-03-28T10:31:58.009Z</time></trkpt><trkpt lat="45.9931747" lon="9.1421068"><ele>1223.0</ele><time>2026-03-28T10:31:59.019Z</time></trkpt><trkpt lat="45.9932321" lon="9.1422655"><ele>1224.0</ele><time>2026-03-28T10:32:00.003Z</time></trkpt><trkpt lat="45.9932871" lon="9.1424074"><ele>1225.0</ele><time>2026-03-28T10:32:01.022Z</time></trkpt><trkpt lat="45.9933407" lon="9.1425441"><ele>1226.0</ele><time>2026-03-28T10:32:01.993Z</time></trkpt><trkpt lat="45.9933909" lon="9.1426691"><ele>1227.0</ele><time>2026-03-28T10:32:03.013Z</time></trkpt><trkpt lat="45.9934249" lon="9.142769"><ele>1228.0</ele><time>2026-03-28T10:32:04.001Z</time></trkpt><trkpt lat="45.9934573" lon="9.1429314"><ele>1228.0</ele><time>2026-03-28T10:32:06.013Z</time></trkpt><trkpt lat="45.9934249" lon="9.1430415"><ele>1228.0</ele><time>2026-03-28T10:32:08.006Z</time></trkpt><trkpt lat="45.9933122" lon="9.1430603"><ele>1228.0</ele><time>2026-03-28T10:32:10.008Z</time></trkpt><trkpt lat="45.9932354" lon="9.1430854"><ele>1228.0</ele><time>2026-03-28T10:32:11.012Z</time></trkpt><trkpt lat="45.9931565" lon="9.1431506"><ele>1228.0</ele><time>2026-03-28T10:32:12.006Z</time></trkpt><trkpt lat="45.993094" lon="9.1432312"><ele>1230.0</ele><time>2026-03-28T10:32:13.003Z</time></trkpt><trkpt lat="45.9930316" lon="9.1433203"><ele>1232.0</ele><time>2026-03-28T10:32:14.005Z</time></trkpt><trkpt lat="45.9929824" lon="9.1434169"><ele>1234.0</ele><time>2026-03-28T10:32:15.006Z</time></trkpt><trkpt lat="45.9929295" lon="9.1435255"><ele>1236.0</ele><time>2026-03-28T10:32:16.005Z</time></trkpt><trkpt lat="45.9928743" lon="9.1436514"><ele>1238.0</ele><time>2026-03-28T10:32:17.022Z</time></trkpt><trkpt lat="45.9928237" lon="9.1437762"><ele>1238.0</ele><time>2026-03-28T10:32:18.008Z</time></trkpt><trkpt lat="45.9927771" lon="9.1438927"><ele>1238.0</ele><time>2026-03-28T10:32:19.006Z</time></trkpt><trkpt lat="45.9927431" lon="9.1439983"><ele>1238.0</ele><time>2026-03-28T10:32:20.006Z</time></trkpt><trkpt lat="45.992718" lon="9.1440926"><ele>1238.0</ele><time>2026-03-28T10:32:21.026Z</time></trkpt><trkpt lat="45.9927042" lon="9.1441886"><ele>1238.0</ele><time>2026-03-28T10:32:21.996Z</time></trkpt><trkpt lat="45.9927017" lon="9.1442804"><ele>1238.0</ele><time>2026-03-28T10:32:23.014Z</time></trkpt><trkpt lat="45.9927596" lon="9.1444418"><ele>1236.1666666666667</ele><time>2026-03-28T10:32:24.992Z</time></trkpt><trkpt lat="45.9928037" lon="9.1445542"><ele>1234.3333333333335</ele><time>2026-03-28T10:32:26.998Z</time></trkpt><trkpt lat="45.9927688" lon="9.1446365"><ele>1232.5</ele><time>2026-03-28T10:32:29.017Z</time></trkpt><trkpt lat="45.9927065" lon="9.1446197"><ele>1230.6666666666667</ele><time>2026-03-28T10:32:30.003Z</time></trkpt><trkpt lat="45.9926304" lon="9.1445683"><ele>1228.8333333333333</ele><time>2026-03-28T10:32:31.008Z</time></trkpt><trkpt lat="45.9925748" lon="9.1445051"><ele>1227.0</ele><time>2026-03-28T10:32:32.003Z</time></trkpt><trkpt lat="45.9925038" lon="9.1444343"><ele>1227.0</ele><time>2026-03-28T10:32:33.011Z</time></trkpt><trkpt lat="45.9924292" lon="9.1443782"><ele>1227.0</ele><time>2026-03-28T10:32:34.01Z</time></trkpt><trkpt lat="45.9923608" lon="9.1443371"><ele>1227.0</ele><time>2026-03-28T10:32:34.997Z</time></trkpt><trkpt lat="45.9922998" lon="9.1443058"><ele>1227.0</ele><time>2026-03-28T10:32:36.009Z</time></trkpt><trkpt lat="45.9921728" lon="9.1443326"><ele>1227.0</ele><time>2026-03-28T10:32:38.018Z</time></trkpt><trkpt lat="45.9921105" lon="9.1444122"><ele>1227.0</ele><time>2026-03-28T10:32:39.009Z</time></trkpt><trkpt lat="45.9920505" lon="9.1445245"><ele>1227.0</ele><time>2026-03-28T10:32:40.015Z</time></trkpt><trkpt lat="45.9920015" lon="9.1446652"><ele>1227.0</ele><time>2026-03-28T10:32:41.006Z</time></trkpt><trkpt lat="45.9919424" lon="9.1448143"><ele>1227.0</ele><time>2026-03-28T10:32:42.005Z</time></trkpt><trkpt lat="45.9918801" lon="9.1449799"><ele>1227.0</ele><time>2026-03-28T10:32:43.008Z</time></trkpt><trkpt lat="45.991813" lon="9.1451737"><ele>1229.0</ele><time>2026-03-28T10:32:44.005Z</time></trkpt><trkpt lat="45.9917463" lon="9.1453661"><ele>1231.0</ele><time>2026-03-28T10:32:45.003Z</time></trkpt><trkpt lat="45.9916959" lon="9.1455977"><ele>1233.0</ele><time>2026-03-28T10:32:46.015Z</time></trkpt><trkpt lat="45.9916134" lon="9.1458155"><ele>1233.0</ele><time>2026-03-28T10:32:47.022Z</time></trkpt><trkpt lat="45.9915255" lon="9.1460264"><ele>1233.0</ele><time>2026-03-28T10:32:48.012Z</time></trkpt><trkpt lat="45.9914365" lon="9.1462262"><ele>1233.0</ele><time>2026-03-28T10:32:49.02Z</time></trkpt><trkpt lat="45.9913482" lon="9.1464251"><ele>1237.3333333333333</ele><time>2026-03-28T10:32:50.001Z</time></trkpt><trkpt lat="45.9912433" lon="9.1466552"><ele>1241.6666666666665</ele><time>2026-03-28T10:32:51.008Z</time></trkpt><trkpt lat="45.9911496" lon="9.1468772"><ele>1246.0</ele><time>2026-03-28T10:32:51.995Z</time></trkpt><trkpt lat="45.9910651" lon="9.1470692"><ele>1246.0</ele><time>2026-03-28T10:32:53.023Z</time></trkpt><trkpt lat="45.9909959" lon="9.1472388"><ele>1246.0</ele><time>2026-03-28T10:32:54Z</time></trkpt><trkpt lat="45.9909287" lon="9.1473971"><ele>1246.0</ele><time>2026-03-28T10:32:55.003Z</time></trkpt><trkpt lat="45.9908697" lon="9.1475606"><ele>1246.0</ele><time>2026-03-28T10:32:56.002Z</time></trkpt><trkpt lat="45.9908246" lon="9.1477258"><ele>1242.5</ele><time>2026-03-28T10:32:57.015Z</time></trkpt><trkpt lat="45.9907736" lon="9.1478993"><ele>1239.0</ele><time>2026-03-28T10:32:58.008Z</time></trkpt><trkpt lat="45.9907408" lon="9.1480747"><ele>1235.5</ele><time>2026-03-28T10:32:58.995Z</time></trkpt><trkpt lat="45.9907065" lon="9.1482549"><ele>1232.0</ele><time>2026-03-28T10:33:00.009Z</time></trkpt><trkpt lat="45.9906823" lon="9.1484423"><ele>1232.0</ele><time>2026-03-28T10:33:01.029Z</time></trkpt><trkpt lat="45.9906697" lon="9.1486491"><ele>1232.0</ele><time>2026-03-28T10:33:02.028Z</time></trkpt><trkpt lat="45.9906565" lon="9.1488347"><ele>1232.0</ele><time>2026-03-28T10:33:03.014Z</time></trkpt><trkpt lat="45.9906485" lon="9.1490354"><ele>1232.0</ele><time>2026-03-28T10:33:04.002Z</time></trkpt><trkpt lat="45.9906333" lon="9.149234"><ele>1233.5</ele><time>2026-03-28T10:33:05.032Z</time></trkpt><trkpt lat="45.9906024" lon="9.1494385"><ele>1235.0</ele><time>2026-03-28T10:33:06.014Z</time></trkpt><trkpt lat="45.9905809" lon="9.1496277"><ele>1236.5</ele><time>2026-03-28T10:33:07.015Z</time></trkpt><trkpt lat="45.9905732" lon="9.1497847"><ele>1238.0</ele><time>2026-03-28T10:33:08.003Z</time></trkpt><trkpt lat="45.990569" lon="9.1499247"><ele>1238.0</ele><time>2026-03-28T10:33:09.002Z</time></trkpt><trkpt lat="45.9906038" lon="9.1500421"><ele>1238.0</ele><time>2026-03-28T10:33:10.011Z</time></trkpt><trkpt lat="45.9906362" lon="9.1501612"><ele>1238.0</ele><time>2026-03-28T10:33:11.009Z</time></trkpt><trkpt lat="45.990636" lon="9.1502847"><ele>1238.0</ele><time>2026-03-28T10:33:12.003Z</time></trkpt><trkpt lat="45.9906427" lon="9.1503896"><ele>1238.0</ele><time>2026-03-28T10:33:13.014Z</time></trkpt><trkpt lat="45.9906473" lon="9.1504855"><ele>1238.0</ele><time>2026-03-28T10:33:14.02Z</time></trkpt><trkpt lat="45.9906573" lon="9.1505947"><ele>1238.0</ele><time>2026-03-28T10:33:15.014Z</time></trkpt><trkpt lat="45.9906352" lon="9.1507555"><ele>1238.0</ele><time>2026-03-28T10:33:17.007Z</time></trkpt><trkpt lat="45.9905753" lon="9.1508148"><ele>1238.0</ele><time>2026-03-28T10:33:19.023Z</time></trkpt><trkpt lat="45.9904599" lon="9.1507762"><ele>1238.0</ele><time>2026-03-28T10:33:20.997Z</time></trkpt><trkpt lat="45.9903938" lon="9.1507392"><ele>1238.0</ele><time>2026-03-28T10:33:22.018Z</time></trkpt><trkpt lat="45.9903108" lon="9.1507045"><ele>1238.0</ele><time>2026-03-28T10:33:23.015Z</time></trkpt><trkpt lat="45.9902163" lon="9.1506831"><ele>1238.0</ele><time>2026-03-28T10:33:24.006Z</time></trkpt><trkpt lat="45.9901283" lon="9.1506597"><ele>1238.0</ele><time>2026-03-28T10:33:24.992Z</time></trkpt><trkpt lat="45.9900343" lon="9.150645"><ele>1238.0</ele><time>2026-03-28T10:33:26.016Z</time></trkpt><trkpt lat="45.9899606" lon="9.1506317"><ele>1238.0</ele><time>2026-03-28T10:33:27.004Z</time></trkpt><trkpt lat="45.9898741" lon="9.1506203"><ele>1238.0</ele><time>2026-03-28T10:33:28.001Z</time></trkpt><trkpt lat="45.9897921" lon="9.1505989"><ele>1234.5</ele><time>2026-03-28T10:33:29.016Z</time></trkpt><trkpt lat="45.989722" lon="9.1505777"><ele>1231.0</ele><time>2026-03-28T10:33:30.01Z</time></trkpt><trkpt lat="45.9896046" lon="9.1505674"><ele>1227.5</ele><time>2026-03-28T10:33:32.003Z</time></trkpt><trkpt lat="45.989515" lon="9.1505688"><ele>1224.0</ele><time>2026-03-28T10:33:34Z</time></trkpt><trkpt lat="45.9894288" lon="9.1505586"><ele>1220.5</ele><time>2026-03-28T10:33:36.035Z</time></trkpt><trkpt lat="45.9893637" lon="9.1505242"><ele>1217.0</ele><time>2026-03-28T10:33:38.007Z</time></trkpt><trkpt lat="45.9894367" lon="9.150525"><ele>1217.0</ele><time>2026-03-28T10:37:20.011Z</time></trkpt><trkpt lat="45.9893732" lon="9.1504964"><ele>1217.0</ele><time>2026-03-28T10:40:12.09Z</time></trkpt><trkpt lat="45.989303" lon="9.1504763"><ele>1217.0</ele><time>2026-03-28T10:40:18.018Z</time></trkpt><trkpt lat="45.9894079" lon="9.1505153"><ele>1217.0</ele><time>2026-03-28T10:45:06.994Z</time></trkpt><trkpt lat="45.9895257" lon="9.1505513"><ele>1217.0</ele><time>2026-03-28T10:45:08.989Z</time></trkpt><trkpt lat="45.9896436" lon="9.1506016"><ele>1217.0</ele><time>2026-03-28T10:45:11.003Z</time></trkpt><trkpt lat="45.9897042" lon="9.1506295"><ele>1217.0</ele><time>2026-03-28T10:45:11.998Z</time></trkpt><trkpt lat="45.9898226" lon="9.1506925"><ele>1217.0</ele><time>2026-03-28T10:45:14.005Z</time></trkpt><trkpt lat="45.9898913" lon="9.1507321"><ele>1217.0</ele><time>2026-03-28T10:45:15.016Z</time></trkpt><trkpt lat="45.9899657" lon="9.1507768"><ele>1217.0</ele><time>2026-03-28T10:45:16.012Z</time></trkpt><trkpt lat="45.9900471" lon="9.1508271"><ele>1217.0</ele><time>2026-03-28T10:45:16.991Z</time></trkpt><trkpt lat="45.9901321" lon="9.1508787"><ele>1222.0</ele><time>2026-03-28T10:45:17.994Z</time></trkpt><trkpt lat="45.9902228" lon="9.1509255"><ele>1227.0</ele><time>2026-03-28T10:45:18.996Z</time></trkpt><trkpt lat="45.9903151" lon="9.1509765"><ele>1232.0</ele><time>2026-03-28T10:45:20.002Z</time></trkpt><trkpt lat="45.9904073" lon="9.1510321"><ele>1237.0</ele><time>2026-03-28T10:45:20.999Z</time></trkpt><trkpt lat="45.9905007" lon="9.1510887"><ele>1242.0</ele><time>2026-03-28T10:45:22.008Z</time></trkpt><trkpt lat="45.990594" lon="9.1511524"><ele>1242.0</ele><time>2026-03-28T10:45:23.006Z</time></trkpt><trkpt lat="45.9906834" lon="9.1512257"><ele>1242.0</ele><time>2026-03-28T10:45:24.011Z</time></trkpt><trkpt lat="45.9907682" lon="9.1513144"><ele>1242.0</ele><time>2026-03-28T10:45:25.002Z</time></trkpt><trkpt lat="45.990848" lon="9.1514203"><ele>1242.0</ele><time>2026-03-28T10:45:26.007Z</time></trkpt><trkpt lat="45.9909249" lon="9.1515422"><ele>1242.0</ele><time>2026-03-28T10:45:27Z</time></trkpt><trkpt lat="45.9910029" lon="9.1516727"><ele>1246.0</ele><time>2026-03-28T10:45:28.005Z</time></trkpt><trkpt lat="45.991081" lon="9.1518064"><ele>1250.0</ele><time>2026-03-28T10:45:29.004Z</time></trkpt><trkpt lat="45.9911589" lon="9.1519415"><ele>1254.0</ele><time>2026-03-28T10:45:30.017Z</time></trkpt><trkpt lat="45.9912369" lon="9.1520769"><ele>1258.0</ele><time>2026-03-28T10:45:31.005Z</time></trkpt><trkpt lat="45.9913124" lon="9.1521955"><ele>1258.0</ele><time>2026-03-28T10:45:32.014Z</time></trkpt><trkpt lat="45.9913799" lon="9.1522933"><ele>1258.0</ele><time>2026-03-28T10:45:33.015Z</time></trkpt><trkpt lat="45.9914426" lon="9.1523624"><ele>1258.0</ele><time>2026-03-28T10:45:34.009Z</time></trkpt><trkpt lat="45.9915014" lon="9.1524254"><ele>1258.0</ele><time>2026-03-28T10:45:35.003Z</time></trkpt><trkpt lat="45.9915676" lon="9.1524218"><ele>1258.0</ele><time>2026-03-28T10:45:36.012Z</time></trkpt><trkpt lat="45.9916843" lon="9.1523207"><ele>1263.8</ele><time>2026-03-28T10:45:37.998Z</time></trkpt><trkpt lat="45.9917361" lon="9.1522207"><ele>1269.6</ele><time>2026-03-28T10:45:39.001Z</time></trkpt><trkpt lat="45.9917576" lon="9.1520885"><ele>1275.3999999999999</ele><time>2026-03-28T10:45:39.999Z</time></trkpt><trkpt lat="45.991752" lon="9.151934"><ele>1281.1999999999998</ele><time>2026-03-28T10:45:41.011Z</time></trkpt><trkpt lat="45.9917348" lon="9.1517525"><ele>1287.0</ele><time>2026-03-28T10:45:42.019Z</time></trkpt><trkpt lat="45.9917294" lon="9.1515647"><ele>1289.5</ele><time>2026-03-28T10:45:43.029Z</time></trkpt><trkpt lat="45.9917256" lon="9.1513786"><ele>1292.0</ele><time>2026-03-28T10:45:44.006Z</time></trkpt><trkpt lat="45.9917284" lon="9.1511989"><ele>1294.5</ele><time>2026-03-28T10:45:44.999Z</time></trkpt><trkpt lat="45.9917286" lon="9.1510276"><ele>1297.0</ele><time>2026-03-28T10:45:46.005Z</time></trkpt><trkpt lat="45.9917235" lon="9.1508637"><ele>1298.75</ele><time>2026-03-28T10:45:47.011Z</time></trkpt><trkpt lat="45.9917128" lon="9.1506963"><ele>1300.5</ele><time>2026-03-28T10:45:48.012Z</time></trkpt><trkpt lat="45.9917003" lon="9.1505207"><ele>1302.25</ele><time>2026-03-28T10:45:49Z</time></trkpt><trkpt lat="45.991688" lon="9.150352"><ele>1304.0</ele><time>2026-03-28T10:45:49.998Z</time></trkpt><trkpt lat="45.9916761" lon="9.1501957"><ele>1304.0</ele><time>2026-03-28T10:45:51.007Z</time></trkpt><trkpt lat="45.9916697" lon="9.1500542"><ele>1304.0</ele><time>2026-03-28T10:45:52.017Z</time></trkpt><trkpt lat="45.9916782" lon="9.1499056"><ele>1304.0</ele><time>2026-03-28T10:45:53.012Z</time></trkpt><trkpt lat="45.991689" lon="9.1497604"><ele>1304.0</ele><time>2026-03-28T10:45:54.001Z</time></trkpt><trkpt lat="45.9917052" lon="9.1496171"><ele>1304.0</ele><time>2026-03-28T10:45:55.004Z</time></trkpt><trkpt lat="45.9917302" lon="9.149473"><ele>1303.0</ele><time>2026-03-28T10:45:56.008Z</time></trkpt><trkpt lat="45.9917671" lon="9.1493189"><ele>1302.0</ele><time>2026-03-28T10:45:57.001Z</time></trkpt><trkpt lat="45.9918222" lon="9.149167"><ele>1301.0</ele><time>2026-03-28T10:45:58.02Z</time></trkpt><trkpt lat="45.9918757" lon="9.1490107"><ele>1300.0</ele><time>2026-03-28T10:45:59.016Z</time></trkpt><trkpt lat="45.9919263" lon="9.1488457"><ele>1299.0</ele><time>2026-03-28T10:46:00.001Z</time></trkpt><trkpt lat="45.9919833" lon="9.1487004"><ele>1298.0</ele><time>2026-03-28T10:46:01.03Z</time></trkpt><trkpt lat="45.9920446" lon="9.1485776"><ele>1297.0</ele><time>2026-03-28T10:46:02.003Z</time></trkpt><trkpt lat="45.9921074" lon="9.1484643"><ele>1296.0</ele><time>2026-03-28T10:46:03.01Z</time></trkpt><trkpt lat="45.9921534" lon="9.1483533"><ele>1295.0</ele><time>2026-03-28T10:46:04.004Z</time></trkpt><trkpt lat="45.9921811" lon="9.1482546"><ele>1293.8333333333335</ele><time>2026-03-28T10:46:05.025Z</time></trkpt><trkpt lat="45.9922032" lon="9.1481648"><ele>1292.6666666666667</ele><time>2026-03-28T10:46:06.008Z</time></trkpt><trkpt lat="45.9922491" lon="9.1480032"><ele>1291.5</ele><time>2026-03-28T10:46:08.008Z</time></trkpt><trkpt lat="45.9922808" lon="9.1479188"><ele>1290.3333333333333</ele><time>2026-03-28T10:46:09.012Z</time></trkpt><trkpt lat="45.9923199" lon="9.147832"><ele>1289.1666666666665</ele><time>2026-03-28T10:46:10.022Z</time></trkpt><trkpt lat="45.992365" lon="9.14774"><ele>1288.0</ele><time>2026-03-28T10:46:11.006Z</time></trkpt><trkpt lat="45.9924109" lon="9.1476425"><ele>1288.0</ele><time>2026-03-28T10:46:12.006Z</time></trkpt><trkpt lat="45.9924607" lon="9.1475416"><ele>1288.0</ele><time>2026-03-28T10:46:13.009Z</time></trkpt><trkpt lat="45.9925119" lon="9.1474443"><ele>1288.0</ele><time>2026-03-28T10:46:13.993Z</time></trkpt><trkpt lat="45.9925639" lon="9.1473565"><ele>1288.0</ele><time>2026-03-28T10:46:14.997Z</time></trkpt><trkpt lat="45.9926138" lon="9.1472924"><ele>1288.0</ele><time>2026-03-28T10:46:15.999Z</time></trkpt><trkpt lat="45.9927027" lon="9.1472323"><ele>1288.0</ele><time>2026-03-28T10:46:17.986Z</time></trkpt><trkpt lat="45.9927939" lon="9.1472479"><ele>1288.8333333333333</ele><time>2026-03-28T10:46:20.01Z</time></trkpt><trkpt lat="45.9928116" lon="9.1473349"><ele>1289.6666666666665</ele><time>2026-03-28T10:46:20.988Z</time></trkpt><trkpt lat="45.9928157" lon="9.1474336"><ele>1290.5</ele><time>2026-03-28T10:46:21.994Z</time></trkpt><trkpt lat="45.9928218" lon="9.147542"><ele>1291.3333333333333</ele><time>2026-03-28T10:46:23.027Z</time></trkpt><trkpt lat="45.9928362" lon="9.1476817"><ele>1292.1666666666667</ele><time>2026-03-28T10:46:24.005Z</time></trkpt><trkpt lat="45.9928443" lon="9.1478203"><ele>1293.0</ele><time>2026-03-28T10:46:24.992Z</time></trkpt><trkpt lat="45.9928542" lon="9.1479692"><ele>1293.0</ele><time>2026-03-28T10:46:25.993Z</time></trkpt><trkpt lat="45.9928512" lon="9.1481057"><ele>1293.0</ele><time>2026-03-28T10:46:27.001Z</time></trkpt><trkpt lat="45.9928355" lon="9.1482406"><ele>1293.0</ele><time>2026-03-28T10:46:27.99Z</time></trkpt><trkpt lat="45.9928181" lon="9.1483788"><ele>1293.0</ele><time>2026-03-28T10:46:28.994Z</time></trkpt><trkpt lat="45.9927982" lon="9.148508"><ele>1293.0</ele><time>2026-03-28T10:46:30.021Z</time></trkpt><trkpt lat="45.9927842" lon="9.1486347"><ele>1296.2</ele><time>2026-03-28T10:46:31.004Z</time></trkpt><trkpt lat="45.992777" lon="9.1487579"><ele>1299.4</ele><time>2026-03-28T10:46:32.005Z</time></trkpt><trkpt lat="45.9927742" lon="9.1488886"><ele>1302.6000000000001</ele><time>2026-03-28T10:46:32.995Z</time></trkpt><trkpt lat="45.9927827" lon="9.1490209"><ele>1305.8000000000002</ele><time>2026-03-28T10:46:34.016Z</time></trkpt><trkpt lat="45.9927921" lon="9.1491531"><ele>1309.0</ele><time>2026-03-28T10:46:35.014Z</time></trkpt><trkpt lat="45.9927963" lon="9.1492815"><ele>1312.3333333333333</ele><time>2026-03-28T10:46:36.01Z</time></trkpt><trkpt lat="45.9928012" lon="9.1494072"><ele>1315.6666666666665</ele><time>2026-03-28T10:46:37.009Z</time></trkpt><trkpt lat="45.9928097" lon="9.1495295"><ele>1319.0</ele><time>2026-03-28T10:46:38.014Z</time></trkpt><trkpt lat="45.9928213" lon="9.1496478"><ele>1322.3333333333333</ele><time>2026-03-28T10:46:38.995Z</time></trkpt><trkpt lat="45.9928385" lon="9.1497592"><ele>1325.6666666666667</ele><time>2026-03-28T10:46:40.019Z</time></trkpt><trkpt lat="45.9928546" lon="9.1498639"><ele>1329.0</ele><time>2026-03-28T10:46:41.004Z</time></trkpt><trkpt lat="45.9928783" lon="9.1499685"><ele>1329.4</ele><time>2026-03-28T10:46:42Z</time></trkpt><trkpt lat="45.9929117" lon="9.1500766"><ele>1329.8000000000002</ele><time>2026-03-28T10:46:43.002Z</time></trkpt><trkpt lat="45.9929499" lon="9.1501922"><ele>1330.1999999999998</ele><time>2026-03-28T10:46:44.02Z</time></trkpt><trkpt lat="45.9929882" lon="9.1503128"><ele>1330.6</ele><time>2026-03-28T10:46:45.022Z</time></trkpt><trkpt lat="45.993028" lon="9.1504366"><ele>1331.0</ele><time>2026-03-28T10:46:45.996Z</time></trkpt><trkpt lat="45.99307" lon="9.1505605"><ele>1331.0</ele><time>2026-03-28T10:46:46.993Z</time></trkpt><trkpt lat="45.9931143" lon="9.1506814"><ele>1331.0</ele><time>2026-03-28T10:46:48.015Z</time></trkpt><trkpt lat="45.9931614" lon="9.1507979"><ele>1331.0</ele><time>2026-03-28T10:46:49.01Z</time></trkpt><trkpt lat="45.9932132" lon="9.150902"><ele>1331.0</ele><time>2026-03-28T10:46:50.012Z</time></trkpt><trkpt lat="45.9932729" lon="9.1509914"><ele>1331.0</ele><time>2026-03-28T10:46:50.998Z</time></trkpt><trkpt lat="45.9933447" lon="9.1510665"><ele>1332.3333333333335</ele><time>2026-03-28T10:46:52.009Z</time></trkpt><trkpt lat="45.9934219" lon="9.1511277"><ele>1333.6666666666667</ele><time>2026-03-28T10:46:53.009Z</time></trkpt><trkpt lat="45.9935032" lon="9.1511715"><ele>1335.0</ele><time>2026-03-28T10:46:53.99Z</time></trkpt><trkpt lat="45.9935837" lon="9.1512152"><ele>1336.3333333333333</ele><time>2026-03-28T10:46:55.011Z</time></trkpt><trkpt lat="45.9936698" lon="9.1512295"><ele>1337.6666666666665</ele><time>2026-03-28T10:46:55.997Z</time></trkpt><trkpt lat="45.9937523" lon="9.1512163"><ele>1339.0</ele><time>2026-03-28T10:46:56.998Z</time></trkpt><trkpt lat="45.9938317" lon="9.1511977"><ele>1339.0</ele><time>2026-03-28T10:46:57.99Z</time></trkpt><trkpt lat="45.9939064" lon="9.1511723"><ele>1339.0</ele><time>2026-03-28T10:46:58.999Z</time></trkpt><trkpt lat="45.9939766" lon="9.1511488"><ele>1339.0</ele><time>2026-03-28T10:46:59.999Z</time></trkpt><trkpt lat="45.9940436" lon="9.1511259"><ele>1339.0</ele><time>2026-03-28T10:47:01.007Z</time></trkpt><trkpt lat="45.9941118" lon="9.1510962"><ele>1339.0</ele><time>2026-03-28T10:47:02.002Z</time></trkpt><trkpt lat="45.994178" lon="9.1510483"><ele>1339.0</ele><time>2026-03-28T10:47:03.008Z</time></trkpt><trkpt lat="45.9942419" lon="9.1509889"><ele>1339.0</ele><time>2026-03-28T10:47:03.999Z</time></trkpt><trkpt lat="45.9943079" lon="9.1509322"><ele>1340.1666666666665</ele><time>2026-03-28T10:47:05.008Z</time></trkpt><trkpt lat="45.994379" lon="9.1508889"><ele>1341.3333333333333</ele><time>2026-03-28T10:47:05.999Z</time></trkpt><trkpt lat="45.9944489" lon="9.1508552"><ele>1342.5</ele><time>2026-03-28T10:47:07.015Z</time></trkpt><trkpt lat="45.994522" lon="9.1508221"><ele>1343.6666666666667</ele><time>2026-03-28T10:47:08Z</time></trkpt><trkpt lat="45.9945961" lon="9.1507872"><ele>1344.8333333333335</ele><time>2026-03-28T10:47:09.012Z</time></trkpt><trkpt lat="45.994677" lon="9.1507467"><ele>1346.0</ele><time>2026-03-28T10:47:10Z</time></trkpt><trkpt lat="45.9947605" lon="9.1507144"><ele>1347.3333333333335</ele><time>2026-03-28T10:47:11.003Z</time></trkpt><trkpt lat="45.9948471" lon="9.1507025"><ele>1348.6666666666667</ele><time>2026-03-28T10:47:12.028Z</time></trkpt><trkpt lat="45.9949278" lon="9.1506928"><ele>1350.0</ele><time>2026-03-28T10:47:13.014Z</time></trkpt><trkpt lat="45.9949973" lon="9.150707"><ele>1351.3333333333333</ele><time>2026-03-28T10:47:14.007Z</time></trkpt><trkpt lat="45.9950666" lon="9.1507237"><ele>1352.6666666666665</ele><time>2026-03-28T10:47:14.997Z</time></trkpt><trkpt lat="45.9951824" lon="9.1507101"><ele>1354.0</ele><time>2026-03-28T10:47:17.029Z</time></trkpt><trkpt lat="45.995304" lon="9.1506475"><ele>1359.9999999999998</ele><time>2026-03-28T10:47:19.004Z</time></trkpt><trkpt lat="45.9953714" lon="9.1506193"><ele>1366.0</ele><time>2026-03-28T10:47:20.014Z</time></trkpt><trkpt lat="45.9954429" lon="9.1505983"><ele>1372.0</ele><time>2026-03-28T10:47:21.007Z</time></trkpt><trkpt lat="45.9955166" lon="9.1505798"><ele>1378.0</ele><time>2026-03-28T10:47:22.005Z</time></trkpt><trkpt lat="45.9955883" lon="9.1505725"><ele>1384.0</ele><time>2026-03-28T10:47:23.004Z</time></trkpt><trkpt lat="45.995657" lon="9.1505773"><ele>1389.9999999999998</ele><time>2026-03-28T10:47:24.013Z</time></trkpt><trkpt lat="45.9957296" lon="9.1505881"><ele>1396.0</ele><time>2026-03-28T10:47:25.014Z</time></trkpt><trkpt lat="45.9957938" lon="9.1506414"><ele>1398.6</ele><time>2026-03-28T10:47:26.021Z</time></trkpt><trkpt lat="45.9958632" lon="9.1507006"><ele>1401.1999999999998</ele><time>2026-03-28T10:47:27.015Z</time></trkpt><trkpt lat="45.9959307" lon="9.150767"><ele>1403.8000000000002</ele><time>2026-03-28T10:47:27.996Z</time></trkpt><trkpt lat="45.9960021" lon="9.1508382"><ele>1406.4</ele><time>2026-03-28T10:47:28.985Z</time></trkpt><trkpt lat="45.9960768" lon="9.1509362"><ele>1409.0</ele><time>2026-03-28T10:47:30.017Z</time></trkpt><trkpt lat="45.99616" lon="9.1510498"><ele>1409.0</ele><time>2026-03-28T10:47:30.989Z</time></trkpt><trkpt lat="45.9962467" lon="9.1511746"><ele>1409.0</ele><time>2026-03-28T10:47:32.006Z</time></trkpt><trkpt lat="45.9963359" lon="9.1513008"><ele>1409.0</ele><time>2026-03-28T10:47:33.016Z</time></trkpt><trkpt lat="45.9964288" lon="9.1514258"><ele>1409.0</ele><time>2026-03-28T10:47:33.986Z</time></trkpt><trkpt lat="45.996524" lon="9.1515539"><ele>1409.25</ele><time>2026-03-28T10:47:35.003Z</time></trkpt><trkpt lat="45.9966151" lon="9.1516777"><ele>1409.5</ele><time>2026-03-28T10:47:35.989Z</time></trkpt><trkpt lat="45.9967028" lon="9.1517957"><ele>1409.75</ele><time>2026-03-28T10:47:36.99Z</time></trkpt><trkpt lat="45.9967943" lon="9.1519176"><ele>1410.0</ele><time>2026-03-28T10:47:38.012Z</time></trkpt><trkpt lat="45.9968853" lon="9.1520435"><ele>1410.0</ele><time>2026-03-28T10:47:39.013Z</time></trkpt><trkpt lat="45.9969813" lon="9.1521777"><ele>1410.0</ele><time>2026-03-28T10:47:40.052Z</time></trkpt><trkpt lat="45.9970551" lon="9.1523244"><ele>1410.0</ele><time>2026-03-28T10:47:41.028Z</time></trkpt><trkpt lat="45.9971295" lon="9.1524689"><ele>1410.0</ele><time>2026-03-28T10:47:42.006Z</time></trkpt><trkpt lat="45.9971991" lon="9.1526168"><ele>1403.8</ele><time>2026-03-28T10:47:43.018Z</time></trkpt><trkpt lat="45.9972681" lon="9.1527479"><ele>1397.6</ele><time>2026-03-28T10:47:44Z</time></trkpt><trkpt lat="45.9973273" lon="9.1528567"><ele>1391.4</ele><time>2026-03-28T10:47:44.998Z</time></trkpt><trkpt lat="45.9973772" lon="9.1529344"><ele>1385.2</ele><time>2026-03-28T10:47:46Z</time></trkpt><trkpt lat="45.9974532" lon="9.1530129"><ele>1379.0</ele><time>2026-03-28T10:47:48.008Z</time></trkpt><trkpt lat="45.997518" lon="9.1529004"><ele>1380.5714285714287</ele><time>2026-03-28T10:47:50.023Z</time></trkpt><trkpt lat="45.9975467" lon="9.1528113"><ele>1382.142857142857</ele><time>2026-03-28T10:47:51.002Z</time></trkpt><trkpt lat="45.9975729" lon="9.1527151"><ele>1383.7142857142858</ele><time>2026-03-28T10:47:52.017Z</time></trkpt><trkpt lat="45.9976031" lon="9.152622"><ele>1385.2857142857142</ele><time>2026-03-28T10:47:53.005Z</time></trkpt><trkpt lat="45.9976316" lon="9.1525233"><ele>1386.857142857143</ele><time>2026-03-28T10:47:54Z</time></trkpt><trkpt lat="45.9976644" lon="9.1524257"><ele>1388.4285714285716</ele><time>2026-03-28T10:47:55.006Z</time></trkpt><trkpt lat="45.997694" lon="9.1523351"><ele>1390.0</ele><time>2026-03-28T10:47:56.007Z</time></trkpt><trkpt lat="45.9977262" lon="9.1522492"><ele>1390.0</ele><time>2026-03-28T10:47:56.994Z</time></trkpt><trkpt lat="45.9977617" lon="9.1521597"><ele>1390.0</ele><time>2026-03-28T10:47:58.011Z</time></trkpt><trkpt lat="45.9977994" lon="9.1520751"><ele>1390.0</ele><time>2026-03-28T10:47:59.001Z</time></trkpt><trkpt lat="45.9978423" lon="9.1519832"><ele>1390.0</ele><time>2026-03-28T10:48:00.017Z</time></trkpt><trkpt lat="45.9978909" lon="9.1518787"><ele>1390.0</ele><time>2026-03-28T10:48:01.007Z</time></trkpt><trkpt lat="45.997945" lon="9.1517699"><ele>1390.0</ele><time>2026-03-28T10:48:02.003Z</time></trkpt><trkpt lat="45.9980046" lon="9.1516598"><ele>1390.0</ele><time>2026-03-28T10:48:02.999Z</time></trkpt><trkpt lat="45.9980712" lon="9.1515473"><ele>1390.0</ele><time>2026-03-28T10:48:04.001Z</time></trkpt><trkpt lat="45.9981448" lon="9.1514351"><ele>1390.0</ele><time>2026-03-28T10:48:05.01Z</time></trkpt><trkpt lat="45.99822" lon="9.151326"><ele>1390.0</ele><time>2026-03-28T10:48:06.004Z</time></trkpt><trkpt lat="45.9982918" lon="9.1512259"><ele>1390.0</ele><time>2026-03-28T10:48:07.003Z</time></trkpt><trkpt lat="45.9983641" lon="9.1511345"><ele>1397.1666666666665</ele><time>2026-03-28T10:48:08.003Z</time></trkpt><trkpt lat="45.9984277" lon="9.151055"><ele>1404.3333333333333</ele><time>2026-03-28T10:48:08.997Z</time></trkpt><trkpt lat="45.9984896" lon="9.151"><ele>1411.5</ele><time>2026-03-28T10:48:10.008Z</time></trkpt><trkpt lat="45.9985483" lon="9.1509548"><ele>1418.6666666666667</ele><time>2026-03-28T10:48:11.005Z</time></trkpt><trkpt lat="45.9986107" lon="9.1509087"><ele>1425.8333333333335</ele><time>2026-03-28T10:48:12.021Z</time></trkpt><trkpt lat="45.9986709" lon="9.1508715"><ele>1433.0</ele><time>2026-03-28T10:48:13.006Z</time></trkpt><trkpt lat="45.9987699" lon="9.1508459"><ele>1433.0</ele><time>2026-03-28T10:48:15.001Z</time></trkpt><trkpt lat="45.9988505" lon="9.1509147"><ele>1433.0</ele><time>2026-03-28T10:48:15.996Z</time></trkpt><trkpt lat="45.998923" lon="9.1509957"><ele>1433.0</ele><time>2026-03-28T10:48:17.006Z</time></trkpt><trkpt lat="45.9989782" lon="9.151115"><ele>1433.0</ele><time>2026-03-28T10:48:18.006Z</time></trkpt><trkpt lat="45.9990442" lon="9.151208"><ele>1433.0</ele><time>2026-03-28T10:48:18.999Z</time></trkpt><trkpt lat="45.9991173" lon="9.1512749"><ele>1440.8000000000002</ele><time>2026-03-28T10:48:20.005Z</time></trkpt><trkpt lat="45.999194" lon="9.1513361"><ele>1448.6</ele><time>2026-03-28T10:48:21.002Z</time></trkpt><trkpt lat="45.9992815" lon="9.1513553"><ele>1456.4</ele><time>2026-03-28T10:48:22Z</time></trkpt><trkpt lat="45.9993625" lon="9.1513744"><ele>1464.1999999999998</ele><time>2026-03-28T10:48:23.008Z</time></trkpt><trkpt lat="45.9994525" lon="9.1513991"><ele>1472.0</ele><time>2026-03-28T10:48:24.017Z</time></trkpt><trkpt lat="45.9995353" lon="9.151479"><ele>1467.3333333333335</ele><time>2026-03-28T10:48:24.998Z</time></trkpt><trkpt lat="45.9996134" lon="9.1515572"><ele>1462.6666666666667</ele><time>2026-03-28T10:48:25.997Z</time></trkpt><trkpt lat="45.9996755" lon="9.1516563"><ele>1458.0</ele><time>2026-03-28T10:48:26.998Z</time></trkpt><trkpt lat="45.9997291" lon="9.1517465"><ele>1453.3333333333333</ele><time>2026-03-28T10:48:28.017Z</time></trkpt><trkpt lat="45.9998102" lon="9.151798"><ele>1448.6666666666665</ele><time>2026-03-28T10:48:29.006Z</time></trkpt><trkpt lat="45.999892" lon="9.1518323"><ele>1444.0</ele><time>2026-03-28T10:48:30.005Z</time></trkpt><trkpt lat="45.9999737" lon="9.1518813"><ele>1444.0</ele><time>2026-03-28T10:48:31.006Z</time></trkpt><trkpt lat="46.0000523" lon="9.1519499"><ele>1444.0</ele><time>2026-03-28T10:48:32.013Z</time></trkpt><trkpt lat="46.0001256" lon="9.1520338"><ele>1444.0</ele><time>2026-03-28T10:48:33.011Z</time></trkpt><trkpt lat="46.0001846" lon="9.1521438"><ele>1444.0</ele><time>2026-03-28T10:48:34.001Z</time></trkpt><trkpt lat="46.0002371" lon="9.1522603"><ele>1444.0</ele><time>2026-03-28T10:48:35.013Z</time></trkpt><trkpt lat="46.000298" lon="9.1523612"><ele>1438.5</ele><time>2026-03-28T10:48:36.001Z</time></trkpt><trkpt lat="46.0003656" lon="9.1524465"><ele>1433.0</ele><time>2026-03-28T10:48:37.003Z</time></trkpt><trkpt lat="46.0004331" lon="9.1525181"><ele>1427.5</ele><time>2026-03-28T10:48:38.025Z</time></trkpt><trkpt lat="46.0004942" lon="9.1525824"><ele>1422.0</ele><time>2026-03-28T10:48:39.011Z</time></trkpt><trkpt lat="46.0005522" lon="9.1526392"><ele>1416.5</ele><time>2026-03-28T10:48:39.989Z</time></trkpt><trkpt lat="46.0006075" lon="9.1526946"><ele>1411.0</ele><time>2026-03-28T10:48:41.008Z</time></trkpt><trkpt lat="46.0006619" lon="9.1527446"><ele>1411.0000000000002</ele><time>2026-03-28T10:48:41.992Z</time></trkpt><trkpt lat="46.0007156" lon="9.1527942"><ele>1411.0</ele><time>2026-03-28T10:48:42.99Z</time></trkpt><trkpt lat="46.0007764" lon="9.152829"><ele>1411.0</ele><time>2026-03-28T10:48:44.01Z</time></trkpt><trkpt lat="46.0008413" lon="9.1528509"><ele>1411.0</ele><time>2026-03-28T10:48:45.003Z</time></trkpt><trkpt lat="46.0009162" lon="9.1528456"><ele>1411.0</ele><time>2026-03-28T10:48:45.988Z</time></trkpt><trkpt lat="46.0009998" lon="9.1528058"><ele>1411.0000000000002</ele><time>2026-03-28T10:48:47.016Z</time></trkpt><trkpt lat="46.001081" lon="9.1527598"><ele>1411.0</ele><time>2026-03-28T10:48:47.995Z</time></trkpt><trkpt lat="46.0011674" lon="9.1527197"><ele>1418.0</ele><time>2026-03-28T10:48:49.003Z</time></trkpt><trkpt lat="46.0012517" lon="9.1526683"><ele>1425.0</ele><time>2026-03-28T10:48:50.006Z</time></trkpt><trkpt lat="46.0013273" lon="9.1525932"><ele>1432.0</ele><time>2026-03-28T10:48:51.002Z</time></trkpt><trkpt lat="46.0014039" lon="9.1525087"><ele>1439.0</ele><time>2026-03-28T10:48:51.998Z</time></trkpt><trkpt lat="46.0014732" lon="9.1524107"><ele>1446.0</ele><time>2026-03-28T10:48:53.007Z</time></trkpt><trkpt lat="46.0015507" lon="9.1523395"><ele>1450.3333333333333</ele><time>2026-03-28T10:48:54.009Z</time></trkpt><trkpt lat="46.0016333" lon="9.1522613"><ele>1454.6666666666667</ele><time>2026-03-28T10:48:55.02Z</time></trkpt><trkpt lat="46.0017045" lon="9.1521935"><ele>1459.0</ele><time>2026-03-28T10:48:56.004Z</time></trkpt><trkpt lat="46.0017726" lon="9.1521309"><ele>1463.3333333333335</ele><time>2026-03-28T10:48:57.004Z</time></trkpt><trkpt lat="46.0018376" lon="9.1520761"><ele>1467.6666666666667</ele><time>2026-03-28T10:48:58.006Z</time></trkpt><trkpt lat="46.0019062" lon="9.1520317"><ele>1472.0</ele><time>2026-03-28T10:48:59.013Z</time></trkpt><trkpt lat="46.0019783" lon="9.1519875"><ele>1472.0</ele><time>2026-03-28T10:49:00.004Z</time></trkpt><trkpt lat="46.0020471" lon="9.1519602"><ele>1472.0</ele><time>2026-03-28T10:49:01.02Z</time></trkpt><trkpt lat="46.0021162" lon="9.1519384"><ele>1472.0</ele><time>2026-03-28T10:49:02.001Z</time></trkpt><trkpt lat="46.0021997" lon="9.1518899"><ele>1472.0</ele><time>2026-03-28T10:49:04.01Z</time></trkpt><trkpt lat="46.0022329" lon="9.1517982"><ele>1472.0</ele><time>2026-03-28T10:49:47.986Z</time></trkpt><trkpt lat="46.0022955" lon="9.1517519"><ele>1472.0</ele><time>2026-03-28T10:49:51.991Z</time></trkpt><trkpt lat="46.0023934" lon="9.1517165"><ele>1472.0</ele><time>2026-03-28T10:49:59.005Z</time></trkpt><trkpt lat="46.0024875" lon="9.1516925"><ele>1472.0</ele><time>2026-03-28T10:50:03.018Z</time></trkpt><trkpt lat="46.0025762" lon="9.1516514"><ele>1472.0</ele><time>2026-03-28T10:50:04.99Z</time></trkpt><trkpt lat="46.0026379" lon="9.1516161"><ele>1472.0</ele><time>2026-03-28T10:50:06.001Z</time></trkpt><trkpt lat="46.0027609" lon="9.151543"><ele>1472.0</ele><time>2026-03-28T10:50:08Z</time></trkpt><trkpt lat="46.0028769" lon="9.1515066"><ele>1470.3999999999999</ele><time>2026-03-28T10:50:10.008Z</time></trkpt><trkpt lat="46.0029863" lon="9.1514952"><ele>1468.8</ele><time>2026-03-28T10:50:12.012Z</time></trkpt><trkpt lat="46.0030646" lon="9.1515072"><ele>1467.2</ele><time>2026-03-28T10:50:12.997Z</time></trkpt><trkpt lat="46.0031518" lon="9.1515503"><ele>1465.6</ele><time>2026-03-28T10:50:14.001Z</time></trkpt><trkpt lat="46.0032337" lon="9.1516221"><ele>1464.0</ele><time>2026-03-28T10:50:15.026Z</time></trkpt><trkpt lat="46.0033161" lon="9.1516819"><ele>1465.5</ele><time>2026-03-28T10:50:16.012Z</time></trkpt><trkpt lat="46.0033955" lon="9.1517365"><ele>1467.0</ele><time>2026-03-28T10:50:17.003Z</time></trkpt><trkpt lat="46.0034628" lon="9.1518006"><ele>1468.5</ele><time>2026-03-28T10:50:18.006Z</time></trkpt><trkpt lat="46.0035353" lon="9.1518635"><ele>1470.0</ele><time>2026-03-28T10:50:19.001Z</time></trkpt><trkpt lat="46.003607" lon="9.1519476"><ele>1471.5</ele><time>2026-03-28T10:50:20.006Z</time></trkpt><trkpt lat="46.0036692" lon="9.1520369"><ele>1473.0</ele><time>2026-03-28T10:50:21.004Z</time></trkpt><trkpt lat="46.0037148" lon="9.1521195"><ele>1473.0</ele><time>2026-03-28T10:50:22.019Z</time></trkpt><trkpt lat="46.0037505" lon="9.1521962"><ele>1473.0</ele><time>2026-03-28T10:50:23.016Z</time></trkpt><trkpt lat="46.0038168" lon="9.1523416"><ele>1473.0</ele><time>2026-03-28T10:50:25.005Z</time></trkpt><trkpt lat="46.0038943" lon="9.1524825"><ele>1473.0</ele><time>2026-03-28T10:50:27.008Z</time></trkpt><trkpt lat="46.0039828" lon="9.1526055"><ele>1473.0</ele><time>2026-03-28T10:50:29.002Z</time></trkpt><trkpt lat="46.0040827" lon="9.152701"><ele>1475.142857142857</ele><time>2026-03-28T10:50:31Z</time></trkpt><trkpt lat="46.0041393" lon="9.152743"><ele>1477.2857142857142</ele><time>2026-03-28T10:50:32.015Z</time></trkpt><trkpt lat="46.0042022" lon="9.1527827"><ele>1479.4285714285716</ele><time>2026-03-28T10:50:33.005Z</time></trkpt><trkpt lat="46.00427" lon="9.1528185"><ele>1481.5714285714284</ele><time>2026-03-28T10:50:34.018Z</time></trkpt><trkpt lat="46.0043427" lon="9.1528548"><ele>1483.7142857142858</ele><time>2026-03-28T10:50:34.999Z</time></trkpt><trkpt lat="46.0044158" lon="9.1528937"><ele>1485.857142857143</ele><time>2026-03-28T10:50:35.997Z</time></trkpt><trkpt lat="46.004491" lon="9.1529273"><ele>1488.0</ele><time>2026-03-28T10:50:37.004Z</time></trkpt><trkpt lat="46.0045679" lon="9.1529536"><ele>1488.0</ele><time>2026-03-28T10:50:37.998Z</time></trkpt><trkpt lat="46.0046432" lon="9.1529781"><ele>1488.0</ele><time>2026-03-28T10:50:39.014Z</time></trkpt><trkpt lat="46.0047139" lon="9.1530035"><ele>1488.0</ele><time>2026-03-28T10:50:39.995Z</time></trkpt><trkpt lat="46.0047755" lon="9.1530284"><ele>1488.0</ele><time>2026-03-28T10:50:41.014Z</time></trkpt><trkpt lat="46.0048776" lon="9.1530692"><ele>1488.0</ele><time>2026-03-28T10:50:42.992Z</time></trkpt><trkpt lat="46.0049691" lon="9.1531378"><ele>1488.0</ele><time>2026-03-28T10:50:45.011Z</time></trkpt><trkpt lat="46.0050553" lon="9.1532026"><ele>1487.2</ele><time>2026-03-28T10:50:47.003Z</time></trkpt><trkpt lat="46.0051639" lon="9.1532553"><ele>1486.4</ele><time>2026-03-28T10:50:49.001Z</time></trkpt><trkpt lat="46.0052584" lon="9.1533085"><ele>1485.6000000000001</ele><time>2026-03-28T10:50:51.014Z</time></trkpt><trkpt lat="46.0053381" lon="9.1533641"><ele>1484.8000000000002</ele><time>2026-03-28T10:50:53.001Z</time></trkpt><trkpt lat="46.0053933" lon="9.1534254"><ele>1484.0</ele><time>2026-03-28T10:50:55Z</time></trkpt><trkpt lat="46.0054703" lon="9.1534989"><ele>1484.0</ele><time>2026-03-28T10:52:15.993Z</time></trkpt><trkpt lat="46.0055316" lon="9.1536232"><ele>1484.0</ele><time>2026-03-28T10:52:18.001Z</time></trkpt><trkpt lat="46.005588" lon="9.1537775"><ele>1484.0</ele><time>2026-03-28T10:52:20.018Z</time></trkpt><trkpt lat="46.0056367" lon="9.1539354"><ele>1484.0</ele><time>2026-03-28T10:52:21.998Z</time></trkpt><trkpt lat="46.0056874" lon="9.1540965"><ele>1479.6666666666667</ele><time>2026-03-28T10:52:23.993Z</time></trkpt><trkpt lat="46.0057289" lon="9.1542701"><ele>1475.3333333333335</ele><time>2026-03-28T10:52:26.001Z</time></trkpt><trkpt lat="46.0057464" lon="9.1543644"><ele>1471.0</ele><time>2026-03-28T10:52:27.005Z</time></trkpt><trkpt lat="46.0057626" lon="9.1544651"><ele>1466.6666666666667</ele><time>2026-03-28T10:52:28.029Z</time></trkpt><trkpt lat="46.0057767" lon="9.1545708"><ele>1462.3333333333333</ele><time>2026-03-28T10:52:29.018Z</time></trkpt><trkpt lat="46.0057864" lon="9.1546786"><ele>1458.0</ele><time>2026-03-28T10:52:30.003Z</time></trkpt><trkpt lat="46.0057899" lon="9.1547874"><ele>1456.6666666666667</ele><time>2026-03-28T10:52:31.004Z</time></trkpt><trkpt lat="46.0057905" lon="9.1548976"><ele>1455.3333333333333</ele><time>2026-03-28T10:52:32.007Z</time></trkpt><trkpt lat="46.0057905" lon="9.1550087"><ele>1454.0</ele><time>2026-03-28T10:52:32.989Z</time></trkpt><trkpt lat="46.0057915" lon="9.1551193"><ele>1452.6666666666665</ele><time>2026-03-28T10:52:34.009Z</time></trkpt><trkpt lat="46.005792" lon="9.1552303"><ele>1451.3333333333333</ele><time>2026-03-28T10:52:35.01Z</time></trkpt><trkpt lat="46.0057935" lon="9.1553402"><ele>1450.0</ele><time>2026-03-28T10:52:36.009Z</time></trkpt><trkpt lat="46.0057979" lon="9.1554498"><ele>1450.0</ele><time>2026-03-28T10:52:37.004Z</time></trkpt><trkpt lat="46.0058044" lon="9.1555592"><ele>1450.0</ele><time>2026-03-28T10:52:37.998Z</time></trkpt><trkpt lat="46.0058103" lon="9.1556632"><ele>1450.0</ele><time>2026-03-28T10:52:38.995Z</time></trkpt><trkpt lat="46.005817" lon="9.1557615"><ele>1450.0</ele><time>2026-03-28T10:52:40.014Z</time></trkpt><trkpt lat="46.0058302" lon="9.1558571"><ele>1450.0</ele><time>2026-03-28T10:52:41.007Z</time></trkpt><trkpt lat="46.0058532" lon="9.1559516"><ele>1450.0</ele><time>2026-03-28T10:52:41.999Z</time></trkpt><trkpt lat="46.0058813" lon="9.1560469"><ele>1450.0</ele><time>2026-03-28T10:52:43.016Z</time></trkpt><trkpt lat="46.005911" lon="9.1561459"><ele>1456.2</ele><time>2026-03-28T10:52:44Z</time></trkpt><trkpt lat="46.0059535" lon="9.1562972"><ele>1462.4</ele><time>2026-03-28T10:52:45.996Z</time></trkpt><trkpt lat="46.0059976" lon="9.1563975"><ele>1468.6</ele><time>2026-03-28T10:52:48.01Z</time></trkpt><trkpt lat="46.0060649" lon="9.1564825"><ele>1474.8</ele><time>2026-03-28T10:52:49.997Z</time></trkpt><trkpt lat="46.0061701" lon="9.1565268"><ele>1481.0</ele><time>2026-03-28T10:52:52.007Z</time></trkpt><trkpt lat="46.0062893" lon="9.1565398"><ele>1481.0</ele><time>2026-03-28T10:52:54.017Z</time></trkpt><trkpt lat="46.0064043" lon="9.1565432"><ele>1481.0</ele><time>2026-03-28T10:52:56.009Z</time></trkpt><trkpt lat="46.0065051" lon="9.1565315"><ele>1481.0</ele><time>2026-03-28T10:52:57.998Z</time></trkpt><trkpt lat="46.0066053" lon="9.1565132"><ele>1481.0</ele><time>2026-03-28T10:53:00.005Z</time></trkpt><trkpt lat="46.0067135" lon="9.1564962"><ele>1481.0</ele><time>2026-03-28T10:53:02.006Z</time></trkpt><trkpt lat="46.0068286" lon="9.1564964"><ele>1486.0</ele><time>2026-03-28T10:53:04.011Z</time></trkpt><trkpt lat="46.0069406" lon="9.1565184"><ele>1491.0</ele><time>2026-03-28T10:53:06.026Z</time></trkpt><trkpt lat="46.0070513" lon="9.1565637"><ele>1496.0</ele><time>2026-03-28T10:53:08Z</time></trkpt><trkpt lat="46.0071582" lon="9.1566024"><ele>1501.0</ele><time>2026-03-28T10:53:10.006Z</time></trkpt><trkpt lat="46.0072392" lon="9.156651"><ele>1506.0</ele><time>2026-03-28T10:53:13.006Z</time></trkpt><trkpt lat="46.0073005" lon="9.1567075"><ele>1506.0</ele><time>2026-03-28T10:53:15.004Z</time></trkpt><trkpt lat="46.0073976" lon="9.1568189"><ele>1506.0</ele><time>2026-03-28T10:53:17.02Z</time></trkpt><trkpt lat="46.0074522" lon="9.156882"><ele>1506.0</ele><time>2026-03-28T10:53:17.993Z</time></trkpt><trkpt lat="46.0075072" lon="9.1569477"><ele>1506.0</ele><time>2026-03-28T10:53:18.989Z</time></trkpt><trkpt lat="46.0075634" lon="9.1570116"><ele>1506.0</ele><time>2026-03-28T10:53:20Z</time></trkpt><trkpt lat="46.0076233" lon="9.1570716"><ele>1506.0</ele><time>2026-03-28T10:53:20.996Z</time></trkpt><trkpt lat="46.0076848" lon="9.1571321"><ele>1504.7142857142858</ele><time>2026-03-28T10:53:21.99Z</time></trkpt><trkpt lat="46.0077479" lon="9.1571921"><ele>1503.4285714285716</ele><time>2026-03-28T10:53:23.007Z</time></trkpt><trkpt lat="46.0078088" lon="9.1572522"><ele>1502.142857142857</ele><time>2026-03-28T10:53:24.007Z</time></trkpt><trkpt lat="46.0078684" lon="9.1573099"><ele>1500.857142857143</ele><time>2026-03-28T10:53:25.012Z</time></trkpt><trkpt lat="46.0079273" lon="9.1573683"><ele>1499.5714285714284</ele><time>2026-03-28T10:53:26.009Z</time></trkpt><trkpt lat="46.0079805" lon="9.1574303"><ele>1498.2857142857142</ele><time>2026-03-28T10:53:27.003Z</time></trkpt><trkpt lat="46.0080316" lon="9.1574867"><ele>1497.0</ele><time>2026-03-28T10:53:28.014Z</time></trkpt><trkpt lat="46.0080821" lon="9.1575445"><ele>1497.0</ele><time>2026-03-28T10:53:28.993Z</time></trkpt><trkpt lat="46.0081302" lon="9.1576093"><ele>1497.0</ele><time>2026-03-28T10:53:30Z</time></trkpt><trkpt lat="46.0081742" lon="9.1576756"><ele>1497.0</ele><time>2026-03-28T10:53:31.002Z</time></trkpt><trkpt lat="46.008219" lon="9.1577444"><ele>1497.0</ele><time>2026-03-28T10:53:32.006Z</time></trkpt><trkpt lat="46.0083093" lon="9.1578778"><ele>1497.0</ele><time>2026-03-28T10:53:34.004Z</time></trkpt><trkpt lat="46.008356" lon="9.1579412"><ele>1497.0</ele><time>2026-03-28T10:53:35.002Z</time></trkpt><trkpt lat="46.0084067" lon="9.1580094"><ele>1500.142857142857</ele><time>2026-03-28T10:53:36.011Z</time></trkpt><trkpt lat="46.0084608" lon="9.1580783"><ele>1503.2857142857142</ele><time>2026-03-28T10:53:37.014Z</time></trkpt><trkpt lat="46.0085158" lon="9.1581423"><ele>1506.4285714285716</ele><time>2026-03-28T10:53:38.015Z</time></trkpt><trkpt lat="46.0085692" lon="9.1582054"><ele>1509.5714285714284</ele><time>2026-03-28T10:53:39.005Z</time></trkpt><trkpt lat="46.0086246" lon="9.158264"><ele>1512.7142857142858</ele><time>2026-03-28T10:53:40.006Z</time></trkpt><trkpt lat="46.0086812" lon="9.1583276"><ele>1515.857142857143</ele><time>2026-03-28T10:53:41.015Z</time></trkpt><trkpt lat="46.0087332" lon="9.1583985"><ele>1519.0</ele><time>2026-03-28T10:53:41.995Z</time></trkpt><trkpt lat="46.0087775" lon="9.1584834"><ele>1519.0</ele><time>2026-03-28T10:53:42.999Z</time></trkpt><trkpt lat="46.0088143" lon="9.1585852"><ele>1519.0</ele><time>2026-03-28T10:53:44.006Z</time></trkpt><trkpt lat="46.0088462" lon="9.1586879"><ele>1519.0</ele><time>2026-03-28T10:53:44.993Z</time></trkpt><trkpt lat="46.0088799" lon="9.158791"><ele>1519.0</ele><time>2026-03-28T10:53:45.996Z</time></trkpt><trkpt lat="46.0089134" lon="9.1588932"><ele>1519.0</ele><time>2026-03-28T10:53:46.998Z</time></trkpt><trkpt lat="46.0089448" lon="9.158994"><ele>1519.0</ele><time>2026-03-28T10:53:48.013Z</time></trkpt><trkpt lat="46.0089754" lon="9.1590933"><ele>1515.3333333333333</ele><time>2026-03-28T10:53:48.991Z</time></trkpt><trkpt lat="46.0090063" lon="9.1591908"><ele>1511.6666666666665</ele><time>2026-03-28T10:53:50.018Z</time></trkpt><trkpt lat="46.0090429" lon="9.1592942"><ele>1508.0</ele><time>2026-03-28T10:53:50.998Z</time></trkpt><trkpt lat="46.0090792" lon="9.1593911"><ele>1504.3333333333333</ele><time>2026-03-28T10:53:52.013Z</time></trkpt><trkpt lat="46.009105" lon="9.1594897"><ele>1500.6666666666667</ele><time>2026-03-28T10:53:53.001Z</time></trkpt><trkpt lat="46.0091133" lon="9.159604"><ele>1497.0</ele><time>2026-03-28T10:53:54.019Z</time></trkpt><trkpt lat="46.0091067" lon="9.1597192"><ele>1497.0</ele><time>2026-03-28T10:53:55.017Z</time></trkpt><trkpt lat="46.0090977" lon="9.1598364"><ele>1497.0</ele><time>2026-03-28T10:53:56.001Z</time></trkpt><trkpt lat="46.0090912" lon="9.1599542"><ele>1497.0</ele><time>2026-03-28T10:53:57.012Z</time></trkpt><trkpt lat="46.0090825" lon="9.160067"><ele>1497.0</ele><time>2026-03-28T10:53:58.011Z</time></trkpt><trkpt lat="46.0090716" lon="9.1601757"><ele>1497.0</ele><time>2026-03-28T10:53:58.999Z</time></trkpt><trkpt lat="46.0090584" lon="9.1602769"><ele>1497.0</ele><time>2026-03-28T10:54:00.003Z</time></trkpt><trkpt lat="46.0090474" lon="9.1603733"><ele>1497.1999999999998</ele><time>2026-03-28T10:54:01.018Z</time></trkpt><trkpt lat="46.0090378" lon="9.1604682"><ele>1497.4</ele><time>2026-03-28T10:54:01.992Z</time></trkpt><trkpt lat="46.0090313" lon="9.1606384"><ele>1497.6</ele><time>2026-03-28T10:54:04.015Z</time></trkpt><trkpt lat="46.0090417" lon="9.1607855"><ele>1497.8000000000002</ele><time>2026-03-28T10:54:06Z</time></trkpt><trkpt lat="46.00906" lon="9.160931"><ele>1498.0</ele><time>2026-03-28T10:54:08Z</time></trkpt><trkpt lat="46.0091162" lon="9.1610531"><ele>1507.1666666666665</ele><time>2026-03-28T10:54:10.002Z</time></trkpt><trkpt lat="46.0092187" lon="9.1611562"><ele>1516.3333333333333</ele><time>2026-03-28T10:54:12.002Z</time></trkpt><trkpt lat="46.0092742" lon="9.1612089"><ele>1525.5</ele><time>2026-03-28T10:54:13Z</time></trkpt><trkpt lat="46.0093337" lon="9.1612554"><ele>1534.6666666666665</ele><time>2026-03-28T10:54:13.999Z</time></trkpt><trkpt lat="46.0093953" lon="9.1613005"><ele>1543.8333333333333</ele><time>2026-03-28T10:54:15.017Z</time></trkpt><trkpt lat="46.0094581" lon="9.1613474"><ele>1553.0</ele><time>2026-03-28T10:54:15.998Z</time></trkpt><trkpt lat="46.0095221" lon="9.1613974"><ele>1552.9999999999998</ele><time>2026-03-28T10:54:17.004Z</time></trkpt><trkpt lat="46.0095887" lon="9.1614492"><ele>1553.0</ele><time>2026-03-28T10:54:18.004Z</time></trkpt><trkpt lat="46.0096561" lon="9.161504"><ele>1553.0</ele><time>2026-03-28T10:54:18.997Z</time></trkpt><trkpt lat="46.0097248" lon="9.1615639"><ele>1553.0</ele><time>2026-03-28T10:54:20Z</time></trkpt><trkpt lat="46.0097943" lon="9.1616275"><ele>1552.9999999999998</ele><time>2026-03-28T10:54:20.995Z</time></trkpt><trkpt lat="46.009862" lon="9.1616863"><ele>1553.0</ele><time>2026-03-28T10:54:21.991Z</time></trkpt><trkpt lat="46.0099234" lon="9.1617502"><ele>1549.6666666666665</ele><time>2026-03-28T10:54:23Z</time></trkpt><trkpt lat="46.0099685" lon="9.1618249"><ele>1546.3333333333333</ele><time>2026-03-28T10:54:24.007Z</time></trkpt><trkpt lat="46.0100038" lon="9.161912"><ele>1543.0</ele><time>2026-03-28T10:54:25.002Z</time></trkpt><trkpt lat="46.0100305" lon="9.1620135"><ele>1539.6666666666665</ele><time>2026-03-28T10:54:26.008Z</time></trkpt><trkpt lat="46.0100614" lon="9.1621249"><ele>1536.3333333333333</ele><time>2026-03-28T10:54:27Z</time></trkpt><trkpt lat="46.0100882" lon="9.1622383"><ele>1533.0</ele><time>2026-03-28T10:54:28.016Z</time></trkpt><trkpt lat="46.0101147" lon="9.1623507"><ele>1537.6666666666667</ele><time>2026-03-28T10:54:29.018Z</time></trkpt><trkpt lat="46.0101408" lon="9.1624576"><ele>1542.3333333333335</ele><time>2026-03-28T10:54:29.997Z</time></trkpt><trkpt lat="46.0101634" lon="9.1625634"><ele>1547.0</ele><time>2026-03-28T10:54:30.991Z</time></trkpt><trkpt lat="46.0101817" lon="9.1626715"><ele>1551.6666666666667</ele><time>2026-03-28T10:54:31.998Z</time></trkpt><trkpt lat="46.0101963" lon="9.1627803"><ele>1556.3333333333335</ele><time>2026-03-28T10:54:33.001Z</time></trkpt><trkpt lat="46.0102112" lon="9.1628891"><ele>1561.0</ele><time>2026-03-28T10:54:34.006Z</time></trkpt><trkpt lat="46.0102207" lon="9.1629954"><ele>1561.0000000000002</ele><time>2026-03-28T10:54:35.017Z</time></trkpt><trkpt lat="46.0102293" lon="9.163111"><ele>1561.0</ele><time>2026-03-28T10:54:36.007Z</time></trkpt><trkpt lat="46.0102346" lon="9.1632236"><ele>1561.0</ele><time>2026-03-28T10:54:37.003Z</time></trkpt><trkpt lat="46.010234" lon="9.163338"><ele>1561.0</ele><time>2026-03-28T10:54:38.007Z</time></trkpt><trkpt lat="46.0102266" lon="9.1634515"><ele>1561.0000000000002</ele><time>2026-03-28T10:54:38.997Z</time></trkpt><trkpt lat="46.0102101" lon="9.1635656"><ele>1561.0</ele><time>2026-03-28T10:54:40.001Z</time></trkpt><trkpt lat="46.0101818" lon="9.1636744"><ele>1561.0000000000002</ele><time>2026-03-28T10:54:41.004Z</time></trkpt><trkpt lat="46.0101465" lon="9.1637824"><ele>1561.0</ele><time>2026-03-28T10:54:42.014Z</time></trkpt><trkpt lat="46.0101073" lon="9.1638897"><ele>1561.0</ele><time>2026-03-28T10:54:42.995Z</time></trkpt><trkpt lat="46.0100677" lon="9.1639915"><ele>1561.0</ele><time>2026-03-28T10:54:44.005Z</time></trkpt><trkpt lat="46.0100327" lon="9.1640838"><ele>1561.0000000000002</ele><time>2026-03-28T10:54:45.006Z</time></trkpt><trkpt lat="46.0099925" lon="9.1641775"><ele>1561.0</ele><time>2026-03-28T10:54:46.007Z</time></trkpt><trkpt lat="46.0099493" lon="9.1642716"><ele>1557.8333333333335</ele><time>2026-03-28T10:54:47.001Z</time></trkpt><trkpt lat="46.0099061" lon="9.1643727"><ele>1554.6666666666667</ele><time>2026-03-28T10:54:48.008Z</time></trkpt><trkpt lat="46.0098618" lon="9.1644763"><ele>1551.5</ele><time>2026-03-28T10:54:48.999Z</time></trkpt><trkpt lat="46.0098123" lon="9.1645782"><ele>1548.3333333333335</ele><time>2026-03-28T10:54:50.002Z</time></trkpt><trkpt lat="46.0097615" lon="9.164678"><ele>1545.1666666666667</ele><time>2026-03-28T10:54:51.014Z</time></trkpt><trkpt lat="46.0097138" lon="9.164779"><ele>1542.0</ele><time>2026-03-28T10:54:52.008Z</time></trkpt><trkpt lat="46.0096663" lon="9.164886"><ele>1542.0</ele><time>2026-03-28T10:54:53.013Z</time></trkpt><trkpt lat="46.0096237" lon="9.1649983"><ele>1542.0</ele><time>2026-03-28T10:54:53.999Z</time></trkpt><trkpt lat="46.0095808" lon="9.165111"><ele>1542.0</ele><time>2026-03-28T10:54:55.014Z</time></trkpt><trkpt lat="46.0095402" lon="9.1652234"><ele>1542.0</ele><time>2026-03-28T10:54:56Z</time></trkpt><trkpt lat="46.0095076" lon="9.1653385"><ele>1542.0</ele><time>2026-03-28T10:54:56.999Z</time></trkpt><trkpt lat="46.0094741" lon="9.1654528"><ele>1542.0</ele><time>2026-03-28T10:54:58.021Z</time></trkpt><trkpt lat="46.0094375" lon="9.1655681"><ele>1542.0</ele><time>2026-03-28T10:54:59.024Z</time></trkpt><trkpt lat="46.0094" lon="9.1656877"><ele>1542.0</ele><time>2026-03-28T10:55:00.018Z</time></trkpt><trkpt lat="46.0093626" lon="9.165808"><ele>1542.0</ele><time>2026-03-28T10:55:01.022Z</time></trkpt><trkpt lat="46.0093253" lon="9.1659229"><ele>1542.0</ele><time>2026-03-28T10:55:01.998Z</time></trkpt><trkpt lat="46.0092854" lon="9.1660314"><ele>1542.0</ele><time>2026-03-28T10:55:02.996Z</time></trkpt><trkpt lat="46.0092469" lon="9.1661302"><ele>1542.0</ele><time>2026-03-28T10:55:04.006Z</time></trkpt><trkpt lat="46.0092104" lon="9.1662174"><ele>1541.6666666666667</ele><time>2026-03-28T10:55:05.008Z</time></trkpt><trkpt lat="46.0091763" lon="9.1662966"><ele>1541.3333333333335</ele><time>2026-03-28T10:55:06.026Z</time></trkpt><trkpt lat="46.0091141" lon="9.166446"><ele>1541.0</ele><time>2026-03-28T10:55:08.014Z</time></trkpt><trkpt lat="46.009052" lon="9.1665814"><ele>1540.6666666666667</ele><time>2026-03-28T10:55:10.017Z</time></trkpt><trkpt lat="46.0090033" lon="9.1666829"><ele>1540.3333333333335</ele><time>2026-03-28T10:55:12Z</time></trkpt><trkpt lat="46.0089599" lon="9.1667522"><ele>1540.0</ele><time>2026-03-28T10:55:13.995Z</time></trkpt><trkpt lat="46.0088959" lon="9.16684"><ele>1540.0000000000002</ele><time>2026-03-28T10:55:16.003Z</time></trkpt><trkpt lat="46.008835" lon="9.1669299"><ele>1540.0</ele><time>2026-03-28T10:55:18.006Z</time></trkpt><trkpt lat="46.0087756" lon="9.1670169"><ele>1540.0</ele><time>2026-03-28T10:55:20.003Z</time></trkpt><trkpt lat="46.0087164" lon="9.1671161"><ele>1540.0</ele><time>2026-03-28T10:55:22.028Z</time></trkpt><trkpt lat="46.0087103" lon="9.1672313"><ele>1540.0000000000002</ele><time>2026-03-28T10:55:25.019Z</time></trkpt><trkpt lat="46.0087527" lon="9.1673223"><ele>1540.0</ele><time>2026-03-28T10:55:28.004Z</time></trkpt><trkpt lat="46.0087067" lon="9.1672245"><ele>1540.0</ele><time>2026-03-28T10:56:49.002Z</time></trkpt><trkpt lat="46.0087264" lon="9.1671177"><ele>1540.0</ele><time>2026-03-28T10:57:05.014Z</time></trkpt></trkseg></trk></gpx>